<?xml version="1.0" encoding="UTF-8" standalone="no" ?>
<gpx xmlns="http://www.topografix.com/GPX/1/1" xmlns:xsi="http://www.w3.org/2001/XMLSchema-instance" xsi:schemaLocation="http://www.topografix.com/GPX/1/1 http://www.topografix.com/GPX/1/1/gpx.xsd" version="1.1" creator="VisuGPX - https://www.visugpx.com">
  <metadata>
    <name>Cascade de Tufs/ roche du feu</name>
    <desc><![CDATA[départ rive gauche pont sur la cuisance face à Mesnay,
de beaux paysages, n\\\'hésitez pas à aller jusqu\\\'au \\\"cul du four\\\" GR59 pour partie]]></desc>
  </metadata>
  <trk>
    <name><![CDATA[16-SEP-12 16:27:40]]></name>
    <trkseg>
      <trkpt lat="46.89904" lon="5.79403">
        <ele>309.2</ele>
        <time>2012-09-16T09:17:09Z</time>
      </trkpt>
      <trkpt lat="46.89904" lon="5.79403">
        <ele>312.09</ele>
        <time>2012-09-16T09:17:10Z</time>
      </trkpt>
      <trkpt lat="46.89905" lon="5.79402">
        <ele>315.93</ele>
        <time>2012-09-16T09:17:23Z</time>
      </trkpt>
      <trkpt lat="46.89905" lon="5.79402">
        <ele>312.09</ele>
        <time>2012-09-16T09:17:24Z</time>
      </trkpt>
      <trkpt lat="46.89905" lon="5.79402">
        <ele>316.41</ele>
        <time>2012-09-16T09:17:28Z</time>
      </trkpt>
      <trkpt lat="46.89905" lon="5.79402">
        <ele>312.09</ele>
        <time>2012-09-16T09:17:29Z</time>
      </trkpt>
      <trkpt lat="46.89905" lon="5.79402">
        <ele>315.45</ele>
        <time>2012-09-16T09:17:38Z</time>
      </trkpt>
      <trkpt lat="46.89905" lon="5.79402">
        <ele>312.09</ele>
        <time>2012-09-16T09:17:39Z</time>
      </trkpt>
      <trkpt lat="46.89905" lon="5.79402">
        <ele>308.24</ele>
        <time>2012-09-16T09:17:46Z</time>
      </trkpt>
      <trkpt lat="46.89905" lon="5.79402">
        <ele>311.6</ele>
        <time>2012-09-16T09:17:47Z</time>
      </trkpt>
      <trkpt lat="46.89905" lon="5.79402">
        <ele>313.05</ele>
        <time>2012-09-16T09:17:52Z</time>
      </trkpt>
      <trkpt lat="46.89905" lon="5.79402">
        <ele>311.12</ele>
        <time>2012-09-16T09:18:13Z</time>
      </trkpt>
      <trkpt lat="46.89903" lon="5.79401">
        <ele>312.57</ele>
        <time>2012-09-16T09:18:37Z</time>
      </trkpt>
      <trkpt lat="46.89901" lon="5.79393">
        <ele>312.57</ele>
        <time>2012-09-16T09:18:49Z</time>
      </trkpt>
      <trkpt lat="46.89901" lon="5.79393">
        <ele>313.05</ele>
        <time>2012-09-16T09:19:12Z</time>
      </trkpt>
      <trkpt lat="46.89901" lon="5.79393">
        <ele>312.57</ele>
        <time>2012-09-16T09:19:34Z</time>
      </trkpt>
      <trkpt lat="46.89899" lon="5.79398">
        <ele>313.05</ele>
        <time>2012-09-16T09:19:49Z</time>
      </trkpt>
      <trkpt lat="46.8989" lon="5.79411">
        <ele>313.05</ele>
        <time>2012-09-16T09:20:03Z</time>
      </trkpt>
      <trkpt lat="46.89897" lon="5.79398">
        <ele>313.53</ele>
        <time>2012-09-16T09:20:12Z</time>
      </trkpt>
      <trkpt lat="46.899" lon="5.79396">
        <ele>311.6</ele>
        <time>2012-09-16T09:20:17Z</time>
      </trkpt>
      <trkpt lat="46.899" lon="5.79396">
        <ele>311.6</ele>
        <time>2012-09-16T09:20:44Z</time>
      </trkpt>
      <trkpt lat="46.899" lon="5.79396">
        <ele>312.09</ele>
        <time>2012-09-16T09:21:19Z</time>
      </trkpt>
      <trkpt lat="46.899" lon="5.79396">
        <ele>311.6</ele>
        <time>2012-09-16T09:21:53Z</time>
      </trkpt>
      <trkpt lat="46.89899" lon="5.79395">
        <ele>313.05</ele>
        <time>2012-09-16T09:22:05Z</time>
      </trkpt>
      <trkpt lat="46.89898" lon="5.79398">
        <ele>312.09</ele>
        <time>2012-09-16T09:22:07Z</time>
      </trkpt>
      <trkpt lat="46.89892" lon="5.79405">
        <ele>312.57</ele>
        <time>2012-09-16T09:22:12Z</time>
      </trkpt>
      <trkpt lat="46.89876" lon="5.79428">
        <ele>312.09</ele>
        <time>2012-09-16T09:22:26Z</time>
      </trkpt>
      <trkpt lat="46.89857" lon="5.79454">
        <ele>313.53</ele>
        <time>2012-09-16T09:22:42Z</time>
      </trkpt>
      <trkpt lat="46.89843" lon="5.79474">
        <ele>314.49</ele>
        <time>2012-09-16T09:22:55Z</time>
      </trkpt>
      <trkpt lat="46.89829" lon="5.79493">
        <ele>314.49</ele>
        <time>2012-09-16T09:23:07Z</time>
      </trkpt>
      <trkpt lat="46.89823" lon="5.79505">
        <ele>314.49</ele>
        <time>2012-09-16T09:23:14Z</time>
      </trkpt>
      <trkpt lat="46.89809" lon="5.79523">
        <ele>314.97</ele>
        <time>2012-09-16T09:23:27Z</time>
      </trkpt>
      <trkpt lat="46.89803" lon="5.79533">
        <ele>315.45</ele>
        <time>2012-09-16T09:23:33Z</time>
      </trkpt>
      <trkpt lat="46.89796" lon="5.79551">
        <ele>315.45</ele>
        <time>2012-09-16T09:23:44Z</time>
      </trkpt>
      <trkpt lat="46.89793" lon="5.7957">
        <ele>315.45</ele>
        <time>2012-09-16T09:23:57Z</time>
      </trkpt>
      <trkpt lat="46.89792" lon="5.79578">
        <ele>316.41</ele>
        <time>2012-09-16T09:24:02Z</time>
      </trkpt>
      <trkpt lat="46.89782" lon="5.79603">
        <ele>316.89</ele>
        <time>2012-09-16T09:24:17Z</time>
      </trkpt>
      <trkpt lat="46.89774" lon="5.79628">
        <ele>316.41</ele>
        <time>2012-09-16T09:24:32Z</time>
      </trkpt>
      <trkpt lat="46.89771" lon="5.79637">
        <ele>316.89</ele>
        <time>2012-09-16T09:24:37Z</time>
      </trkpt>
      <trkpt lat="46.89766" lon="5.79652">
        <ele>316.89</ele>
        <time>2012-09-16T09:24:46Z</time>
      </trkpt>
      <trkpt lat="46.89759" lon="5.79667">
        <ele>317.85</ele>
        <time>2012-09-16T09:24:57Z</time>
      </trkpt>
      <trkpt lat="46.89753" lon="5.79682">
        <ele>317.85</ele>
        <time>2012-09-16T09:25:07Z</time>
      </trkpt>
      <trkpt lat="46.8975" lon="5.79687">
        <ele>317.85</ele>
        <time>2012-09-16T09:25:11Z</time>
      </trkpt>
      <trkpt lat="46.89738" lon="5.79707">
        <ele>318.33</ele>
        <time>2012-09-16T09:25:27Z</time>
      </trkpt>
      <trkpt lat="46.89732" lon="5.79718">
        <ele>318.81</ele>
        <time>2012-09-16T09:25:35Z</time>
      </trkpt>
      <trkpt lat="46.89718" lon="5.79737">
        <ele>319.3</ele>
        <time>2012-09-16T09:25:50Z</time>
      </trkpt>
      <trkpt lat="46.89717" lon="5.7974">
        <ele>319.78</ele>
        <time>2012-09-16T09:25:52Z</time>
      </trkpt>
      <trkpt lat="46.89713" lon="5.79745">
        <ele>319.78</ele>
        <time>2012-09-16T09:25:56Z</time>
      </trkpt>
      <trkpt lat="46.897" lon="5.79763">
        <ele>319.3</ele>
        <time>2012-09-16T09:26:11Z</time>
      </trkpt>
      <trkpt lat="46.89688" lon="5.79779">
        <ele>319.78</ele>
        <time>2012-09-16T09:26:24Z</time>
      </trkpt>
      <trkpt lat="46.89674" lon="5.79797">
        <ele>320.74</ele>
        <time>2012-09-16T09:26:39Z</time>
      </trkpt>
      <trkpt lat="46.89661" lon="5.79815">
        <ele>321.22</ele>
        <time>2012-09-16T09:26:53Z</time>
      </trkpt>
      <trkpt lat="46.8966" lon="5.79818">
        <ele>321.22</ele>
        <time>2012-09-16T09:26:55Z</time>
      </trkpt>
      <trkpt lat="46.89648" lon="5.7983">
        <ele>322.18</ele>
        <time>2012-09-16T09:27:10Z</time>
      </trkpt>
      <trkpt lat="46.89631" lon="5.79848">
        <ele>323.14</ele>
        <time>2012-09-16T09:27:26Z</time>
      </trkpt>
      <trkpt lat="46.89613" lon="5.79862">
        <ele>323.62</ele>
        <time>2012-09-16T09:27:42Z</time>
      </trkpt>
      <trkpt lat="46.89603" lon="5.7987">
        <ele>323.62</ele>
        <time>2012-09-16T09:27:50Z</time>
      </trkpt>
      <trkpt lat="46.89588" lon="5.79878">
        <ele>324.1</ele>
        <time>2012-09-16T09:28:03Z</time>
      </trkpt>
      <trkpt lat="46.89584" lon="5.7988">
        <ele>324.1</ele>
        <time>2012-09-16T09:28:06Z</time>
      </trkpt>
      <trkpt lat="46.89565" lon="5.7989">
        <ele>325.06</ele>
        <time>2012-09-16T09:28:23Z</time>
      </trkpt>
      <trkpt lat="46.89549" lon="5.79896">
        <ele>325.06</ele>
        <time>2012-09-16T09:28:35Z</time>
      </trkpt>
      <trkpt lat="46.8954" lon="5.79901">
        <ele>325.06</ele>
        <time>2012-09-16T09:28:49Z</time>
      </trkpt>
      <trkpt lat="46.89538" lon="5.79901">
        <ele>325.06</ele>
        <time>2012-09-16T09:29:05Z</time>
      </trkpt>
      <trkpt lat="46.89536" lon="5.79899">
        <ele>325.06</ele>
        <time>2012-09-16T09:29:13Z</time>
      </trkpt>
      <trkpt lat="46.89517" lon="5.79908">
        <ele>325.54</ele>
        <time>2012-09-16T09:29:28Z</time>
      </trkpt>
      <trkpt lat="46.89507" lon="5.79914">
        <ele>325.06</ele>
        <time>2012-09-16T09:29:38Z</time>
      </trkpt>
      <trkpt lat="46.89503" lon="5.79917">
        <ele>325.54</ele>
        <time>2012-09-16T09:29:41Z</time>
      </trkpt>
      <trkpt lat="46.89486" lon="5.79925">
        <ele>325.54</ele>
        <time>2012-09-16T09:29:57Z</time>
      </trkpt>
      <trkpt lat="46.89468" lon="5.79932">
        <ele>326.02</ele>
        <time>2012-09-16T09:30:12Z</time>
      </trkpt>
      <trkpt lat="46.89449" lon="5.79936">
        <ele>325.54</ele>
        <time>2012-09-16T09:30:26Z</time>
      </trkpt>
      <trkpt lat="46.89428" lon="5.79936">
        <ele>325.54</ele>
        <time>2012-09-16T09:30:42Z</time>
      </trkpt>
      <trkpt lat="46.89412" lon="5.79937">
        <ele>326.02</ele>
        <time>2012-09-16T09:30:55Z</time>
      </trkpt>
      <trkpt lat="46.89402" lon="5.79931">
        <ele>326.02</ele>
        <time>2012-09-16T09:31:08Z</time>
      </trkpt>
      <trkpt lat="46.89401" lon="5.7993">
        <ele>325.54</ele>
        <time>2012-09-16T09:31:12Z</time>
      </trkpt>
      <trkpt lat="46.89396" lon="5.79931">
        <ele>325.54</ele>
        <time>2012-09-16T09:31:22Z</time>
      </trkpt>
      <trkpt lat="46.89386" lon="5.79931">
        <ele>326.02</ele>
        <time>2012-09-16T09:31:30Z</time>
      </trkpt>
      <trkpt lat="46.89362" lon="5.79929">
        <ele>325.54</ele>
        <time>2012-09-16T09:31:47Z</time>
      </trkpt>
      <trkpt lat="46.89342" lon="5.79928">
        <ele>326.02</ele>
        <time>2012-09-16T09:32:02Z</time>
      </trkpt>
      <trkpt lat="46.89323" lon="5.79927">
        <ele>326.02</ele>
        <time>2012-09-16T09:32:17Z</time>
      </trkpt>
      <trkpt lat="46.89309" lon="5.79928">
        <ele>326.5</ele>
        <time>2012-09-16T09:32:28Z</time>
      </trkpt>
      <trkpt lat="46.89289" lon="5.79935">
        <ele>326.5</ele>
        <time>2012-09-16T09:32:44Z</time>
      </trkpt>
      <trkpt lat="46.89271" lon="5.79947">
        <ele>326.5</ele>
        <time>2012-09-16T09:32:59Z</time>
      </trkpt>
      <trkpt lat="46.89268" lon="5.79949">
        <ele>326.99</ele>
        <time>2012-09-16T09:33:02Z</time>
      </trkpt>
      <trkpt lat="46.89263" lon="5.79953">
        <ele>326.5</ele>
        <time>2012-09-16T09:33:07Z</time>
      </trkpt>
      <trkpt lat="46.89243" lon="5.7997">
        <ele>326.5</ele>
        <time>2012-09-16T09:33:24Z</time>
      </trkpt>
      <trkpt lat="46.89225" lon="5.79989">
        <ele>326.02</ele>
        <time>2012-09-16T09:33:41Z</time>
      </trkpt>
      <trkpt lat="46.89207" lon="5.8">
        <ele>326.5</ele>
        <time>2012-09-16T09:33:57Z</time>
      </trkpt>
      <trkpt lat="46.89206" lon="5.80002">
        <ele>326.5</ele>
        <time>2012-09-16T09:34:03Z</time>
      </trkpt>
      <trkpt lat="46.89199" lon="5.80008">
        <ele>326.99</ele>
        <time>2012-09-16T09:34:10Z</time>
      </trkpt>
      <trkpt lat="46.89179" lon="5.80018">
        <ele>326.5</ele>
        <time>2012-09-16T09:34:27Z</time>
      </trkpt>
      <trkpt lat="46.89162" lon="5.80025">
        <ele>327.47</ele>
        <time>2012-09-16T09:34:41Z</time>
      </trkpt>
      <trkpt lat="46.89145" lon="5.80032">
        <ele>326.99</ele>
        <time>2012-09-16T09:34:56Z</time>
      </trkpt>
      <trkpt lat="46.89137" lon="5.80037">
        <ele>326.99</ele>
        <time>2012-09-16T09:35:03Z</time>
      </trkpt>
      <trkpt lat="46.89136" lon="5.80037">
        <ele>326.99</ele>
        <time>2012-09-16T09:35:05Z</time>
      </trkpt>
      <trkpt lat="46.89117" lon="5.80045">
        <ele>327.47</ele>
        <time>2012-09-16T09:35:21Z</time>
      </trkpt>
      <trkpt lat="46.89101" lon="5.80052">
        <ele>326.99</ele>
        <time>2012-09-16T09:35:34Z</time>
      </trkpt>
      <trkpt lat="46.8908" lon="5.80055">
        <ele>326.99</ele>
        <time>2012-09-16T09:35:51Z</time>
      </trkpt>
      <trkpt lat="46.89057" lon="5.80052">
        <ele>327.47</ele>
        <time>2012-09-16T09:36:09Z</time>
      </trkpt>
      <trkpt lat="46.8904" lon="5.80048">
        <ele>327.47</ele>
        <time>2012-09-16T09:36:23Z</time>
      </trkpt>
      <trkpt lat="46.89022" lon="5.80052">
        <ele>327.47</ele>
        <time>2012-09-16T09:36:39Z</time>
      </trkpt>
      <trkpt lat="46.89007" lon="5.80061">
        <ele>327.47</ele>
        <time>2012-09-16T09:36:52Z</time>
      </trkpt>
      <trkpt lat="46.88994" lon="5.80075">
        <ele>327.47</ele>
        <time>2012-09-16T09:37:05Z</time>
      </trkpt>
      <trkpt lat="46.88989" lon="5.80085">
        <ele>327.47</ele>
        <time>2012-09-16T09:37:12Z</time>
      </trkpt>
      <trkpt lat="46.88986" lon="5.80093">
        <ele>327.47</ele>
        <time>2012-09-16T09:37:17Z</time>
      </trkpt>
      <trkpt lat="46.88977" lon="5.80113">
        <ele>327.47</ele>
        <time>2012-09-16T09:37:29Z</time>
      </trkpt>
      <trkpt lat="46.88967" lon="5.80133">
        <ele>327.47</ele>
        <time>2012-09-16T09:37:42Z</time>
      </trkpt>
      <trkpt lat="46.88963" lon="5.80142">
        <ele>326.99</ele>
        <time>2012-09-16T09:37:48Z</time>
      </trkpt>
      <trkpt lat="46.88962" lon="5.80147">
        <ele>326.99</ele>
        <time>2012-09-16T09:37:51Z</time>
      </trkpt>
      <trkpt lat="46.88957" lon="5.80154">
        <ele>327.47</ele>
        <time>2012-09-16T09:37:56Z</time>
      </trkpt>
      <trkpt lat="46.88951" lon="5.80165">
        <ele>326.99</ele>
        <time>2012-09-16T09:38:03Z</time>
      </trkpt>
      <trkpt lat="46.88949" lon="5.80171">
        <ele>326.99</ele>
        <time>2012-09-16T09:38:07Z</time>
      </trkpt>
      <trkpt lat="46.88943" lon="5.8018">
        <ele>327.47</ele>
        <time>2012-09-16T09:38:14Z</time>
      </trkpt>
      <trkpt lat="46.8893" lon="5.80194">
        <ele>326.99</ele>
        <time>2012-09-16T09:38:27Z</time>
      </trkpt>
      <trkpt lat="46.88914" lon="5.80205">
        <ele>327.47</ele>
        <time>2012-09-16T09:38:40Z</time>
      </trkpt>
      <trkpt lat="46.88898" lon="5.80216">
        <ele>327.47</ele>
        <time>2012-09-16T09:38:54Z</time>
      </trkpt>
      <trkpt lat="46.88883" lon="5.80226">
        <ele>327.95</ele>
        <time>2012-09-16T09:39:06Z</time>
      </trkpt>
      <trkpt lat="46.88876" lon="5.80232">
        <ele>327.47</ele>
        <time>2012-09-16T09:39:13Z</time>
      </trkpt>
      <trkpt lat="46.88859" lon="5.80244">
        <ele>327.95</ele>
        <time>2012-09-16T09:39:29Z</time>
      </trkpt>
      <trkpt lat="46.88846" lon="5.80252">
        <ele>327.95</ele>
        <time>2012-09-16T09:39:42Z</time>
      </trkpt>
      <trkpt lat="46.88835" lon="5.80261">
        <ele>328.43</ele>
        <time>2012-09-16T09:39:53Z</time>
      </trkpt>
      <trkpt lat="46.88821" lon="5.8027">
        <ele>327.95</ele>
        <time>2012-09-16T09:40:05Z</time>
      </trkpt>
      <trkpt lat="46.88807" lon="5.80279">
        <ele>328.43</ele>
        <time>2012-09-16T09:40:18Z</time>
      </trkpt>
      <trkpt lat="46.88792" lon="5.80288">
        <ele>328.91</ele>
        <time>2012-09-16T09:40:31Z</time>
      </trkpt>
      <trkpt lat="46.88776" lon="5.80293">
        <ele>328.91</ele>
        <time>2012-09-16T09:40:45Z</time>
      </trkpt>
      <trkpt lat="46.88759" lon="5.80298">
        <ele>329.39</ele>
        <time>2012-09-16T09:40:58Z</time>
      </trkpt>
      <trkpt lat="46.88746" lon="5.80301">
        <ele>328.91</ele>
        <time>2012-09-16T09:41:08Z</time>
      </trkpt>
      <trkpt lat="46.88733" lon="5.80304">
        <ele>329.39</ele>
        <time>2012-09-16T09:41:19Z</time>
      </trkpt>
      <trkpt lat="46.88713" lon="5.80309">
        <ele>329.39</ele>
        <time>2012-09-16T09:41:35Z</time>
      </trkpt>
      <trkpt lat="46.88696" lon="5.80314">
        <ele>329.87</ele>
        <time>2012-09-16T09:41:48Z</time>
      </trkpt>
      <trkpt lat="46.88682" lon="5.80321">
        <ele>329.87</ele>
        <time>2012-09-16T09:42:01Z</time>
      </trkpt>
      <trkpt lat="46.88666" lon="5.80327">
        <ele>329.87</ele>
        <time>2012-09-16T09:42:13Z</time>
      </trkpt>
      <trkpt lat="46.8865" lon="5.80333">
        <ele>330.35</ele>
        <time>2012-09-16T09:42:27Z</time>
      </trkpt>
      <trkpt lat="46.88635" lon="5.8034">
        <ele>329.39</ele>
        <time>2012-09-16T09:42:39Z</time>
      </trkpt>
      <trkpt lat="46.88618" lon="5.80346">
        <ele>329.87</ele>
        <time>2012-09-16T09:42:53Z</time>
      </trkpt>
      <trkpt lat="46.88604" lon="5.80355">
        <ele>329.87</ele>
        <time>2012-09-16T09:43:05Z</time>
      </trkpt>
      <trkpt lat="46.8859" lon="5.80362">
        <ele>330.35</ele>
        <time>2012-09-16T09:43:16Z</time>
      </trkpt>
      <trkpt lat="46.88574" lon="5.80366">
        <ele>330.83</ele>
        <time>2012-09-16T09:43:29Z</time>
      </trkpt>
      <trkpt lat="46.88556" lon="5.80364">
        <ele>330.35</ele>
        <time>2012-09-16T09:43:44Z</time>
      </trkpt>
      <trkpt lat="46.88555" lon="5.80364">
        <ele>330.35</ele>
        <time>2012-09-16T09:43:45Z</time>
      </trkpt>
      <trkpt lat="46.88537" lon="5.8036">
        <ele>330.35</ele>
        <time>2012-09-16T09:44:01Z</time>
      </trkpt>
      <trkpt lat="46.88517" lon="5.80359">
        <ele>329.87</ele>
        <time>2012-09-16T09:44:16Z</time>
      </trkpt>
      <trkpt lat="46.88497" lon="5.80358">
        <ele>329.87</ele>
        <time>2012-09-16T09:44:31Z</time>
      </trkpt>
      <trkpt lat="46.8849" lon="5.80356">
        <ele>329.87</ele>
        <time>2012-09-16T09:44:37Z</time>
      </trkpt>
      <trkpt lat="46.88473" lon="5.80354">
        <ele>329.39</ele>
        <time>2012-09-16T09:44:50Z</time>
      </trkpt>
      <trkpt lat="46.88457" lon="5.80352">
        <ele>329.39</ele>
        <time>2012-09-16T09:45:03Z</time>
      </trkpt>
      <trkpt lat="46.88439" lon="5.80351">
        <ele>329.39</ele>
        <time>2012-09-16T09:45:18Z</time>
      </trkpt>
      <trkpt lat="46.88423" lon="5.8035">
        <ele>329.87</ele>
        <time>2012-09-16T09:45:31Z</time>
      </trkpt>
      <trkpt lat="46.88406" lon="5.80352">
        <ele>329.39</ele>
        <time>2012-09-16T09:45:44Z</time>
      </trkpt>
      <trkpt lat="46.88391" lon="5.80355">
        <ele>329.87</ele>
        <time>2012-09-16T09:45:56Z</time>
      </trkpt>
      <trkpt lat="46.88374" lon="5.80357">
        <ele>329.87</ele>
        <time>2012-09-16T09:46:10Z</time>
      </trkpt>
      <trkpt lat="46.88354" lon="5.80358">
        <ele>330.83</ele>
        <time>2012-09-16T09:46:25Z</time>
      </trkpt>
      <trkpt lat="46.88337" lon="5.8036">
        <ele>329.87</ele>
        <time>2012-09-16T09:46:38Z</time>
      </trkpt>
      <trkpt lat="46.88323" lon="5.80362">
        <ele>329.87</ele>
        <time>2012-09-16T09:46:50Z</time>
      </trkpt>
      <trkpt lat="46.88307" lon="5.80365">
        <ele>330.35</ele>
        <time>2012-09-16T09:47:02Z</time>
      </trkpt>
      <trkpt lat="46.88304" lon="5.80365">
        <ele>330.35</ele>
        <time>2012-09-16T09:47:04Z</time>
      </trkpt>
      <trkpt lat="46.88292" lon="5.80369">
        <ele>330.35</ele>
        <time>2012-09-16T09:47:15Z</time>
      </trkpt>
      <trkpt lat="46.88276" lon="5.80374">
        <ele>330.35</ele>
        <time>2012-09-16T09:47:28Z</time>
      </trkpt>
      <trkpt lat="46.88264" lon="5.80377">
        <ele>331.31</ele>
        <time>2012-09-16T09:47:38Z</time>
      </trkpt>
      <trkpt lat="46.88247" lon="5.80381">
        <ele>331.79</ele>
        <time>2012-09-16T09:47:51Z</time>
      </trkpt>
      <trkpt lat="46.88231" lon="5.80383">
        <ele>331.79</ele>
        <time>2012-09-16T09:48:04Z</time>
      </trkpt>
      <trkpt lat="46.88214" lon="5.80388">
        <ele>331.79</ele>
        <time>2012-09-16T09:48:18Z</time>
      </trkpt>
      <trkpt lat="46.88203" lon="5.80389">
        <ele>331.79</ele>
        <time>2012-09-16T09:48:26Z</time>
      </trkpt>
      <trkpt lat="46.8819" lon="5.80394">
        <ele>331.79</ele>
        <time>2012-09-16T09:48:37Z</time>
      </trkpt>
      <trkpt lat="46.8818" lon="5.80395">
        <ele>332.27</ele>
        <time>2012-09-16T09:48:45Z</time>
      </trkpt>
      <trkpt lat="46.8816" lon="5.80403">
        <ele>332.75</ele>
        <time>2012-09-16T09:49:00Z</time>
      </trkpt>
      <trkpt lat="46.88159" lon="5.80404">
        <ele>332.75</ele>
        <time>2012-09-16T09:49:01Z</time>
      </trkpt>
      <trkpt lat="46.88141" lon="5.80408">
        <ele>332.27</ele>
        <time>2012-09-16T09:49:14Z</time>
      </trkpt>
      <trkpt lat="46.88123" lon="5.80415">
        <ele>332.27</ele>
        <time>2012-09-16T09:49:27Z</time>
      </trkpt>
      <trkpt lat="46.88108" lon="5.80419">
        <ele>332.75</ele>
        <time>2012-09-16T09:49:37Z</time>
      </trkpt>
      <trkpt lat="46.88093" lon="5.80423">
        <ele>332.75</ele>
        <time>2012-09-16T09:49:48Z</time>
      </trkpt>
      <trkpt lat="46.88079" lon="5.80429">
        <ele>332.75</ele>
        <time>2012-09-16T09:50:00Z</time>
      </trkpt>
      <trkpt lat="46.88074" lon="5.80433">
        <ele>333.23</ele>
        <time>2012-09-16T09:50:06Z</time>
      </trkpt>
      <trkpt lat="46.88056" lon="5.80447">
        <ele>332.27</ele>
        <time>2012-09-16T09:50:20Z</time>
      </trkpt>
      <trkpt lat="46.8804" lon="5.80471">
        <ele>332.75</ele>
        <time>2012-09-16T09:50:33Z</time>
      </trkpt>
      <trkpt lat="46.88026" lon="5.80494">
        <ele>332.27</ele>
        <time>2012-09-16T09:50:47Z</time>
      </trkpt>
      <trkpt lat="46.88025" lon="5.80496">
        <ele>332.75</ele>
        <time>2012-09-16T09:50:48Z</time>
      </trkpt>
      <trkpt lat="46.88022" lon="5.80507">
        <ele>332.75</ele>
        <time>2012-09-16T09:50:56Z</time>
      </trkpt>
      <trkpt lat="46.88019" lon="5.80513">
        <ele>332.27</ele>
        <time>2012-09-16T09:51:01Z</time>
      </trkpt>
      <trkpt lat="46.88012" lon="5.80525">
        <ele>332.75</ele>
        <time>2012-09-16T09:51:09Z</time>
      </trkpt>
      <trkpt lat="46.88" lon="5.80541">
        <ele>332.75</ele>
        <time>2012-09-16T09:51:21Z</time>
      </trkpt>
      <trkpt lat="46.87994" lon="5.8055">
        <ele>333.23</ele>
        <time>2012-09-16T09:51:28Z</time>
      </trkpt>
      <trkpt lat="46.87986" lon="5.80566">
        <ele>333.23</ele>
        <time>2012-09-16T09:51:38Z</time>
      </trkpt>
      <trkpt lat="46.8798" lon="5.80574">
        <ele>333.23</ele>
        <time>2012-09-16T09:51:45Z</time>
      </trkpt>
      <trkpt lat="46.8797" lon="5.80589">
        <ele>333.23</ele>
        <time>2012-09-16T09:51:56Z</time>
      </trkpt>
      <trkpt lat="46.87956" lon="5.80604">
        <ele>333.71</ele>
        <time>2012-09-16T09:52:09Z</time>
      </trkpt>
      <trkpt lat="46.87953" lon="5.80606">
        <ele>333.23</ele>
        <time>2012-09-16T09:52:12Z</time>
      </trkpt>
      <trkpt lat="46.87951" lon="5.80609">
        <ele>333.71</ele>
        <time>2012-09-16T09:52:15Z</time>
      </trkpt>
      <trkpt lat="46.87944" lon="5.80614">
        <ele>333.71</ele>
        <time>2012-09-16T09:52:20Z</time>
      </trkpt>
      <trkpt lat="46.8794" lon="5.80619">
        <ele>334.2</ele>
        <time>2012-09-16T09:52:24Z</time>
      </trkpt>
      <trkpt lat="46.87937" lon="5.80621">
        <ele>334.2</ele>
        <time>2012-09-16T09:52:27Z</time>
      </trkpt>
      <trkpt lat="46.8792" lon="5.80633">
        <ele>333.71</ele>
        <time>2012-09-16T09:52:42Z</time>
      </trkpt>
      <trkpt lat="46.8791" lon="5.80636">
        <ele>333.71</ele>
        <time>2012-09-16T09:52:49Z</time>
      </trkpt>
      <trkpt lat="46.87897" lon="5.80641">
        <ele>334.2</ele>
        <time>2012-09-16T09:52:59Z</time>
      </trkpt>
      <trkpt lat="46.87884" lon="5.80636">
        <ele>334.68</ele>
        <time>2012-09-16T09:53:09Z</time>
      </trkpt>
      <trkpt lat="46.87881" lon="5.80633">
        <ele>334.68</ele>
        <time>2012-09-16T09:53:14Z</time>
      </trkpt>
      <trkpt lat="46.87881" lon="5.80628">
        <ele>335.16</ele>
        <time>2012-09-16T09:53:17Z</time>
      </trkpt>
      <trkpt lat="46.87879" lon="5.80624">
        <ele>334.68</ele>
        <time>2012-09-16T09:53:21Z</time>
      </trkpt>
      <trkpt lat="46.87875" lon="5.80611">
        <ele>334.68</ele>
        <time>2012-09-16T09:53:31Z</time>
      </trkpt>
      <trkpt lat="46.87873" lon="5.80603">
        <ele>335.16</ele>
        <time>2012-09-16T09:53:36Z</time>
      </trkpt>
      <trkpt lat="46.87872" lon="5.80591">
        <ele>335.16</ele>
        <time>2012-09-16T09:53:41Z</time>
      </trkpt>
      <trkpt lat="46.87872" lon="5.80575">
        <ele>335.64</ele>
        <time>2012-09-16T09:53:46Z</time>
      </trkpt>
      <trkpt lat="46.8787" lon="5.8056">
        <ele>336.6</ele>
        <time>2012-09-16T09:53:53Z</time>
      </trkpt>
      <trkpt lat="46.87867" lon="5.80551">
        <ele>336.6</ele>
        <time>2012-09-16T09:53:58Z</time>
      </trkpt>
      <trkpt lat="46.87851" lon="5.80538">
        <ele>336.6</ele>
        <time>2012-09-16T09:54:12Z</time>
      </trkpt>
      <trkpt lat="46.87836" lon="5.80541">
        <ele>335.64</ele>
        <time>2012-09-16T09:54:25Z</time>
      </trkpt>
      <trkpt lat="46.87835" lon="5.80542">
        <ele>335.64</ele>
        <time>2012-09-16T09:54:26Z</time>
      </trkpt>
      <trkpt lat="46.8782" lon="5.80549">
        <ele>335.64</ele>
        <time>2012-09-16T09:54:40Z</time>
      </trkpt>
      <trkpt lat="46.87818" lon="5.8055">
        <ele>335.64</ele>
        <time>2012-09-16T09:54:42Z</time>
      </trkpt>
      <trkpt lat="46.87812" lon="5.80551">
        <ele>335.16</ele>
        <time>2012-09-16T09:54:47Z</time>
      </trkpt>
      <trkpt lat="46.87809" lon="5.80553">
        <ele>335.16</ele>
        <time>2012-09-16T09:54:50Z</time>
      </trkpt>
      <trkpt lat="46.8779" lon="5.80556">
        <ele>335.64</ele>
        <time>2012-09-16T09:55:04Z</time>
      </trkpt>
      <trkpt lat="46.87775" lon="5.80564">
        <ele>335.64</ele>
        <time>2012-09-16T09:55:15Z</time>
      </trkpt>
      <trkpt lat="46.87757" lon="5.80572">
        <ele>335.16</ele>
        <time>2012-09-16T09:55:31Z</time>
      </trkpt>
      <trkpt lat="46.87743" lon="5.80573">
        <ele>335.16</ele>
        <time>2012-09-16T09:55:44Z</time>
      </trkpt>
      <trkpt lat="46.87731" lon="5.80572">
        <ele>335.16</ele>
        <time>2012-09-16T09:55:56Z</time>
      </trkpt>
      <trkpt lat="46.87725" lon="5.80571">
        <ele>334.68</ele>
        <time>2012-09-16T09:56:02Z</time>
      </trkpt>
      <trkpt lat="46.87707" lon="5.80567">
        <ele>335.16</ele>
        <time>2012-09-16T09:56:15Z</time>
      </trkpt>
      <trkpt lat="46.87695" lon="5.80564">
        <ele>335.16</ele>
        <time>2012-09-16T09:56:25Z</time>
      </trkpt>
      <trkpt lat="46.87683" lon="5.80561">
        <ele>335.64</ele>
        <time>2012-09-16T09:56:35Z</time>
      </trkpt>
      <trkpt lat="46.8767" lon="5.8056">
        <ele>336.6</ele>
        <time>2012-09-16T09:56:44Z</time>
      </trkpt>
      <trkpt lat="46.87668" lon="5.80558">
        <ele>337.08</ele>
        <time>2012-09-16T09:56:46Z</time>
      </trkpt>
      <trkpt lat="46.87665" lon="5.80555">
        <ele>337.08</ele>
        <time>2012-09-16T09:56:49Z</time>
      </trkpt>
      <trkpt lat="46.87656" lon="5.8055">
        <ele>338.04</ele>
        <time>2012-09-16T09:56:56Z</time>
      </trkpt>
      <trkpt lat="46.87648" lon="5.80541">
        <ele>339</ele>
        <time>2012-09-16T09:57:09Z</time>
      </trkpt>
      <trkpt lat="46.87647" lon="5.80542">
        <ele>338.52</ele>
        <time>2012-09-16T09:57:20Z</time>
      </trkpt>
      <trkpt lat="46.87647" lon="5.80542">
        <ele>338.52</ele>
        <time>2012-09-16T09:57:41Z</time>
      </trkpt>
      <trkpt lat="46.87647" lon="5.80542">
        <ele>339</ele>
        <time>2012-09-16T09:58:02Z</time>
      </trkpt>
      <trkpt lat="46.87647" lon="5.80542">
        <ele>339</ele>
        <time>2012-09-16T09:58:30Z</time>
      </trkpt>
      <trkpt lat="46.87647" lon="5.80543">
        <ele>338.52</ele>
        <time>2012-09-16T09:58:56Z</time>
      </trkpt>
      <trkpt lat="46.87647" lon="5.80543">
        <ele>339</ele>
        <time>2012-09-16T09:59:20Z</time>
      </trkpt>
      <trkpt lat="46.87647" lon="5.80543">
        <ele>338.52</ele>
        <time>2012-09-16T09:59:39Z</time>
      </trkpt>
      <trkpt lat="46.87647" lon="5.80543">
        <ele>338.04</ele>
        <time>2012-09-16T10:00:07Z</time>
      </trkpt>
      <trkpt lat="46.87647" lon="5.80543">
        <ele>338.52</ele>
        <time>2012-09-16T10:00:32Z</time>
      </trkpt>
      <trkpt lat="46.87647" lon="5.80543">
        <ele>338.04</ele>
        <time>2012-09-16T10:00:59Z</time>
      </trkpt>
      <trkpt lat="46.87646" lon="5.80542">
        <ele>338.04</ele>
        <time>2012-09-16T10:01:23Z</time>
      </trkpt>
      <trkpt lat="46.87646" lon="5.80542">
        <ele>338.04</ele>
        <time>2012-09-16T10:01:44Z</time>
      </trkpt>
      <trkpt lat="46.87646" lon="5.80543">
        <ele>337.56</ele>
        <time>2012-09-16T10:02:09Z</time>
      </trkpt>
      <trkpt lat="46.87645" lon="5.80536">
        <ele>337.08</ele>
        <time>2012-09-16T10:02:34Z</time>
      </trkpt>
      <trkpt lat="46.87638" lon="5.80525">
        <ele>339</ele>
        <time>2012-09-16T10:02:45Z</time>
      </trkpt>
      <trkpt lat="46.87633" lon="5.80508">
        <ele>339.48</ele>
        <time>2012-09-16T10:02:56Z</time>
      </trkpt>
      <trkpt lat="46.87632" lon="5.80501">
        <ele>339.96</ele>
        <time>2012-09-16T10:03:03Z</time>
      </trkpt>
      <trkpt lat="46.87627" lon="5.8049">
        <ele>340.44</ele>
        <time>2012-09-16T10:03:13Z</time>
      </trkpt>
      <trkpt lat="46.87627" lon="5.80474">
        <ele>340.92</ele>
        <time>2012-09-16T10:03:23Z</time>
      </trkpt>
      <trkpt lat="46.87622" lon="5.80461">
        <ele>342.37</ele>
        <time>2012-09-16T10:03:35Z</time>
      </trkpt>
      <trkpt lat="46.8762" lon="5.80458">
        <ele>342.85</ele>
        <time>2012-09-16T10:03:39Z</time>
      </trkpt>
      <trkpt lat="46.87605" lon="5.8045">
        <ele>343.81</ele>
        <time>2012-09-16T10:03:50Z</time>
      </trkpt>
      <trkpt lat="46.87593" lon="5.80447">
        <ele>344.29</ele>
        <time>2012-09-16T10:04:00Z</time>
      </trkpt>
      <trkpt lat="46.87587" lon="5.80442">
        <ele>344.29</ele>
        <time>2012-09-16T10:04:08Z</time>
      </trkpt>
      <trkpt lat="46.87587" lon="5.80442">
        <ele>344.29</ele>
        <time>2012-09-16T10:04:27Z</time>
      </trkpt>
      <trkpt lat="46.87586" lon="5.80442">
        <ele>344.77</ele>
        <time>2012-09-16T10:04:51Z</time>
      </trkpt>
      <trkpt lat="46.87576" lon="5.80439">
        <ele>345.25</ele>
        <time>2012-09-16T10:05:00Z</time>
      </trkpt>
      <trkpt lat="46.87576" lon="5.80439">
        <ele>345.25</ele>
        <time>2012-09-16T10:05:03Z</time>
      </trkpt>
      <trkpt lat="46.87567" lon="5.80436">
        <ele>345.73</ele>
        <time>2012-09-16T10:05:17Z</time>
      </trkpt>
      <trkpt lat="46.87563" lon="5.80424">
        <ele>346.21</ele>
        <time>2012-09-16T10:05:26Z</time>
      </trkpt>
      <trkpt lat="46.87558" lon="5.80416">
        <ele>346.21</ele>
        <time>2012-09-16T10:05:35Z</time>
      </trkpt>
      <trkpt lat="46.87545" lon="5.80402">
        <ele>346.69</ele>
        <time>2012-09-16T10:05:47Z</time>
      </trkpt>
      <trkpt lat="46.87533" lon="5.80386">
        <ele>347.17</ele>
        <time>2012-09-16T10:05:59Z</time>
      </trkpt>
      <trkpt lat="46.87528" lon="5.80375">
        <ele>347.17</ele>
        <time>2012-09-16T10:06:09Z</time>
      </trkpt>
      <trkpt lat="46.87518" lon="5.80367">
        <ele>347.65</ele>
        <time>2012-09-16T10:06:18Z</time>
      </trkpt>
      <trkpt lat="46.87503" lon="5.80352">
        <ele>348.13</ele>
        <time>2012-09-16T10:06:30Z</time>
      </trkpt>
      <trkpt lat="46.87491" lon="5.80343">
        <ele>348.62</ele>
        <time>2012-09-16T10:06:43Z</time>
      </trkpt>
      <trkpt lat="46.87481" lon="5.80335">
        <ele>349.1</ele>
        <time>2012-09-16T10:06:55Z</time>
      </trkpt>
      <trkpt lat="46.87472" lon="5.8033">
        <ele>349.58</ele>
        <time>2012-09-16T10:07:07Z</time>
      </trkpt>
      <trkpt lat="46.87459" lon="5.80325">
        <ele>349.58</ele>
        <time>2012-09-16T10:07:19Z</time>
      </trkpt>
      <trkpt lat="46.87448" lon="5.80322">
        <ele>349.58</ele>
        <time>2012-09-16T10:07:30Z</time>
      </trkpt>
      <trkpt lat="46.87438" lon="5.80315">
        <ele>348.62</ele>
        <time>2012-09-16T10:07:41Z</time>
      </trkpt>
      <trkpt lat="46.87422" lon="5.80309">
        <ele>348.62</ele>
        <time>2012-09-16T10:07:52Z</time>
      </trkpt>
      <trkpt lat="46.87404" lon="5.80303">
        <ele>347.65</ele>
        <time>2012-09-16T10:08:03Z</time>
      </trkpt>
      <trkpt lat="46.87398" lon="5.80298">
        <ele>347.17</ele>
        <time>2012-09-16T10:08:10Z</time>
      </trkpt>
      <trkpt lat="46.8739" lon="5.80295">
        <ele>346.69</ele>
        <time>2012-09-16T10:08:22Z</time>
      </trkpt>
      <trkpt lat="46.87383" lon="5.80289">
        <ele>346.69</ele>
        <time>2012-09-16T10:08:31Z</time>
      </trkpt>
      <trkpt lat="46.87372" lon="5.80279">
        <ele>346.69</ele>
        <time>2012-09-16T10:08:42Z</time>
      </trkpt>
      <trkpt lat="46.8736" lon="5.80272">
        <ele>347.17</ele>
        <time>2012-09-16T10:08:52Z</time>
      </trkpt>
      <trkpt lat="46.87351" lon="5.80267">
        <ele>347.17</ele>
        <time>2012-09-16T10:09:03Z</time>
      </trkpt>
      <trkpt lat="46.87336" lon="5.80259">
        <ele>347.65</ele>
        <time>2012-09-16T10:09:12Z</time>
      </trkpt>
      <trkpt lat="46.87332" lon="5.80253">
        <ele>347.65</ele>
        <time>2012-09-16T10:09:21Z</time>
      </trkpt>
      <trkpt lat="46.87316" lon="5.80239">
        <ele>348.13</ele>
        <time>2012-09-16T10:09:32Z</time>
      </trkpt>
      <trkpt lat="46.87303" lon="5.80229">
        <ele>348.13</ele>
        <time>2012-09-16T10:09:44Z</time>
      </trkpt>
      <trkpt lat="46.87298" lon="5.80228">
        <ele>347.65</ele>
        <time>2012-09-16T10:09:52Z</time>
      </trkpt>
      <trkpt lat="46.87281" lon="5.80236">
        <ele>347.17</ele>
        <time>2012-09-16T10:10:05Z</time>
      </trkpt>
      <trkpt lat="46.87271" lon="5.80243">
        <ele>346.69</ele>
        <time>2012-09-16T10:10:16Z</time>
      </trkpt>
      <trkpt lat="46.87259" lon="5.80255">
        <ele>346.21</ele>
        <time>2012-09-16T10:10:27Z</time>
      </trkpt>
      <trkpt lat="46.87254" lon="5.80263">
        <ele>346.21</ele>
        <time>2012-09-16T10:10:33Z</time>
      </trkpt>
      <trkpt lat="46.87247" lon="5.80272">
        <ele>346.21</ele>
        <time>2012-09-16T10:10:41Z</time>
      </trkpt>
      <trkpt lat="46.87247" lon="5.80291">
        <ele>346.21</ele>
        <time>2012-09-16T10:10:53Z</time>
      </trkpt>
      <trkpt lat="46.87249" lon="5.80295">
        <ele>346.69</ele>
        <time>2012-09-16T10:10:56Z</time>
      </trkpt>
      <trkpt lat="46.87249" lon="5.80315">
        <ele>347.17</ele>
        <time>2012-09-16T10:11:08Z</time>
      </trkpt>
      <trkpt lat="46.87248" lon="5.80318">
        <ele>347.65</ele>
        <time>2012-09-16T10:11:10Z</time>
      </trkpt>
      <trkpt lat="46.87248" lon="5.80338">
        <ele>348.13</ele>
        <time>2012-09-16T10:11:22Z</time>
      </trkpt>
      <trkpt lat="46.87246" lon="5.80351">
        <ele>348.13</ele>
        <time>2012-09-16T10:11:29Z</time>
      </trkpt>
      <trkpt lat="46.87234" lon="5.80364">
        <ele>349.1</ele>
        <time>2012-09-16T10:11:40Z</time>
      </trkpt>
      <trkpt lat="46.87231" lon="5.80365">
        <ele>349.1</ele>
        <time>2012-09-16T10:11:44Z</time>
      </trkpt>
      <trkpt lat="46.87213" lon="5.8037">
        <ele>349.58</ele>
        <time>2012-09-16T10:11:58Z</time>
      </trkpt>
      <trkpt lat="46.87199" lon="5.80372">
        <ele>349.58</ele>
        <time>2012-09-16T10:12:06Z</time>
      </trkpt>
      <trkpt lat="46.87186" lon="5.8038">
        <ele>351.02</ele>
        <time>2012-09-16T10:12:17Z</time>
      </trkpt>
      <trkpt lat="46.87184" lon="5.80382">
        <ele>350.54</ele>
        <time>2012-09-16T10:12:19Z</time>
      </trkpt>
      <trkpt lat="46.87177" lon="5.80389">
        <ele>350.54</ele>
        <time>2012-09-16T10:12:24Z</time>
      </trkpt>
      <trkpt lat="46.8717" lon="5.804">
        <ele>350.54</ele>
        <time>2012-09-16T10:12:35Z</time>
      </trkpt>
      <trkpt lat="46.8717" lon="5.804">
        <ele>351.02</ele>
        <time>2012-09-16T10:12:51Z</time>
      </trkpt>
      <trkpt lat="46.8717" lon="5.804">
        <ele>351.02</ele>
        <time>2012-09-16T10:13:05Z</time>
      </trkpt>
      <trkpt lat="46.8717" lon="5.804">
        <ele>351.02</ele>
        <time>2012-09-16T10:13:31Z</time>
      </trkpt>
      <trkpt lat="46.8717" lon="5.80399">
        <ele>351.02</ele>
        <time>2012-09-16T10:13:53Z</time>
      </trkpt>
      <trkpt lat="46.87171" lon="5.80398">
        <ele>351.02</ele>
        <time>2012-09-16T10:14:19Z</time>
      </trkpt>
      <trkpt lat="46.87171" lon="5.80398">
        <ele>350.06</ele>
        <time>2012-09-16T10:14:41Z</time>
      </trkpt>
      <trkpt lat="46.87169" lon="5.80398">
        <ele>350.54</ele>
        <time>2012-09-16T10:15:04Z</time>
      </trkpt>
      <trkpt lat="46.87169" lon="5.80398">
        <ele>351.02</ele>
        <time>2012-09-16T10:15:29Z</time>
      </trkpt>
      <trkpt lat="46.87168" lon="5.80408">
        <ele>351.02</ele>
        <time>2012-09-16T10:15:41Z</time>
      </trkpt>
      <trkpt lat="46.87162" lon="5.80415">
        <ele>351.5</ele>
        <time>2012-09-16T10:15:46Z</time>
      </trkpt>
      <trkpt lat="46.87157" lon="5.80418">
        <ele>351.5</ele>
        <time>2012-09-16T10:15:51Z</time>
      </trkpt>
      <trkpt lat="46.87152" lon="5.80425">
        <ele>352.94</ele>
        <time>2012-09-16T10:16:02Z</time>
      </trkpt>
      <trkpt lat="46.87141" lon="5.80435">
        <ele>353.9</ele>
        <time>2012-09-16T10:16:13Z</time>
      </trkpt>
      <trkpt lat="46.87135" lon="5.80442">
        <ele>355.34</ele>
        <time>2012-09-16T10:16:22Z</time>
      </trkpt>
      <trkpt lat="46.87124" lon="5.80453">
        <ele>357.75</ele>
        <time>2012-09-16T10:16:35Z</time>
      </trkpt>
      <trkpt lat="46.87116" lon="5.80462">
        <ele>359.19</ele>
        <time>2012-09-16T10:16:47Z</time>
      </trkpt>
      <trkpt lat="46.87107" lon="5.8047">
        <ele>360.63</ele>
        <time>2012-09-16T10:16:58Z</time>
      </trkpt>
      <trkpt lat="46.87102" lon="5.80474">
        <ele>362.07</ele>
        <time>2012-09-16T10:17:08Z</time>
      </trkpt>
      <trkpt lat="46.87097" lon="5.80481">
        <ele>363.52</ele>
        <time>2012-09-16T10:17:18Z</time>
      </trkpt>
      <trkpt lat="46.87093" lon="5.80485">
        <ele>364.96</ele>
        <time>2012-09-16T10:17:28Z</time>
      </trkpt>
      <trkpt lat="46.87083" lon="5.80489">
        <ele>366.88</ele>
        <time>2012-09-16T10:17:41Z</time>
      </trkpt>
      <trkpt lat="46.87085" lon="5.80495">
        <ele>367.84</ele>
        <time>2012-09-16T10:17:51Z</time>
      </trkpt>
      <trkpt lat="46.87086" lon="5.80512">
        <ele>369.28</ele>
        <time>2012-09-16T10:18:04Z</time>
      </trkpt>
      <trkpt lat="46.87088" lon="5.80517">
        <ele>368.8</ele>
        <time>2012-09-16T10:18:10Z</time>
      </trkpt>
      <trkpt lat="46.87091" lon="5.8053">
        <ele>369.28</ele>
        <time>2012-09-16T10:18:22Z</time>
      </trkpt>
      <trkpt lat="46.87094" lon="5.80541">
        <ele>368.8</ele>
        <time>2012-09-16T10:18:29Z</time>
      </trkpt>
      <trkpt lat="46.87095" lon="5.80546">
        <ele>369.76</ele>
        <time>2012-09-16T10:18:33Z</time>
      </trkpt>
      <trkpt lat="46.87096" lon="5.8055">
        <ele>369.28</ele>
        <time>2012-09-16T10:18:37Z</time>
      </trkpt>
      <trkpt lat="46.87099" lon="5.80553">
        <ele>369.76</ele>
        <time>2012-09-16T10:18:42Z</time>
      </trkpt>
      <trkpt lat="46.87118" lon="5.80569">
        <ele>368.32</ele>
        <time>2012-09-16T10:18:55Z</time>
      </trkpt>
      <trkpt lat="46.8712" lon="5.80575">
        <ele>368.8</ele>
        <time>2012-09-16T10:19:02Z</time>
      </trkpt>
      <trkpt lat="46.87117" lon="5.80582">
        <ele>369.28</ele>
        <time>2012-09-16T10:19:08Z</time>
      </trkpt>
      <trkpt lat="46.87115" lon="5.8059">
        <ele>370.24</ele>
        <time>2012-09-16T10:19:13Z</time>
      </trkpt>
      <trkpt lat="46.87111" lon="5.80595">
        <ele>370.73</ele>
        <time>2012-09-16T10:19:18Z</time>
      </trkpt>
      <trkpt lat="46.87108" lon="5.8061">
        <ele>370.73</ele>
        <time>2012-09-16T10:19:28Z</time>
      </trkpt>
      <trkpt lat="46.87109" lon="5.80618">
        <ele>370.73</ele>
        <time>2012-09-16T10:19:35Z</time>
      </trkpt>
      <trkpt lat="46.8711" lon="5.80638">
        <ele>369.28</ele>
        <time>2012-09-16T10:19:49Z</time>
      </trkpt>
      <trkpt lat="46.87109" lon="5.80644">
        <ele>368.8</ele>
        <time>2012-09-16T10:19:59Z</time>
      </trkpt>
      <trkpt lat="46.87107" lon="5.80653">
        <ele>368.8</ele>
        <time>2012-09-16T10:20:10Z</time>
      </trkpt>
      <trkpt lat="46.87107" lon="5.80668">
        <ele>368.8</ele>
        <time>2012-09-16T10:20:22Z</time>
      </trkpt>
      <trkpt lat="46.87105" lon="5.80675">
        <ele>369.28</ele>
        <time>2012-09-16T10:20:34Z</time>
      </trkpt>
      <trkpt lat="46.87102" lon="5.80678">
        <ele>369.28</ele>
        <time>2012-09-16T10:20:37Z</time>
      </trkpt>
      <trkpt lat="46.87097" lon="5.80678">
        <ele>370.73</ele>
        <time>2012-09-16T10:20:48Z</time>
      </trkpt>
      <trkpt lat="46.87091" lon="5.80681">
        <ele>371.21</ele>
        <time>2012-09-16T10:20:56Z</time>
      </trkpt>
      <trkpt lat="46.87083" lon="5.80682">
        <ele>373.13</ele>
        <time>2012-09-16T10:21:10Z</time>
      </trkpt>
      <trkpt lat="46.87065" lon="5.80691">
        <ele>373.61</ele>
        <time>2012-09-16T10:21:22Z</time>
      </trkpt>
      <trkpt lat="46.87058" lon="5.80692">
        <ele>373.61</ele>
        <time>2012-09-16T10:21:32Z</time>
      </trkpt>
      <trkpt lat="46.87048" lon="5.80697">
        <ele>374.09</ele>
        <time>2012-09-16T10:21:39Z</time>
      </trkpt>
      <trkpt lat="46.87041" lon="5.80706">
        <ele>374.57</ele>
        <time>2012-09-16T10:21:50Z</time>
      </trkpt>
      <trkpt lat="46.87039" lon="5.80707">
        <ele>374.09</ele>
        <time>2012-09-16T10:21:52Z</time>
      </trkpt>
      <trkpt lat="46.87033" lon="5.80712">
        <ele>374.09</ele>
        <time>2012-09-16T10:21:58Z</time>
      </trkpt>
      <trkpt lat="46.87029" lon="5.80718">
        <ele>373.13</ele>
        <time>2012-09-16T10:22:04Z</time>
      </trkpt>
      <trkpt lat="46.87028" lon="5.80724">
        <ele>373.61</ele>
        <time>2012-09-16T10:22:13Z</time>
      </trkpt>
      <trkpt lat="46.87024" lon="5.80732">
        <ele>373.61</ele>
        <time>2012-09-16T10:22:24Z</time>
      </trkpt>
      <trkpt lat="46.8702" lon="5.80736">
        <ele>374.09</ele>
        <time>2012-09-16T10:22:31Z</time>
      </trkpt>
      <trkpt lat="46.8701" lon="5.80735">
        <ele>375.05</ele>
        <time>2012-09-16T10:22:44Z</time>
      </trkpt>
      <trkpt lat="46.8701" lon="5.80735">
        <ele>374.57</ele>
        <time>2012-09-16T10:22:45Z</time>
      </trkpt>
      <trkpt lat="46.87002" lon="5.80741">
        <ele>375.53</ele>
        <time>2012-09-16T10:22:54Z</time>
      </trkpt>
      <trkpt lat="46.86997" lon="5.80746">
        <ele>376.01</ele>
        <time>2012-09-16T10:23:06Z</time>
      </trkpt>
      <trkpt lat="46.86988" lon="5.80753">
        <ele>376.49</ele>
        <time>2012-09-16T10:23:19Z</time>
      </trkpt>
      <trkpt lat="46.86983" lon="5.80757">
        <ele>377.45</ele>
        <time>2012-09-16T10:23:29Z</time>
      </trkpt>
      <trkpt lat="46.86973" lon="5.80758">
        <ele>377.94</ele>
        <time>2012-09-16T10:23:37Z</time>
      </trkpt>
      <trkpt lat="46.86972" lon="5.80757">
        <ele>377.94</ele>
        <time>2012-09-16T10:23:40Z</time>
      </trkpt>
      <trkpt lat="46.86973" lon="5.80757">
        <ele>378.42</ele>
        <time>2012-09-16T10:23:42Z</time>
      </trkpt>
      <trkpt lat="46.8697" lon="5.80758">
        <ele>378.9</ele>
        <time>2012-09-16T10:23:54Z</time>
      </trkpt>
      <trkpt lat="46.86964" lon="5.80761">
        <ele>379.38</ele>
        <time>2012-09-16T10:24:06Z</time>
      </trkpt>
      <trkpt lat="46.86964" lon="5.80762">
        <ele>379.86</ele>
        <time>2012-09-16T10:24:23Z</time>
      </trkpt>
      <trkpt lat="46.86961" lon="5.80761">
        <ele>380.82</ele>
        <time>2012-09-16T10:24:35Z</time>
      </trkpt>
      <trkpt lat="46.86958" lon="5.80759">
        <ele>382.26</ele>
        <time>2012-09-16T10:24:45Z</time>
      </trkpt>
      <trkpt lat="46.8695" lon="5.80756">
        <ele>384.18</ele>
        <time>2012-09-16T10:24:57Z</time>
      </trkpt>
      <trkpt lat="46.86944" lon="5.80749">
        <ele>385.15</ele>
        <time>2012-09-16T10:25:10Z</time>
      </trkpt>
      <trkpt lat="46.86944" lon="5.80748">
        <ele>385.15</ele>
        <time>2012-09-16T10:25:26Z</time>
      </trkpt>
      <trkpt lat="46.86944" lon="5.80748">
        <ele>385.15</ele>
        <time>2012-09-16T10:25:48Z</time>
      </trkpt>
      <trkpt lat="46.86946" lon="5.80747">
        <ele>385.15</ele>
        <time>2012-09-16T10:26:08Z</time>
      </trkpt>
      <trkpt lat="46.8694" lon="5.80745">
        <ele>387.07</ele>
        <time>2012-09-16T10:26:24Z</time>
      </trkpt>
      <trkpt lat="46.86937" lon="5.80745">
        <ele>388.99</ele>
        <time>2012-09-16T10:26:39Z</time>
      </trkpt>
      <trkpt lat="46.8693" lon="5.80746">
        <ele>390.91</ele>
        <time>2012-09-16T10:26:53Z</time>
      </trkpt>
      <trkpt lat="46.86922" lon="5.80743">
        <ele>393.8</ele>
        <time>2012-09-16T10:27:10Z</time>
      </trkpt>
      <trkpt lat="46.86913" lon="5.80736">
        <ele>395.24</ele>
        <time>2012-09-16T10:27:24Z</time>
      </trkpt>
      <trkpt lat="46.86911" lon="5.80736">
        <ele>396.68</ele>
        <time>2012-09-16T10:27:38Z</time>
      </trkpt>
      <trkpt lat="46.86909" lon="5.80733">
        <ele>399.57</ele>
        <time>2012-09-16T10:27:55Z</time>
      </trkpt>
      <trkpt lat="46.86909" lon="5.80733">
        <ele>400.53</ele>
        <time>2012-09-16T10:28:12Z</time>
      </trkpt>
      <trkpt lat="46.86911" lon="5.80735">
        <ele>399.08</ele>
        <time>2012-09-16T10:28:31Z</time>
      </trkpt>
      <trkpt lat="46.86913" lon="5.80735">
        <ele>396.2</ele>
        <time>2012-09-16T10:28:48Z</time>
      </trkpt>
      <trkpt lat="46.86912" lon="5.80739">
        <ele>394.28</ele>
        <time>2012-09-16T10:29:01Z</time>
      </trkpt>
      <trkpt lat="46.86912" lon="5.80739">
        <ele>394.28</ele>
        <time>2012-09-16T10:29:18Z</time>
      </trkpt>
      <trkpt lat="46.86912" lon="5.80739">
        <ele>395.24</ele>
        <time>2012-09-16T10:29:38Z</time>
      </trkpt>
      <trkpt lat="46.86912" lon="5.80739">
        <ele>395.72</ele>
        <time>2012-09-16T10:30:03Z</time>
      </trkpt>
      <trkpt lat="46.8691" lon="5.8074">
        <ele>395.72</ele>
        <time>2012-09-16T10:30:29Z</time>
      </trkpt>
      <trkpt lat="46.86913" lon="5.80741">
        <ele>395.72</ele>
        <time>2012-09-16T10:30:48Z</time>
      </trkpt>
      <trkpt lat="46.86915" lon="5.80755">
        <ele>396.2</ele>
        <time>2012-09-16T10:31:07Z</time>
      </trkpt>
      <trkpt lat="46.86913" lon="5.8075">
        <ele>395.72</ele>
        <time>2012-09-16T10:31:27Z</time>
      </trkpt>
      <trkpt lat="46.86912" lon="5.80751">
        <ele>396.2</ele>
        <time>2012-09-16T10:31:45Z</time>
      </trkpt>
      <trkpt lat="46.86909" lon="5.80755">
        <ele>396.2</ele>
        <time>2012-09-16T10:32:04Z</time>
      </trkpt>
      <trkpt lat="46.86903" lon="5.8075">
        <ele>395.24</ele>
        <time>2012-09-16T10:32:29Z</time>
      </trkpt>
      <trkpt lat="46.869" lon="5.80751">
        <ele>396.68</ele>
        <time>2012-09-16T10:32:32Z</time>
      </trkpt>
      <trkpt lat="46.86898" lon="5.80755">
        <ele>399.57</ele>
        <time>2012-09-16T10:32:45Z</time>
      </trkpt>
      <trkpt lat="46.86896" lon="5.80755">
        <ele>401.49</ele>
        <time>2012-09-16T10:32:57Z</time>
      </trkpt>
      <trkpt lat="46.86892" lon="5.8076">
        <ele>400.53</ele>
        <time>2012-09-16T10:33:14Z</time>
      </trkpt>
      <trkpt lat="46.86892" lon="5.80761">
        <ele>401.49</ele>
        <time>2012-09-16T10:33:28Z</time>
      </trkpt>
      <trkpt lat="46.86888" lon="5.80759">
        <ele>401.97</ele>
        <time>2012-09-16T10:33:43Z</time>
      </trkpt>
      <trkpt lat="46.86884" lon="5.80764">
        <ele>403.41</ele>
        <time>2012-09-16T10:33:59Z</time>
      </trkpt>
      <trkpt lat="46.86887" lon="5.80765">
        <ele>404.85</ele>
        <time>2012-09-16T10:34:14Z</time>
      </trkpt>
      <trkpt lat="46.86888" lon="5.80769">
        <ele>404.37</ele>
        <time>2012-09-16T10:34:23Z</time>
      </trkpt>
      <trkpt lat="46.86887" lon="5.80774">
        <ele>404.37</ele>
        <time>2012-09-16T10:34:40Z</time>
      </trkpt>
      <trkpt lat="46.8688" lon="5.80777">
        <ele>404.37</ele>
        <time>2012-09-16T10:34:53Z</time>
      </trkpt>
      <trkpt lat="46.86873" lon="5.80781">
        <ele>405.33</ele>
        <time>2012-09-16T10:35:06Z</time>
      </trkpt>
      <trkpt lat="46.86872" lon="5.80781">
        <ele>404.37</ele>
        <time>2012-09-16T10:35:23Z</time>
      </trkpt>
      <trkpt lat="46.8687" lon="5.80785">
        <ele>406.29</ele>
        <time>2012-09-16T10:35:40Z</time>
      </trkpt>
      <trkpt lat="46.86867" lon="5.80791">
        <ele>407.74</ele>
        <time>2012-09-16T10:35:53Z</time>
      </trkpt>
      <trkpt lat="46.86862" lon="5.80793">
        <ele>407.26</ele>
        <time>2012-09-16T10:36:07Z</time>
      </trkpt>
      <trkpt lat="46.86859" lon="5.80792">
        <ele>407.74</ele>
        <time>2012-09-16T10:36:24Z</time>
      </trkpt>
      <trkpt lat="46.86858" lon="5.80795">
        <ele>406.77</ele>
        <time>2012-09-16T10:36:45Z</time>
      </trkpt>
      <trkpt lat="46.86852" lon="5.80794">
        <ele>406.29</ele>
        <time>2012-09-16T10:36:58Z</time>
      </trkpt>
      <trkpt lat="46.86843" lon="5.80792">
        <ele>405.33</ele>
        <time>2012-09-16T10:37:24Z</time>
      </trkpt>
      <trkpt lat="46.86837" lon="5.8079">
        <ele>402.45</ele>
        <time>2012-09-16T10:37:38Z</time>
      </trkpt>
      <trkpt lat="46.8683" lon="5.80788">
        <ele>401.01</ele>
        <time>2012-09-16T10:37:48Z</time>
      </trkpt>
      <trkpt lat="46.86828" lon="5.80787">
        <ele>397.64</ele>
        <time>2012-09-16T10:37:57Z</time>
      </trkpt>
      <trkpt lat="46.86827" lon="5.80786">
        <ele>397.64</ele>
        <time>2012-09-16T10:37:59Z</time>
      </trkpt>
      <trkpt lat="46.86815" lon="5.80779">
        <ele>394.76</ele>
        <time>2012-09-16T10:38:11Z</time>
      </trkpt>
      <trkpt lat="46.86813" lon="5.80777">
        <ele>392.36</ele>
        <time>2012-09-16T10:38:25Z</time>
      </trkpt>
      <trkpt lat="46.8681" lon="5.80775">
        <ele>391.39</ele>
        <time>2012-09-16T10:38:33Z</time>
      </trkpt>
      <trkpt lat="46.86816" lon="5.80771">
        <ele>388.99</ele>
        <time>2012-09-16T10:38:45Z</time>
      </trkpt>
      <trkpt lat="46.86824" lon="5.8077">
        <ele>387.55</ele>
        <time>2012-09-16T10:38:57Z</time>
      </trkpt>
      <trkpt lat="46.86832" lon="5.80769">
        <ele>385.63</ele>
        <time>2012-09-16T10:39:10Z</time>
      </trkpt>
      <trkpt lat="46.86834" lon="5.80768">
        <ele>384.18</ele>
        <time>2012-09-16T10:39:15Z</time>
      </trkpt>
      <trkpt lat="46.86823" lon="5.80764">
        <ele>381.3</ele>
        <time>2012-09-16T10:39:26Z</time>
      </trkpt>
      <trkpt lat="46.86822" lon="5.80762">
        <ele>381.78</ele>
        <time>2012-09-16T10:39:27Z</time>
      </trkpt>
      <trkpt lat="46.8682" lon="5.80761">
        <ele>380.82</ele>
        <time>2012-09-16T10:39:30Z</time>
      </trkpt>
      <trkpt lat="46.86816" lon="5.80761">
        <ele>379.38</ele>
        <time>2012-09-16T10:39:37Z</time>
      </trkpt>
      <trkpt lat="46.86827" lon="5.80771">
        <ele>377.45</ele>
        <time>2012-09-16T10:39:48Z</time>
      </trkpt>
      <trkpt lat="46.86824" lon="5.80771">
        <ele>376.97</ele>
        <time>2012-09-16T10:39:50Z</time>
      </trkpt>
      <trkpt lat="46.86822" lon="5.80771">
        <ele>376.01</ele>
        <time>2012-09-16T10:39:51Z</time>
      </trkpt>
      <trkpt lat="46.86824" lon="5.80774">
        <ele>375.53</ele>
        <time>2012-09-16T10:40:02Z</time>
      </trkpt>
      <trkpt lat="46.8683" lon="5.80774">
        <ele>376.01</ele>
        <time>2012-09-16T10:40:07Z</time>
      </trkpt>
      <trkpt lat="46.8684" lon="5.80775">
        <ele>375.53</ele>
        <time>2012-09-16T10:40:17Z</time>
      </trkpt>
      <trkpt lat="46.86848" lon="5.80775">
        <ele>376.01</ele>
        <time>2012-09-16T10:40:23Z</time>
      </trkpt>
      <trkpt lat="46.86856" lon="5.80779">
        <ele>376.49</ele>
        <time>2012-09-16T10:40:34Z</time>
      </trkpt>
      <trkpt lat="46.86854" lon="5.80778">
        <ele>376.49</ele>
        <time>2012-09-16T10:40:49Z</time>
      </trkpt>
      <trkpt lat="46.86877" lon="5.80762">
        <ele>376.49</ele>
        <time>2012-09-16T10:41:13Z</time>
      </trkpt>
      <trkpt lat="46.86928" lon="5.80793">
        <ele>376.01</ele>
        <time>2012-09-16T10:41:35Z</time>
      </trkpt>
      <trkpt lat="46.86944" lon="5.80802">
        <ele>376.01</ele>
        <time>2012-09-16T10:41:52Z</time>
      </trkpt>
      <trkpt lat="46.86952" lon="5.80803">
        <ele>376.49</ele>
        <time>2012-09-16T10:42:03Z</time>
      </trkpt>
      <trkpt lat="46.86989" lon="5.8081">
        <ele>375.53</ele>
        <time>2012-09-16T10:42:17Z</time>
      </trkpt>
      <trkpt lat="46.86995" lon="5.80807">
        <ele>376.01</ele>
        <time>2012-09-16T10:42:25Z</time>
      </trkpt>
      <trkpt lat="46.87001" lon="5.80808">
        <ele>376.49</ele>
        <time>2012-09-16T10:42:28Z</time>
      </trkpt>
      <trkpt lat="46.87011" lon="5.80804">
        <ele>376.49</ele>
        <time>2012-09-16T10:42:41Z</time>
      </trkpt>
      <trkpt lat="46.87011" lon="5.80797">
        <ele>376.49</ele>
        <time>2012-09-16T10:42:51Z</time>
      </trkpt>
      <trkpt lat="46.87022" lon="5.80798">
        <ele>376.49</ele>
        <time>2012-09-16T10:42:54Z</time>
      </trkpt>
      <trkpt lat="46.87027" lon="5.80793">
        <ele>376.49</ele>
        <time>2012-09-16T10:42:59Z</time>
      </trkpt>
      <trkpt lat="46.87029" lon="5.8079">
        <ele>376.49</ele>
        <time>2012-09-16T10:43:01Z</time>
      </trkpt>
      <trkpt lat="46.87029" lon="5.80777">
        <ele>376.01</ele>
        <time>2012-09-16T10:43:08Z</time>
      </trkpt>
      <trkpt lat="46.87031" lon="5.80775">
        <ele>376.01</ele>
        <time>2012-09-16T10:43:10Z</time>
      </trkpt>
      <trkpt lat="46.87037" lon="5.80776">
        <ele>375.53</ele>
        <time>2012-09-16T10:43:15Z</time>
      </trkpt>
      <trkpt lat="46.87049" lon="5.80788">
        <ele>376.01</ele>
        <time>2012-09-16T10:43:26Z</time>
      </trkpt>
      <trkpt lat="46.87053" lon="5.80788">
        <ele>376.01</ele>
        <time>2012-09-16T10:43:29Z</time>
      </trkpt>
      <trkpt lat="46.87069" lon="5.80787">
        <ele>376.01</ele>
        <time>2012-09-16T10:43:40Z</time>
      </trkpt>
      <trkpt lat="46.87069" lon="5.80786">
        <ele>376.01</ele>
        <time>2012-09-16T10:43:41Z</time>
      </trkpt>
      <trkpt lat="46.87074" lon="5.80783">
        <ele>375.53</ele>
        <time>2012-09-16T10:43:47Z</time>
      </trkpt>
      <trkpt lat="46.87077" lon="5.8078">
        <ele>376.01</ele>
        <time>2012-09-16T10:43:51Z</time>
      </trkpt>
      <trkpt lat="46.87081" lon="5.80778">
        <ele>375.53</ele>
        <time>2012-09-16T10:43:54Z</time>
      </trkpt>
      <trkpt lat="46.87083" lon="5.80777">
        <ele>376.01</ele>
        <time>2012-09-16T10:43:56Z</time>
      </trkpt>
      <trkpt lat="46.87088" lon="5.80773">
        <ele>376.01</ele>
        <time>2012-09-16T10:44:02Z</time>
      </trkpt>
      <trkpt lat="46.87094" lon="5.80769">
        <ele>376.01</ele>
        <time>2012-09-16T10:44:08Z</time>
      </trkpt>
      <trkpt lat="46.87096" lon="5.80767">
        <ele>376.01</ele>
        <time>2012-09-16T10:44:10Z</time>
      </trkpt>
      <trkpt lat="46.87103" lon="5.80763">
        <ele>375.53</ele>
        <time>2012-09-16T10:44:14Z</time>
      </trkpt>
      <trkpt lat="46.87111" lon="5.80757">
        <ele>376.01</ele>
        <time>2012-09-16T10:44:20Z</time>
      </trkpt>
      <trkpt lat="46.87123" lon="5.80744">
        <ele>375.53</ele>
        <time>2012-09-16T10:44:30Z</time>
      </trkpt>
      <trkpt lat="46.87124" lon="5.80743">
        <ele>375.53</ele>
        <time>2012-09-16T10:44:31Z</time>
      </trkpt>
      <trkpt lat="46.87138" lon="5.80733">
        <ele>374.57</ele>
        <time>2012-09-16T10:44:41Z</time>
      </trkpt>
      <trkpt lat="46.87144" lon="5.80729">
        <ele>374.57</ele>
        <time>2012-09-16T10:44:45Z</time>
      </trkpt>
      <trkpt lat="46.87146" lon="5.80724">
        <ele>374.09</ele>
        <time>2012-09-16T10:44:49Z</time>
      </trkpt>
      <trkpt lat="46.87153" lon="5.80714">
        <ele>373.61</ele>
        <time>2012-09-16T10:44:56Z</time>
      </trkpt>
      <trkpt lat="46.87167" lon="5.80699">
        <ele>372.17</ele>
        <time>2012-09-16T10:45:09Z</time>
      </trkpt>
      <trkpt lat="46.87168" lon="5.80698">
        <ele>371.69</ele>
        <time>2012-09-16T10:45:10Z</time>
      </trkpt>
      <trkpt lat="46.8717" lon="5.80696">
        <ele>372.17</ele>
        <time>2012-09-16T10:45:12Z</time>
      </trkpt>
      <trkpt lat="46.87175" lon="5.80692">
        <ele>371.21</ele>
        <time>2012-09-16T10:45:16Z</time>
      </trkpt>
      <trkpt lat="46.87183" lon="5.80681">
        <ele>370.24</ele>
        <time>2012-09-16T10:45:25Z</time>
      </trkpt>
      <trkpt lat="46.87183" lon="5.8068">
        <ele>370.24</ele>
        <time>2012-09-16T10:45:26Z</time>
      </trkpt>
      <trkpt lat="46.87189" lon="5.80669">
        <ele>369.28</ele>
        <time>2012-09-16T10:45:37Z</time>
      </trkpt>
      <trkpt lat="46.87194" lon="5.80665">
        <ele>368.8</ele>
        <time>2012-09-16T10:45:41Z</time>
      </trkpt>
      <trkpt lat="46.87203" lon="5.80661">
        <ele>368.8</ele>
        <time>2012-09-16T10:45:47Z</time>
      </trkpt>
      <trkpt lat="46.87203" lon="5.80659">
        <ele>368.32</ele>
        <time>2012-09-16T10:45:49Z</time>
      </trkpt>
      <trkpt lat="46.87201" lon="5.80656">
        <ele>367.84</ele>
        <time>2012-09-16T10:45:51Z</time>
      </trkpt>
      <trkpt lat="46.87204" lon="5.8065">
        <ele>366.88</ele>
        <time>2012-09-16T10:45:56Z</time>
      </trkpt>
      <trkpt lat="46.87219" lon="5.80639">
        <ele>364.96</ele>
        <time>2012-09-16T10:46:07Z</time>
      </trkpt>
      <trkpt lat="46.87218" lon="5.80637">
        <ele>365.44</ele>
        <time>2012-09-16T10:46:08Z</time>
      </trkpt>
      <trkpt lat="46.87219" lon="5.80621">
        <ele>363.04</ele>
        <time>2012-09-16T10:46:18Z</time>
      </trkpt>
      <trkpt lat="46.87223" lon="5.80615">
        <ele>362.07</ele>
        <time>2012-09-16T10:46:25Z</time>
      </trkpt>
      <trkpt lat="46.87211" lon="5.80604">
        <ele>360.15</ele>
        <time>2012-09-16T10:46:34Z</time>
      </trkpt>
      <trkpt lat="46.87207" lon="5.806">
        <ele>359.19</ele>
        <time>2012-09-16T10:46:39Z</time>
      </trkpt>
      <trkpt lat="46.87207" lon="5.80597">
        <ele>359.19</ele>
        <time>2012-09-16T10:46:43Z</time>
      </trkpt>
      <trkpt lat="46.87206" lon="5.80597">
        <ele>359.19</ele>
        <time>2012-09-16T10:46:56Z</time>
      </trkpt>
      <trkpt lat="46.87206" lon="5.80598">
        <ele>358.71</ele>
        <time>2012-09-16T10:47:15Z</time>
      </trkpt>
      <trkpt lat="46.87198" lon="5.8059">
        <ele>357.75</ele>
        <time>2012-09-16T10:47:27Z</time>
      </trkpt>
      <trkpt lat="46.87186" lon="5.80578">
        <ele>356.79</ele>
        <time>2012-09-16T10:47:37Z</time>
      </trkpt>
      <trkpt lat="46.87182" lon="5.80568">
        <ele>355.83</ele>
        <time>2012-09-16T10:47:46Z</time>
      </trkpt>
      <trkpt lat="46.87172" lon="5.80552">
        <ele>355.34</ele>
        <time>2012-09-16T10:47:57Z</time>
      </trkpt>
      <trkpt lat="46.87164" lon="5.80538">
        <ele>354.86</ele>
        <time>2012-09-16T10:48:05Z</time>
      </trkpt>
      <trkpt lat="46.87163" lon="5.80529">
        <ele>355.34</ele>
        <time>2012-09-16T10:48:13Z</time>
      </trkpt>
      <trkpt lat="46.87162" lon="5.80521">
        <ele>355.34</ele>
        <time>2012-09-16T10:48:25Z</time>
      </trkpt>
      <trkpt lat="46.87164" lon="5.80518">
        <ele>355.83</ele>
        <time>2012-09-16T10:48:28Z</time>
      </trkpt>
      <trkpt lat="46.87167" lon="5.80507">
        <ele>355.83</ele>
        <time>2012-09-16T10:48:35Z</time>
      </trkpt>
      <trkpt lat="46.87167" lon="5.80499">
        <ele>355.34</ele>
        <time>2012-09-16T10:48:39Z</time>
      </trkpt>
      <trkpt lat="46.87167" lon="5.80491">
        <ele>355.83</ele>
        <time>2012-09-16T10:48:48Z</time>
      </trkpt>
      <trkpt lat="46.87174" lon="5.80487">
        <ele>355.34</ele>
        <time>2012-09-16T10:48:54Z</time>
      </trkpt>
      <trkpt lat="46.87175" lon="5.80486">
        <ele>355.83</ele>
        <time>2012-09-16T10:49:01Z</time>
      </trkpt>
      <trkpt lat="46.87173" lon="5.80499">
        <ele>355.83</ele>
        <time>2012-09-16T10:49:13Z</time>
      </trkpt>
      <trkpt lat="46.87173" lon="5.80501">
        <ele>356.31</ele>
        <time>2012-09-16T10:49:15Z</time>
      </trkpt>
      <trkpt lat="46.87174" lon="5.80505">
        <ele>355.83</ele>
        <time>2012-09-16T10:49:30Z</time>
      </trkpt>
      <trkpt lat="46.87176" lon="5.80506">
        <ele>356.31</ele>
        <time>2012-09-16T10:49:44Z</time>
      </trkpt>
      <trkpt lat="46.87175" lon="5.80506">
        <ele>355.83</ele>
        <time>2012-09-16T10:49:46Z</time>
      </trkpt>
      <trkpt lat="46.87168" lon="5.80504">
        <ele>355.34</ele>
        <time>2012-09-16T10:49:59Z</time>
      </trkpt>
      <trkpt lat="46.87169" lon="5.8051">
        <ele>356.31</ele>
        <time>2012-09-16T10:50:11Z</time>
      </trkpt>
      <trkpt lat="46.87172" lon="5.8051">
        <ele>355.83</ele>
        <time>2012-09-16T10:50:23Z</time>
      </trkpt>
      <trkpt lat="46.87173" lon="5.80515">
        <ele>355.83</ele>
        <time>2012-09-16T10:50:38Z</time>
      </trkpt>
      <trkpt lat="46.87173" lon="5.80516">
        <ele>354.38</ele>
        <time>2012-09-16T10:50:51Z</time>
      </trkpt>
      <trkpt lat="46.87172" lon="5.80515">
        <ele>354.38</ele>
        <time>2012-09-16T10:51:14Z</time>
      </trkpt>
      <trkpt lat="46.87172" lon="5.80515">
        <ele>354.38</ele>
        <time>2012-09-16T10:51:47Z</time>
      </trkpt>
      <trkpt lat="46.87172" lon="5.80515">
        <ele>354.38</ele>
        <time>2012-09-16T10:52:18Z</time>
      </trkpt>
      <trkpt lat="46.87172" lon="5.80514">
        <ele>353.9</ele>
        <time>2012-09-16T10:52:52Z</time>
      </trkpt>
      <trkpt lat="46.87173" lon="5.80514">
        <ele>353.9</ele>
        <time>2012-09-16T10:53:26Z</time>
      </trkpt>
      <trkpt lat="46.87173" lon="5.80513">
        <ele>354.38</ele>
        <time>2012-09-16T10:53:54Z</time>
      </trkpt>
      <trkpt lat="46.87173" lon="5.80513">
        <ele>353.9</ele>
        <time>2012-09-16T10:54:22Z</time>
      </trkpt>
      <trkpt lat="46.87173" lon="5.80513">
        <ele>354.38</ele>
        <time>2012-09-16T10:54:53Z</time>
      </trkpt>
      <trkpt lat="46.87173" lon="5.80514">
        <ele>354.86</ele>
        <time>2012-09-16T10:55:30Z</time>
      </trkpt>
      <trkpt lat="46.87173" lon="5.80513">
        <ele>354.38</ele>
        <time>2012-09-16T10:56:04Z</time>
      </trkpt>
      <trkpt lat="46.87173" lon="5.80514">
        <ele>354.38</ele>
        <time>2012-09-16T10:56:36Z</time>
      </trkpt>
      <trkpt lat="46.87173" lon="5.80513">
        <ele>354.86</ele>
        <time>2012-09-16T10:57:10Z</time>
      </trkpt>
      <trkpt lat="46.87173" lon="5.80514">
        <ele>354.38</ele>
        <time>2012-09-16T10:57:47Z</time>
      </trkpt>
      <trkpt lat="46.87176" lon="5.80515">
        <ele>354.86</ele>
        <time>2012-09-16T10:58:26Z</time>
      </trkpt>
      <trkpt lat="46.87184" lon="5.80517">
        <ele>353.9</ele>
        <time>2012-09-16T10:59:05Z</time>
      </trkpt>
      <trkpt lat="46.87184" lon="5.80517">
        <ele>354.38</ele>
        <time>2012-09-16T10:59:34Z</time>
      </trkpt>
      <trkpt lat="46.87184" lon="5.80517">
        <ele>353.9</ele>
        <time>2012-09-16T11:00:06Z</time>
      </trkpt>
      <trkpt lat="46.87183" lon="5.80517">
        <ele>353.9</ele>
        <time>2012-09-16T11:00:37Z</time>
      </trkpt>
      <trkpt lat="46.87184" lon="5.80517">
        <ele>354.38</ele>
        <time>2012-09-16T11:01:06Z</time>
      </trkpt>
      <trkpt lat="46.87185" lon="5.80518">
        <ele>353.42</ele>
        <time>2012-09-16T11:01:42Z</time>
      </trkpt>
      <trkpt lat="46.87185" lon="5.80518">
        <ele>353.9</ele>
        <time>2012-09-16T11:02:14Z</time>
      </trkpt>
      <trkpt lat="46.87184" lon="5.80518">
        <ele>353.42</ele>
        <time>2012-09-16T11:02:45Z</time>
      </trkpt>
      <trkpt lat="46.87184" lon="5.80517">
        <ele>353.42</ele>
        <time>2012-09-16T11:03:13Z</time>
      </trkpt>
      <trkpt lat="46.87184" lon="5.80517">
        <ele>353.42</ele>
        <time>2012-09-16T11:03:43Z</time>
      </trkpt>
      <trkpt lat="46.87183" lon="5.80516">
        <ele>353.42</ele>
        <time>2012-09-16T11:04:19Z</time>
      </trkpt>
      <trkpt lat="46.87183" lon="5.80516">
        <ele>353.9</ele>
        <time>2012-09-16T11:04:53Z</time>
      </trkpt>
      <trkpt lat="46.87183" lon="5.80516">
        <ele>353.9</ele>
        <time>2012-09-16T11:05:23Z</time>
      </trkpt>
      <trkpt lat="46.87183" lon="5.80516">
        <ele>353.42</ele>
        <time>2012-09-16T11:05:56Z</time>
      </trkpt>
      <trkpt lat="46.87183" lon="5.80516">
        <ele>353.9</ele>
        <time>2012-09-16T11:06:29Z</time>
      </trkpt>
      <trkpt lat="46.87184" lon="5.80516">
        <ele>353.9</ele>
        <time>2012-09-16T11:07:04Z</time>
      </trkpt>
      <trkpt lat="46.87184" lon="5.80516">
        <ele>353.42</ele>
        <time>2012-09-16T11:07:35Z</time>
      </trkpt>
      <trkpt lat="46.87184" lon="5.80516">
        <ele>353.42</ele>
        <time>2012-09-16T11:08:08Z</time>
      </trkpt>
      <trkpt lat="46.87184" lon="5.80517">
        <ele>353.42</ele>
        <time>2012-09-16T11:08:44Z</time>
      </trkpt>
      <trkpt lat="46.87184" lon="5.80517">
        <ele>352.94</ele>
        <time>2012-09-16T11:09:20Z</time>
      </trkpt>
      <trkpt lat="46.87185" lon="5.80519">
        <ele>353.42</ele>
        <time>2012-09-16T11:09:56Z</time>
      </trkpt>
      <trkpt lat="46.87185" lon="5.8052">
        <ele>352.94</ele>
        <time>2012-09-16T11:10:31Z</time>
      </trkpt>
      <trkpt lat="46.87186" lon="5.80522">
        <ele>353.42</ele>
        <time>2012-09-16T11:11:03Z</time>
      </trkpt>
      <trkpt lat="46.87186" lon="5.80522">
        <ele>352.94</ele>
        <time>2012-09-16T11:11:36Z</time>
      </trkpt>
      <trkpt lat="46.87186" lon="5.80522">
        <ele>352.94</ele>
        <time>2012-09-16T11:12:05Z</time>
      </trkpt>
      <trkpt lat="46.87185" lon="5.80521">
        <ele>353.42</ele>
        <time>2012-09-16T11:12:36Z</time>
      </trkpt>
      <trkpt lat="46.87185" lon="5.8052">
        <ele>352.94</ele>
        <time>2012-09-16T11:13:13Z</time>
      </trkpt>
      <trkpt lat="46.87184" lon="5.8052">
        <ele>353.42</ele>
        <time>2012-09-16T11:13:41Z</time>
      </trkpt>
      <trkpt lat="46.87184" lon="5.8052">
        <ele>352.94</ele>
        <time>2012-09-16T11:14:13Z</time>
      </trkpt>
      <trkpt lat="46.87183" lon="5.80519">
        <ele>353.42</ele>
        <time>2012-09-16T11:14:44Z</time>
      </trkpt>
      <trkpt lat="46.87184" lon="5.8052">
        <ele>353.42</ele>
        <time>2012-09-16T11:15:09Z</time>
      </trkpt>
      <trkpt lat="46.87184" lon="5.80521">
        <ele>353.42</ele>
        <time>2012-09-16T11:15:40Z</time>
      </trkpt>
      <trkpt lat="46.87184" lon="5.80521">
        <ele>353.42</ele>
        <time>2012-09-16T11:16:14Z</time>
      </trkpt>
      <trkpt lat="46.87184" lon="5.80522">
        <ele>353.42</ele>
        <time>2012-09-16T11:16:48Z</time>
      </trkpt>
      <trkpt lat="46.87185" lon="5.80522">
        <ele>353.42</ele>
        <time>2012-09-16T11:17:14Z</time>
      </trkpt>
      <trkpt lat="46.87185" lon="5.80522">
        <ele>353.42</ele>
        <time>2012-09-16T11:17:47Z</time>
      </trkpt>
      <trkpt lat="46.87186" lon="5.80523">
        <ele>353.9</ele>
        <time>2012-09-16T11:18:19Z</time>
      </trkpt>
      <trkpt lat="46.87186" lon="5.80523">
        <ele>353.42</ele>
        <time>2012-09-16T11:18:44Z</time>
      </trkpt>
      <trkpt lat="46.87187" lon="5.80524">
        <ele>353.42</ele>
        <time>2012-09-16T11:19:13Z</time>
      </trkpt>
      <trkpt lat="46.87187" lon="5.80524">
        <ele>353.42</ele>
        <time>2012-09-16T11:19:40Z</time>
      </trkpt>
      <trkpt lat="46.87187" lon="5.80524">
        <ele>353.42</ele>
        <time>2012-09-16T11:20:05Z</time>
      </trkpt>
      <trkpt lat="46.87188" lon="5.80524">
        <ele>353.42</ele>
        <time>2012-09-16T11:20:34Z</time>
      </trkpt>
      <trkpt lat="46.87188" lon="5.80523">
        <ele>354.38</ele>
        <time>2012-09-16T11:20:58Z</time>
      </trkpt>
      <trkpt lat="46.87188" lon="5.80523">
        <ele>354.38</ele>
        <time>2012-09-16T11:21:27Z</time>
      </trkpt>
      <trkpt lat="46.87187" lon="5.80524">
        <ele>354.38</ele>
        <time>2012-09-16T11:21:58Z</time>
      </trkpt>
      <trkpt lat="46.87187" lon="5.80524">
        <ele>354.38</ele>
        <time>2012-09-16T11:22:26Z</time>
      </trkpt>
      <trkpt lat="46.87187" lon="5.80524">
        <ele>353.9</ele>
        <time>2012-09-16T11:22:58Z</time>
      </trkpt>
      <trkpt lat="46.87187" lon="5.80525">
        <ele>354.38</ele>
        <time>2012-09-16T11:23:32Z</time>
      </trkpt>
      <trkpt lat="46.87187" lon="5.80525">
        <ele>354.86</ele>
        <time>2012-09-16T11:24:01Z</time>
      </trkpt>
      <trkpt lat="46.87186" lon="5.80525">
        <ele>353.9</ele>
        <time>2012-09-16T11:24:33Z</time>
      </trkpt>
      <trkpt lat="46.87186" lon="5.80525">
        <ele>354.38</ele>
        <time>2012-09-16T11:25:03Z</time>
      </trkpt>
      <trkpt lat="46.87186" lon="5.80525">
        <ele>354.38</ele>
        <time>2012-09-16T11:25:35Z</time>
      </trkpt>
      <trkpt lat="46.87186" lon="5.80525">
        <ele>354.38</ele>
        <time>2012-09-16T11:26:08Z</time>
      </trkpt>
      <trkpt lat="46.87185" lon="5.80526">
        <ele>355.34</ele>
        <time>2012-09-16T11:26:25Z</time>
      </trkpt>
      <trkpt lat="46.87186" lon="5.80526">
        <ele>355.34</ele>
        <time>2012-09-16T11:26:39Z</time>
      </trkpt>
      <trkpt lat="46.87186" lon="5.80526">
        <ele>355.83</ele>
        <time>2012-09-16T11:27:01Z</time>
      </trkpt>
      <trkpt lat="46.87186" lon="5.80527">
        <ele>355.34</ele>
        <time>2012-09-16T11:27:28Z</time>
      </trkpt>
      <trkpt lat="46.87187" lon="5.80528">
        <ele>355.34</ele>
        <time>2012-09-16T11:27:59Z</time>
      </trkpt>
      <trkpt lat="46.87189" lon="5.80525">
        <ele>355.34</ele>
        <time>2012-09-16T11:28:19Z</time>
      </trkpt>
      <trkpt lat="46.87189" lon="5.80525">
        <ele>355.34</ele>
        <time>2012-09-16T11:28:38Z</time>
      </trkpt>
      <trkpt lat="46.8719" lon="5.80525">
        <ele>355.83</ele>
        <time>2012-09-16T11:29:01Z</time>
      </trkpt>
      <trkpt lat="46.8719" lon="5.80524">
        <ele>355.34</ele>
        <time>2012-09-16T11:29:21Z</time>
      </trkpt>
      <trkpt lat="46.87193" lon="5.80522">
        <ele>355.83</ele>
        <time>2012-09-16T11:29:38Z</time>
      </trkpt>
      <trkpt lat="46.87194" lon="5.80523">
        <ele>355.83</ele>
        <time>2012-09-16T11:29:54Z</time>
      </trkpt>
      <trkpt lat="46.87194" lon="5.80524">
        <ele>355.83</ele>
        <time>2012-09-16T11:30:17Z</time>
      </trkpt>
      <trkpt lat="46.87195" lon="5.80527">
        <ele>355.34</ele>
        <time>2012-09-16T11:30:31Z</time>
      </trkpt>
      <trkpt lat="46.87201" lon="5.80541">
        <ele>355.83</ele>
        <time>2012-09-16T11:30:44Z</time>
      </trkpt>
      <trkpt lat="46.87203" lon="5.8055">
        <ele>355.83</ele>
        <time>2012-09-16T11:30:52Z</time>
      </trkpt>
      <trkpt lat="46.8721" lon="5.80567">
        <ele>357.27</ele>
        <time>2012-09-16T11:31:04Z</time>
      </trkpt>
      <trkpt lat="46.87212" lon="5.80569">
        <ele>356.79</ele>
        <time>2012-09-16T11:31:06Z</time>
      </trkpt>
      <trkpt lat="46.87214" lon="5.80571">
        <ele>357.27</ele>
        <time>2012-09-16T11:31:08Z</time>
      </trkpt>
      <trkpt lat="46.87219" lon="5.80586">
        <ele>357.75</ele>
        <time>2012-09-16T11:31:20Z</time>
      </trkpt>
      <trkpt lat="46.87225" lon="5.80598">
        <ele>359.67</ele>
        <time>2012-09-16T11:31:31Z</time>
      </trkpt>
      <trkpt lat="46.87232" lon="5.80608">
        <ele>361.59</ele>
        <time>2012-09-16T11:31:41Z</time>
      </trkpt>
      <trkpt lat="46.8724" lon="5.80612">
        <ele>362.07</ele>
        <time>2012-09-16T11:31:53Z</time>
      </trkpt>
      <trkpt lat="46.87247" lon="5.80604">
        <ele>360.63</ele>
        <time>2012-09-16T11:32:03Z</time>
      </trkpt>
      <trkpt lat="46.87255" lon="5.80597">
        <ele>359.19</ele>
        <time>2012-09-16T11:32:14Z</time>
      </trkpt>
      <trkpt lat="46.87258" lon="5.80592">
        <ele>358.71</ele>
        <time>2012-09-16T11:32:19Z</time>
      </trkpt>
      <trkpt lat="46.87263" lon="5.80584">
        <ele>357.75</ele>
        <time>2012-09-16T11:32:25Z</time>
      </trkpt>
      <trkpt lat="46.87268" lon="5.8058">
        <ele>357.75</ele>
        <time>2012-09-16T11:32:30Z</time>
      </trkpt>
      <trkpt lat="46.8728" lon="5.8057">
        <ele>356.79</ele>
        <time>2012-09-16T11:32:40Z</time>
      </trkpt>
      <trkpt lat="46.87296" lon="5.80559">
        <ele>356.31</ele>
        <time>2012-09-16T11:32:55Z</time>
      </trkpt>
      <trkpt lat="46.87307" lon="5.80553">
        <ele>355.34</ele>
        <time>2012-09-16T11:33:06Z</time>
      </trkpt>
      <trkpt lat="46.8731" lon="5.80552">
        <ele>355.34</ele>
        <time>2012-09-16T11:33:08Z</time>
      </trkpt>
      <trkpt lat="46.87313" lon="5.8055">
        <ele>355.34</ele>
        <time>2012-09-16T11:33:11Z</time>
      </trkpt>
      <trkpt lat="46.87327" lon="5.80547">
        <ele>355.83</ele>
        <time>2012-09-16T11:33:23Z</time>
      </trkpt>
      <trkpt lat="46.87328" lon="5.80548">
        <ele>354.86</ele>
        <time>2012-09-16T11:33:24Z</time>
      </trkpt>
      <trkpt lat="46.87332" lon="5.80548">
        <ele>354.86</ele>
        <time>2012-09-16T11:33:27Z</time>
      </trkpt>
      <trkpt lat="46.8735" lon="5.80547">
        <ele>354.38</ele>
        <time>2012-09-16T11:33:42Z</time>
      </trkpt>
      <trkpt lat="46.87368" lon="5.80548">
        <ele>352.46</ele>
        <time>2012-09-16T11:33:57Z</time>
      </trkpt>
      <trkpt lat="46.87384" lon="5.80543">
        <ele>351.98</ele>
        <time>2012-09-16T11:34:10Z</time>
      </trkpt>
      <trkpt lat="46.874" lon="5.80539">
        <ele>351.02</ele>
        <time>2012-09-16T11:34:23Z</time>
      </trkpt>
      <trkpt lat="46.87416" lon="5.80537">
        <ele>351.02</ele>
        <time>2012-09-16T11:34:37Z</time>
      </trkpt>
      <trkpt lat="46.87436" lon="5.80534">
        <ele>351.02</ele>
        <time>2012-09-16T11:34:53Z</time>
      </trkpt>
      <trkpt lat="46.87451" lon="5.80533">
        <ele>350.54</ele>
        <time>2012-09-16T11:35:07Z</time>
      </trkpt>
      <trkpt lat="46.8747" lon="5.80539">
        <ele>350.54</ele>
        <time>2012-09-16T11:35:22Z</time>
      </trkpt>
      <trkpt lat="46.87474" lon="5.8054">
        <ele>349.1</ele>
        <time>2012-09-16T11:35:26Z</time>
      </trkpt>
      <trkpt lat="46.87489" lon="5.80548">
        <ele>348.13</ele>
        <time>2012-09-16T11:35:39Z</time>
      </trkpt>
      <trkpt lat="46.87502" lon="5.80559">
        <ele>346.69</ele>
        <time>2012-09-16T11:35:53Z</time>
      </trkpt>
      <trkpt lat="46.87504" lon="5.80562">
        <ele>346.21</ele>
        <time>2012-09-16T11:35:56Z</time>
      </trkpt>
      <trkpt lat="46.87516" lon="5.80579">
        <ele>344.77</ele>
        <time>2012-09-16T11:36:10Z</time>
      </trkpt>
      <trkpt lat="46.87518" lon="5.80583">
        <ele>344.29</ele>
        <time>2012-09-16T11:36:13Z</time>
      </trkpt>
      <trkpt lat="46.87527" lon="5.80597">
        <ele>342.37</ele>
        <time>2012-09-16T11:36:26Z</time>
      </trkpt>
      <trkpt lat="46.8754" lon="5.80608">
        <ele>339.96</ele>
        <time>2012-09-16T11:36:38Z</time>
      </trkpt>
      <trkpt lat="46.87544" lon="5.8061">
        <ele>339.48</ele>
        <time>2012-09-16T11:36:42Z</time>
      </trkpt>
      <trkpt lat="46.87561" lon="5.80619">
        <ele>337.56</ele>
        <time>2012-09-16T11:36:56Z</time>
      </trkpt>
      <trkpt lat="46.87563" lon="5.8062">
        <ele>337.08</ele>
        <time>2012-09-16T11:36:58Z</time>
      </trkpt>
      <trkpt lat="46.87571" lon="5.80628">
        <ele>336.12</ele>
        <time>2012-09-16T11:37:05Z</time>
      </trkpt>
      <trkpt lat="46.87587" lon="5.80641">
        <ele>335.16</ele>
        <time>2012-09-16T11:37:19Z</time>
      </trkpt>
      <trkpt lat="46.87599" lon="5.80655">
        <ele>334.68</ele>
        <time>2012-09-16T11:37:32Z</time>
      </trkpt>
      <trkpt lat="46.87611" lon="5.80668">
        <ele>333.71</ele>
        <time>2012-09-16T11:37:44Z</time>
      </trkpt>
      <trkpt lat="46.87613" lon="5.80674">
        <ele>333.71</ele>
        <time>2012-09-16T11:37:55Z</time>
      </trkpt>
      <trkpt lat="46.87613" lon="5.80675">
        <ele>333.71</ele>
        <time>2012-09-16T11:37:56Z</time>
      </trkpt>
      <trkpt lat="46.87626" lon="5.80683">
        <ele>333.71</ele>
        <time>2012-09-16T11:38:07Z</time>
      </trkpt>
      <trkpt lat="46.87634" lon="5.80688">
        <ele>333.71</ele>
        <time>2012-09-16T11:38:14Z</time>
      </trkpt>
      <trkpt lat="46.87637" lon="5.80692">
        <ele>333.71</ele>
        <time>2012-09-16T11:38:17Z</time>
      </trkpt>
      <trkpt lat="46.87654" lon="5.80705">
        <ele>333.23</ele>
        <time>2012-09-16T11:38:33Z</time>
      </trkpt>
      <trkpt lat="46.87658" lon="5.80709">
        <ele>332.75</ele>
        <time>2012-09-16T11:38:37Z</time>
      </trkpt>
      <trkpt lat="46.87676" lon="5.80716">
        <ele>333.23</ele>
        <time>2012-09-16T11:38:52Z</time>
      </trkpt>
      <trkpt lat="46.87691" lon="5.80718">
        <ele>333.23</ele>
        <time>2012-09-16T11:39:05Z</time>
      </trkpt>
      <trkpt lat="46.87704" lon="5.80716">
        <ele>332.75</ele>
        <time>2012-09-16T11:39:17Z</time>
      </trkpt>
      <trkpt lat="46.87721" lon="5.80715">
        <ele>333.23</ele>
        <time>2012-09-16T11:39:31Z</time>
      </trkpt>
      <trkpt lat="46.87733" lon="5.8072">
        <ele>333.23</ele>
        <time>2012-09-16T11:39:42Z</time>
      </trkpt>
      <trkpt lat="46.87747" lon="5.80725">
        <ele>333.23</ele>
        <time>2012-09-16T11:39:56Z</time>
      </trkpt>
      <trkpt lat="46.87763" lon="5.80732">
        <ele>332.75</ele>
        <time>2012-09-16T11:40:10Z</time>
      </trkpt>
      <trkpt lat="46.87764" lon="5.80732">
        <ele>332.75</ele>
        <time>2012-09-16T11:40:11Z</time>
      </trkpt>
      <trkpt lat="46.87765" lon="5.80731">
        <ele>332.75</ele>
        <time>2012-09-16T11:40:12Z</time>
      </trkpt>
      <trkpt lat="46.87782" lon="5.80733">
        <ele>332.27</ele>
        <time>2012-09-16T11:40:28Z</time>
      </trkpt>
      <trkpt lat="46.87787" lon="5.80732">
        <ele>332.27</ele>
        <time>2012-09-16T11:40:33Z</time>
      </trkpt>
      <trkpt lat="46.87791" lon="5.8073">
        <ele>332.27</ele>
        <time>2012-09-16T11:40:36Z</time>
      </trkpt>
      <trkpt lat="46.87805" lon="5.80723">
        <ele>332.27</ele>
        <time>2012-09-16T11:40:48Z</time>
      </trkpt>
      <trkpt lat="46.87821" lon="5.80713">
        <ele>331.79</ele>
        <time>2012-09-16T11:41:02Z</time>
      </trkpt>
      <trkpt lat="46.87831" lon="5.80698">
        <ele>331.79</ele>
        <time>2012-09-16T11:41:14Z</time>
      </trkpt>
      <trkpt lat="46.87833" lon="5.80696">
        <ele>331.31</ele>
        <time>2012-09-16T11:41:16Z</time>
      </trkpt>
      <trkpt lat="46.87844" lon="5.80687">
        <ele>331.31</ele>
        <time>2012-09-16T11:41:27Z</time>
      </trkpt>
      <trkpt lat="46.87862" lon="5.80673">
        <ele>332.27</ele>
        <time>2012-09-16T11:41:44Z</time>
      </trkpt>
      <trkpt lat="46.87871" lon="5.80662">
        <ele>332.27</ele>
        <time>2012-09-16T11:41:55Z</time>
      </trkpt>
      <trkpt lat="46.87881" lon="5.8065">
        <ele>332.27</ele>
        <time>2012-09-16T11:42:06Z</time>
      </trkpt>
      <trkpt lat="46.87884" lon="5.80647">
        <ele>332.27</ele>
        <time>2012-09-16T11:42:09Z</time>
      </trkpt>
      <trkpt lat="46.87898" lon="5.8064">
        <ele>331.31</ele>
        <time>2012-09-16T11:42:21Z</time>
      </trkpt>
      <trkpt lat="46.87905" lon="5.80637">
        <ele>331.79</ele>
        <time>2012-09-16T11:42:27Z</time>
      </trkpt>
      <trkpt lat="46.87916" lon="5.80644">
        <ele>331.79</ele>
        <time>2012-09-16T11:42:39Z</time>
      </trkpt>
      <trkpt lat="46.87929" lon="5.80646">
        <ele>331.31</ele>
        <time>2012-09-16T11:42:50Z</time>
      </trkpt>
      <trkpt lat="46.87937" lon="5.80647">
        <ele>331.31</ele>
        <time>2012-09-16T11:42:57Z</time>
      </trkpt>
      <trkpt lat="46.87939" lon="5.80646">
        <ele>331.31</ele>
        <time>2012-09-16T11:42:59Z</time>
      </trkpt>
      <trkpt lat="46.87959" lon="5.80652">
        <ele>331.31</ele>
        <time>2012-09-16T11:43:14Z</time>
      </trkpt>
      <trkpt lat="46.87967" lon="5.80657">
        <ele>330.83</ele>
        <time>2012-09-16T11:43:21Z</time>
      </trkpt>
      <trkpt lat="46.87971" lon="5.80657">
        <ele>330.35</ele>
        <time>2012-09-16T11:43:25Z</time>
      </trkpt>
      <trkpt lat="46.8798" lon="5.8068">
        <ele>330.83</ele>
        <time>2012-09-16T11:43:41Z</time>
      </trkpt>
      <trkpt lat="46.8798" lon="5.80694">
        <ele>330.35</ele>
        <time>2012-09-16T11:43:49Z</time>
      </trkpt>
      <trkpt lat="46.87981" lon="5.80707">
        <ele>329.87</ele>
        <time>2012-09-16T11:43:56Z</time>
      </trkpt>
      <trkpt lat="46.8799" lon="5.80726">
        <ele>329.39</ele>
        <time>2012-09-16T11:44:10Z</time>
      </trkpt>
      <trkpt lat="46.88007" lon="5.80733">
        <ele>329.39</ele>
        <time>2012-09-16T11:44:24Z</time>
      </trkpt>
      <trkpt lat="46.88021" lon="5.80729">
        <ele>329.39</ele>
        <time>2012-09-16T11:44:37Z</time>
      </trkpt>
      <trkpt lat="46.88031" lon="5.80725">
        <ele>329.39</ele>
        <time>2012-09-16T11:44:48Z</time>
      </trkpt>
      <trkpt lat="46.88038" lon="5.80722">
        <ele>329.87</ele>
        <time>2012-09-16T11:44:55Z</time>
      </trkpt>
      <trkpt lat="46.88045" lon="5.80716">
        <ele>329.39</ele>
        <time>2012-09-16T11:45:02Z</time>
      </trkpt>
      <trkpt lat="46.88047" lon="5.80714">
        <ele>328.91</ele>
        <time>2012-09-16T11:45:05Z</time>
      </trkpt>
      <trkpt lat="46.88055" lon="5.80705">
        <ele>328.91</ele>
        <time>2012-09-16T11:45:13Z</time>
      </trkpt>
      <trkpt lat="46.8806" lon="5.80701">
        <ele>327.95</ele>
        <time>2012-09-16T11:45:18Z</time>
      </trkpt>
      <trkpt lat="46.88068" lon="5.80695">
        <ele>327.95</ele>
        <time>2012-09-16T11:45:25Z</time>
      </trkpt>
      <trkpt lat="46.88075" lon="5.80692">
        <ele>327.47</ele>
        <time>2012-09-16T11:45:31Z</time>
      </trkpt>
      <trkpt lat="46.8809" lon="5.80687">
        <ele>326.99</ele>
        <time>2012-09-16T11:45:43Z</time>
      </trkpt>
      <trkpt lat="46.88101" lon="5.80684">
        <ele>326.5</ele>
        <time>2012-09-16T11:45:52Z</time>
      </trkpt>
      <trkpt lat="46.88121" lon="5.80683">
        <ele>326.99</ele>
        <time>2012-09-16T11:46:08Z</time>
      </trkpt>
      <trkpt lat="46.88122" lon="5.80683">
        <ele>326.99</ele>
        <time>2012-09-16T11:46:09Z</time>
      </trkpt>
      <trkpt lat="46.88138" lon="5.80679">
        <ele>326.99</ele>
        <time>2012-09-16T11:46:23Z</time>
      </trkpt>
      <trkpt lat="46.8814" lon="5.80678">
        <ele>326.99</ele>
        <time>2012-09-16T11:46:25Z</time>
      </trkpt>
      <trkpt lat="46.8815" lon="5.80674">
        <ele>326.5</ele>
        <time>2012-09-16T11:46:33Z</time>
      </trkpt>
      <trkpt lat="46.88166" lon="5.80667">
        <ele>326.5</ele>
        <time>2012-09-16T11:46:48Z</time>
      </trkpt>
      <trkpt lat="46.88184" lon="5.80669">
        <ele>326.5</ele>
        <time>2012-09-16T11:47:03Z</time>
      </trkpt>
      <trkpt lat="46.88199" lon="5.80669">
        <ele>326.99</ele>
        <time>2012-09-16T11:47:17Z</time>
      </trkpt>
      <trkpt lat="46.88215" lon="5.80667">
        <ele>326.5</ele>
        <time>2012-09-16T11:47:31Z</time>
      </trkpt>
      <trkpt lat="46.88224" lon="5.80664">
        <ele>326.5</ele>
        <time>2012-09-16T11:47:39Z</time>
      </trkpt>
      <trkpt lat="46.88226" lon="5.80665">
        <ele>326.99</ele>
        <time>2012-09-16T11:47:41Z</time>
      </trkpt>
      <trkpt lat="46.88238" lon="5.80664">
        <ele>327.47</ele>
        <time>2012-09-16T11:47:52Z</time>
      </trkpt>
      <trkpt lat="46.88253" lon="5.80667">
        <ele>327.95</ele>
        <time>2012-09-16T11:48:06Z</time>
      </trkpt>
      <trkpt lat="46.88258" lon="5.80669">
        <ele>328.43</ele>
        <time>2012-09-16T11:48:12Z</time>
      </trkpt>
      <trkpt lat="46.88261" lon="5.80671">
        <ele>328.91</ele>
        <time>2012-09-16T11:48:15Z</time>
      </trkpt>
      <trkpt lat="46.88269" lon="5.80679">
        <ele>330.35</ele>
        <time>2012-09-16T11:48:26Z</time>
      </trkpt>
      <trkpt lat="46.88281" lon="5.80687">
        <ele>332.27</ele>
        <time>2012-09-16T11:48:39Z</time>
      </trkpt>
      <trkpt lat="46.88287" lon="5.80689">
        <ele>333.71</ele>
        <time>2012-09-16T11:48:47Z</time>
      </trkpt>
      <trkpt lat="46.88289" lon="5.80689">
        <ele>334.2</ele>
        <time>2012-09-16T11:48:49Z</time>
      </trkpt>
      <trkpt lat="46.88301" lon="5.8069">
        <ele>336.12</ele>
        <time>2012-09-16T11:49:02Z</time>
      </trkpt>
      <trkpt lat="46.88305" lon="5.80688">
        <ele>337.08</ele>
        <time>2012-09-16T11:49:08Z</time>
      </trkpt>
      <trkpt lat="46.88317" lon="5.80685">
        <ele>339.48</ele>
        <time>2012-09-16T11:49:23Z</time>
      </trkpt>
      <trkpt lat="46.88328" lon="5.8068">
        <ele>341.89</ele>
        <time>2012-09-16T11:49:37Z</time>
      </trkpt>
      <trkpt lat="46.88335" lon="5.80678">
        <ele>343.81</ele>
        <time>2012-09-16T11:49:47Z</time>
      </trkpt>
      <trkpt lat="46.88346" lon="5.80677">
        <ele>345.73</ele>
        <time>2012-09-16T11:50:01Z</time>
      </trkpt>
      <trkpt lat="46.88356" lon="5.8068">
        <ele>348.13</ele>
        <time>2012-09-16T11:50:14Z</time>
      </trkpt>
      <trkpt lat="46.88365" lon="5.80685">
        <ele>349.1</ele>
        <time>2012-09-16T11:50:25Z</time>
      </trkpt>
      <trkpt lat="46.88375" lon="5.80696">
        <ele>351.5</ele>
        <time>2012-09-16T11:50:39Z</time>
      </trkpt>
      <trkpt lat="46.88379" lon="5.807">
        <ele>351.98</ele>
        <time>2012-09-16T11:50:45Z</time>
      </trkpt>
      <trkpt lat="46.88384" lon="5.80705">
        <ele>352.94</ele>
        <time>2012-09-16T11:50:52Z</time>
      </trkpt>
      <trkpt lat="46.88392" lon="5.80717">
        <ele>354.86</ele>
        <time>2012-09-16T11:51:05Z</time>
      </trkpt>
      <trkpt lat="46.88396" lon="5.8072">
        <ele>354.86</ele>
        <time>2012-09-16T11:51:09Z</time>
      </trkpt>
      <trkpt lat="46.88407" lon="5.80733">
        <ele>357.27</ele>
        <time>2012-09-16T11:51:23Z</time>
      </trkpt>
      <trkpt lat="46.88419" lon="5.8074">
        <ele>358.23</ele>
        <time>2012-09-16T11:51:36Z</time>
      </trkpt>
      <trkpt lat="46.8843" lon="5.80746">
        <ele>360.15</ele>
        <time>2012-09-16T11:51:49Z</time>
      </trkpt>
      <trkpt lat="46.88431" lon="5.80746">
        <ele>360.15</ele>
        <time>2012-09-16T11:51:50Z</time>
      </trkpt>
      <trkpt lat="46.88437" lon="5.8075">
        <ele>360.63</ele>
        <time>2012-09-16T11:51:57Z</time>
      </trkpt>
      <trkpt lat="46.88449" lon="5.80764">
        <ele>363.04</ele>
        <time>2012-09-16T11:52:13Z</time>
      </trkpt>
      <trkpt lat="46.88451" lon="5.80767">
        <ele>363.04</ele>
        <time>2012-09-16T11:52:16Z</time>
      </trkpt>
      <trkpt lat="46.88454" lon="5.8078">
        <ele>364.96</ele>
        <time>2012-09-16T11:52:27Z</time>
      </trkpt>
      <trkpt lat="46.88458" lon="5.80789">
        <ele>365.44</ele>
        <time>2012-09-16T11:52:34Z</time>
      </trkpt>
      <trkpt lat="46.88461" lon="5.80806">
        <ele>367.36</ele>
        <time>2012-09-16T11:52:48Z</time>
      </trkpt>
      <trkpt lat="46.88465" lon="5.80823">
        <ele>369.28</ele>
        <time>2012-09-16T11:53:01Z</time>
      </trkpt>
      <trkpt lat="46.8847" lon="5.80841">
        <ele>371.21</ele>
        <time>2012-09-16T11:53:15Z</time>
      </trkpt>
      <trkpt lat="46.88474" lon="5.80854">
        <ele>373.13</ele>
        <time>2012-09-16T11:53:27Z</time>
      </trkpt>
      <trkpt lat="46.88482" lon="5.80866">
        <ele>375.53</ele>
        <time>2012-09-16T11:53:42Z</time>
      </trkpt>
      <trkpt lat="46.88493" lon="5.80872">
        <ele>376.97</ele>
        <time>2012-09-16T11:53:56Z</time>
      </trkpt>
      <trkpt lat="46.88506" lon="5.80879">
        <ele>378.9</ele>
        <time>2012-09-16T11:54:09Z</time>
      </trkpt>
      <trkpt lat="46.88507" lon="5.8088">
        <ele>378.42</ele>
        <time>2012-09-16T11:54:10Z</time>
      </trkpt>
      <trkpt lat="46.88522" lon="5.80885">
        <ele>380.34</ele>
        <time>2012-09-16T11:54:24Z</time>
      </trkpt>
      <trkpt lat="46.88525" lon="5.80886">
        <ele>380.34</ele>
        <time>2012-09-16T11:54:28Z</time>
      </trkpt>
      <trkpt lat="46.88533" lon="5.80888">
        <ele>381.78</ele>
        <time>2012-09-16T11:54:36Z</time>
      </trkpt>
      <trkpt lat="46.88545" lon="5.80893">
        <ele>382.74</ele>
        <time>2012-09-16T11:54:47Z</time>
      </trkpt>
      <trkpt lat="46.88553" lon="5.80898">
        <ele>383.7</ele>
        <time>2012-09-16T11:54:55Z</time>
      </trkpt>
      <trkpt lat="46.88566" lon="5.80906">
        <ele>384.66</ele>
        <time>2012-09-16T11:55:08Z</time>
      </trkpt>
      <trkpt lat="46.88579" lon="5.80923">
        <ele>384.66</ele>
        <time>2012-09-16T11:55:23Z</time>
      </trkpt>
      <trkpt lat="46.88582" lon="5.80928">
        <ele>385.15</ele>
        <time>2012-09-16T11:55:27Z</time>
      </trkpt>
      <trkpt lat="46.8859" lon="5.80943">
        <ele>385.63</ele>
        <time>2012-09-16T11:55:39Z</time>
      </trkpt>
      <trkpt lat="46.88593" lon="5.80951">
        <ele>385.63</ele>
        <time>2012-09-16T11:55:44Z</time>
      </trkpt>
      <trkpt lat="46.88601" lon="5.80967">
        <ele>387.07</ele>
        <time>2012-09-16T11:55:56Z</time>
      </trkpt>
      <trkpt lat="46.88609" lon="5.8098">
        <ele>389.47</ele>
        <time>2012-09-16T11:56:08Z</time>
      </trkpt>
      <trkpt lat="46.88612" lon="5.80994">
        <ele>391.39</ele>
        <time>2012-09-16T11:56:19Z</time>
      </trkpt>
      <trkpt lat="46.88611" lon="5.81">
        <ele>391.87</ele>
        <time>2012-09-16T11:56:23Z</time>
      </trkpt>
      <trkpt lat="46.88604" lon="5.81012">
        <ele>393.32</ele>
        <time>2012-09-16T11:56:33Z</time>
      </trkpt>
      <trkpt lat="46.88591" lon="5.81021">
        <ele>393.8</ele>
        <time>2012-09-16T11:56:46Z</time>
      </trkpt>
      <trkpt lat="46.88581" lon="5.81028">
        <ele>394.76</ele>
        <time>2012-09-16T11:56:55Z</time>
      </trkpt>
      <trkpt lat="46.88574" lon="5.81033">
        <ele>394.76</ele>
        <time>2012-09-16T11:57:02Z</time>
      </trkpt>
      <trkpt lat="46.88558" lon="5.81036">
        <ele>396.68</ele>
        <time>2012-09-16T11:57:17Z</time>
      </trkpt>
      <trkpt lat="46.88546" lon="5.81034">
        <ele>397.64</ele>
        <time>2012-09-16T11:57:29Z</time>
      </trkpt>
      <trkpt lat="46.88543" lon="5.81034">
        <ele>398.12</ele>
        <time>2012-09-16T11:57:32Z</time>
      </trkpt>
      <trkpt lat="46.88533" lon="5.81033">
        <ele>399.08</ele>
        <time>2012-09-16T11:57:43Z</time>
      </trkpt>
      <trkpt lat="46.88529" lon="5.81033">
        <ele>400.05</ele>
        <time>2012-09-16T11:57:46Z</time>
      </trkpt>
      <trkpt lat="46.88514" lon="5.81033">
        <ele>401.01</ele>
        <time>2012-09-16T11:57:59Z</time>
      </trkpt>
      <trkpt lat="46.88512" lon="5.81034">
        <ele>401.49</ele>
        <time>2012-09-16T11:58:01Z</time>
      </trkpt>
      <trkpt lat="46.88507" lon="5.81035">
        <ele>401.97</ele>
        <time>2012-09-16T11:58:06Z</time>
      </trkpt>
      <trkpt lat="46.8849" lon="5.81038">
        <ele>403.89</ele>
        <time>2012-09-16T11:58:22Z</time>
      </trkpt>
      <trkpt lat="46.88489" lon="5.81038">
        <ele>403.89</ele>
        <time>2012-09-16T11:58:23Z</time>
      </trkpt>
      <trkpt lat="46.88478" lon="5.8104">
        <ele>405.81</ele>
        <time>2012-09-16T11:58:35Z</time>
      </trkpt>
      <trkpt lat="46.88466" lon="5.81041">
        <ele>407.74</ele>
        <time>2012-09-16T11:58:46Z</time>
      </trkpt>
      <trkpt lat="46.88452" lon="5.81047">
        <ele>408.22</ele>
        <time>2012-09-16T11:59:00Z</time>
      </trkpt>
      <trkpt lat="46.88447" lon="5.81054">
        <ele>409.66</ele>
        <time>2012-09-16T11:59:06Z</time>
      </trkpt>
      <trkpt lat="46.88437" lon="5.81076">
        <ele>410.62</ele>
        <time>2012-09-16T11:59:22Z</time>
      </trkpt>
      <trkpt lat="46.88434" lon="5.81098">
        <ele>412.06</ele>
        <time>2012-09-16T11:59:37Z</time>
      </trkpt>
      <trkpt lat="46.88438" lon="5.81105">
        <ele>413.02</ele>
        <time>2012-09-16T11:59:50Z</time>
      </trkpt>
      <trkpt lat="46.88438" lon="5.81105">
        <ele>412.54</ele>
        <time>2012-09-16T12:00:24Z</time>
      </trkpt>
      <trkpt lat="46.88438" lon="5.81105">
        <ele>412.54</ele>
        <time>2012-09-16T12:00:49Z</time>
      </trkpt>
      <trkpt lat="46.88438" lon="5.81104">
        <ele>412.06</ele>
        <time>2012-09-16T12:01:10Z</time>
      </trkpt>
      <trkpt lat="46.88438" lon="5.81104">
        <ele>412.54</ele>
        <time>2012-09-16T12:01:36Z</time>
      </trkpt>
      <trkpt lat="46.88438" lon="5.81104">
        <ele>412.06</ele>
        <time>2012-09-16T12:02:03Z</time>
      </trkpt>
      <trkpt lat="46.88439" lon="5.81104">
        <ele>412.54</ele>
        <time>2012-09-16T12:02:32Z</time>
      </trkpt>
      <trkpt lat="46.88439" lon="5.81104">
        <ele>412.54</ele>
        <time>2012-09-16T12:02:57Z</time>
      </trkpt>
      <trkpt lat="46.88439" lon="5.81105">
        <ele>412.06</ele>
        <time>2012-09-16T12:03:23Z</time>
      </trkpt>
      <trkpt lat="46.88439" lon="5.81105">
        <ele>412.54</ele>
        <time>2012-09-16T12:03:44Z</time>
      </trkpt>
      <trkpt lat="46.88439" lon="5.81105">
        <ele>412.06</ele>
        <time>2012-09-16T12:04:05Z</time>
      </trkpt>
      <trkpt lat="46.88442" lon="5.81106">
        <ele>412.54</ele>
        <time>2012-09-16T12:04:12Z</time>
      </trkpt>
      <trkpt lat="46.88452" lon="5.81114">
        <ele>413.02</ele>
        <time>2012-09-16T12:04:24Z</time>
      </trkpt>
      <trkpt lat="46.88453" lon="5.81116">
        <ele>412.54</ele>
        <time>2012-09-16T12:04:25Z</time>
      </trkpt>
      <trkpt lat="46.88458" lon="5.81123">
        <ele>413.02</ele>
        <time>2012-09-16T12:04:29Z</time>
      </trkpt>
      <trkpt lat="46.88467" lon="5.81127">
        <ele>413.02</ele>
        <time>2012-09-16T12:04:40Z</time>
      </trkpt>
      <trkpt lat="46.88478" lon="5.81137">
        <ele>413.5</ele>
        <time>2012-09-16T12:04:52Z</time>
      </trkpt>
      <trkpt lat="46.88491" lon="5.81152">
        <ele>413.5</ele>
        <time>2012-09-16T12:05:05Z</time>
      </trkpt>
      <trkpt lat="46.885" lon="5.81158">
        <ele>413.98</ele>
        <time>2012-09-16T12:05:17Z</time>
      </trkpt>
      <trkpt lat="46.8851" lon="5.81167">
        <ele>415.43</ele>
        <time>2012-09-16T12:05:29Z</time>
      </trkpt>
      <trkpt lat="46.88521" lon="5.81172">
        <ele>417.35</ele>
        <time>2012-09-16T12:05:41Z</time>
      </trkpt>
      <trkpt lat="46.88531" lon="5.81182">
        <ele>419.27</ele>
        <time>2012-09-16T12:05:54Z</time>
      </trkpt>
      <trkpt lat="46.88537" lon="5.81187">
        <ele>419.75</ele>
        <time>2012-09-16T12:05:59Z</time>
      </trkpt>
      <trkpt lat="46.88542" lon="5.81191">
        <ele>420.71</ele>
        <time>2012-09-16T12:06:04Z</time>
      </trkpt>
      <trkpt lat="46.88546" lon="5.81195">
        <ele>420.23</ele>
        <time>2012-09-16T12:06:08Z</time>
      </trkpt>
      <trkpt lat="46.88551" lon="5.81201">
        <ele>420.23</ele>
        <time>2012-09-16T12:06:12Z</time>
      </trkpt>
      <trkpt lat="46.88556" lon="5.81205">
        <ele>420.23</ele>
        <time>2012-09-16T12:06:18Z</time>
      </trkpt>
      <trkpt lat="46.88568" lon="5.81219">
        <ele>421.19</ele>
        <time>2012-09-16T12:06:31Z</time>
      </trkpt>
      <trkpt lat="46.88576" lon="5.81232">
        <ele>421.68</ele>
        <time>2012-09-16T12:06:43Z</time>
      </trkpt>
      <trkpt lat="46.88587" lon="5.81245">
        <ele>422.64</ele>
        <time>2012-09-16T12:06:55Z</time>
      </trkpt>
      <trkpt lat="46.88595" lon="5.81254">
        <ele>422.64</ele>
        <time>2012-09-16T12:07:04Z</time>
      </trkpt>
      <trkpt lat="46.88606" lon="5.81272">
        <ele>423.12</ele>
        <time>2012-09-16T12:07:17Z</time>
      </trkpt>
      <trkpt lat="46.8862" lon="5.81289">
        <ele>423.6</ele>
        <time>2012-09-16T12:07:32Z</time>
      </trkpt>
      <trkpt lat="46.88628" lon="5.81298">
        <ele>424.08</ele>
        <time>2012-09-16T12:07:43Z</time>
      </trkpt>
      <trkpt lat="46.8863" lon="5.81299">
        <ele>424.56</ele>
        <time>2012-09-16T12:07:45Z</time>
      </trkpt>
      <trkpt lat="46.88631" lon="5.81301">
        <ele>424.56</ele>
        <time>2012-09-16T12:07:47Z</time>
      </trkpt>
      <trkpt lat="46.88633" lon="5.81304">
        <ele>424.56</ele>
        <time>2012-09-16T12:07:50Z</time>
      </trkpt>
      <trkpt lat="46.88647" lon="5.81319">
        <ele>425.52</ele>
        <time>2012-09-16T12:08:05Z</time>
      </trkpt>
      <trkpt lat="46.88649" lon="5.81323">
        <ele>425.04</ele>
        <time>2012-09-16T12:08:08Z</time>
      </trkpt>
      <trkpt lat="46.8866" lon="5.81339">
        <ele>426.48</ele>
        <time>2012-09-16T12:08:22Z</time>
      </trkpt>
      <trkpt lat="46.88661" lon="5.81342">
        <ele>426.48</ele>
        <time>2012-09-16T12:08:24Z</time>
      </trkpt>
      <trkpt lat="46.88664" lon="5.81348">
        <ele>426.48</ele>
        <time>2012-09-16T12:08:29Z</time>
      </trkpt>
      <trkpt lat="46.88674" lon="5.81361">
        <ele>427.44</ele>
        <time>2012-09-16T12:08:42Z</time>
      </trkpt>
      <trkpt lat="46.88681" lon="5.81378">
        <ele>426.96</ele>
        <time>2012-09-16T12:08:55Z</time>
      </trkpt>
      <trkpt lat="46.88682" lon="5.81383">
        <ele>427.44</ele>
        <time>2012-09-16T12:08:58Z</time>
      </trkpt>
      <trkpt lat="46.88681" lon="5.81389">
        <ele>427.44</ele>
        <time>2012-09-16T12:09:02Z</time>
      </trkpt>
      <trkpt lat="46.88695" lon="5.81404">
        <ele>427.92</ele>
        <time>2012-09-16T12:09:13Z</time>
      </trkpt>
      <trkpt lat="46.88699" lon="5.81418">
        <ele>428.89</ele>
        <time>2012-09-16T12:09:23Z</time>
      </trkpt>
      <trkpt lat="46.88698" lon="5.81424">
        <ele>429.37</ele>
        <time>2012-09-16T12:09:26Z</time>
      </trkpt>
      <trkpt lat="46.88702" lon="5.81434">
        <ele>429.85</ele>
        <time>2012-09-16T12:09:34Z</time>
      </trkpt>
      <trkpt lat="46.88715" lon="5.81458">
        <ele>429.37</ele>
        <time>2012-09-16T12:09:48Z</time>
      </trkpt>
      <trkpt lat="46.88715" lon="5.8146">
        <ele>429.85</ele>
        <time>2012-09-16T12:09:49Z</time>
      </trkpt>
      <trkpt lat="46.88721" lon="5.81471">
        <ele>429.85</ele>
        <time>2012-09-16T12:09:57Z</time>
      </trkpt>
      <trkpt lat="46.88729" lon="5.81487">
        <ele>429.85</ele>
        <time>2012-09-16T12:10:10Z</time>
      </trkpt>
      <trkpt lat="46.8873" lon="5.8149">
        <ele>430.33</ele>
        <time>2012-09-16T12:10:12Z</time>
      </trkpt>
      <trkpt lat="46.88742" lon="5.81509">
        <ele>430.33</ele>
        <time>2012-09-16T12:10:27Z</time>
      </trkpt>
      <trkpt lat="46.88753" lon="5.81526">
        <ele>430.33</ele>
        <time>2012-09-16T12:10:41Z</time>
      </trkpt>
      <trkpt lat="46.88768" lon="5.81544">
        <ele>431.29</ele>
        <time>2012-09-16T12:10:55Z</time>
      </trkpt>
      <trkpt lat="46.88775" lon="5.81551">
        <ele>430.81</ele>
        <time>2012-09-16T12:11:03Z</time>
      </trkpt>
      <trkpt lat="46.88777" lon="5.81554">
        <ele>431.29</ele>
        <time>2012-09-16T12:11:05Z</time>
      </trkpt>
      <trkpt lat="46.88785" lon="5.81565">
        <ele>431.77</ele>
        <time>2012-09-16T12:11:14Z</time>
      </trkpt>
      <trkpt lat="46.88792" lon="5.81576">
        <ele>432.25</ele>
        <time>2012-09-16T12:11:22Z</time>
      </trkpt>
      <trkpt lat="46.888" lon="5.81585">
        <ele>432.73</ele>
        <time>2012-09-16T12:11:31Z</time>
      </trkpt>
      <trkpt lat="46.88808" lon="5.81599">
        <ele>433.69</ele>
        <time>2012-09-16T12:11:42Z</time>
      </trkpt>
      <trkpt lat="46.88816" lon="5.81615">
        <ele>435.61</ele>
        <time>2012-09-16T12:11:56Z</time>
      </trkpt>
      <trkpt lat="46.88822" lon="5.81631">
        <ele>436.58</ele>
        <time>2012-09-16T12:12:10Z</time>
      </trkpt>
      <trkpt lat="46.88832" lon="5.81648">
        <ele>438.02</ele>
        <time>2012-09-16T12:12:23Z</time>
      </trkpt>
      <trkpt lat="46.88841" lon="5.81662">
        <ele>438.98</ele>
        <time>2012-09-16T12:12:35Z</time>
      </trkpt>
      <trkpt lat="46.88843" lon="5.81669">
        <ele>439.46</ele>
        <time>2012-09-16T12:12:40Z</time>
      </trkpt>
      <trkpt lat="46.88847" lon="5.81683">
        <ele>440.42</ele>
        <time>2012-09-16T12:12:50Z</time>
      </trkpt>
      <trkpt lat="46.88856" lon="5.81698">
        <ele>441.86</ele>
        <time>2012-09-16T12:13:01Z</time>
      </trkpt>
      <trkpt lat="46.88861" lon="5.81703">
        <ele>442.82</ele>
        <time>2012-09-16T12:13:06Z</time>
      </trkpt>
      <trkpt lat="46.88871" lon="5.81722">
        <ele>443.79</ele>
        <time>2012-09-16T12:13:20Z</time>
      </trkpt>
      <trkpt lat="46.88875" lon="5.81734">
        <ele>444.75</ele>
        <time>2012-09-16T12:13:31Z</time>
      </trkpt>
      <trkpt lat="46.88878" lon="5.81747">
        <ele>446.19</ele>
        <time>2012-09-16T12:13:42Z</time>
      </trkpt>
      <trkpt lat="46.88882" lon="5.81763">
        <ele>447.63</ele>
        <time>2012-09-16T12:13:55Z</time>
      </trkpt>
      <trkpt lat="46.88884" lon="5.81776">
        <ele>449.07</ele>
        <time>2012-09-16T12:14:06Z</time>
      </trkpt>
      <trkpt lat="46.88887" lon="5.81789">
        <ele>451</ele>
        <time>2012-09-16T12:14:19Z</time>
      </trkpt>
      <trkpt lat="46.88894" lon="5.81798">
        <ele>451.96</ele>
        <time>2012-09-16T12:14:31Z</time>
      </trkpt>
      <trkpt lat="46.88898" lon="5.81811">
        <ele>453.88</ele>
        <time>2012-09-16T12:14:45Z</time>
      </trkpt>
      <trkpt lat="46.88901" lon="5.81818">
        <ele>455.8</ele>
        <time>2012-09-16T12:14:57Z</time>
      </trkpt>
      <trkpt lat="46.88903" lon="5.81834">
        <ele>457.24</ele>
        <time>2012-09-16T12:15:10Z</time>
      </trkpt>
      <trkpt lat="46.88907" lon="5.81847">
        <ele>459.17</ele>
        <time>2012-09-16T12:15:25Z</time>
      </trkpt>
      <trkpt lat="46.88905" lon="5.8186">
        <ele>461.09</ele>
        <time>2012-09-16T12:15:38Z</time>
      </trkpt>
      <trkpt lat="46.88908" lon="5.81874">
        <ele>462.05</ele>
        <time>2012-09-16T12:15:51Z</time>
      </trkpt>
      <trkpt lat="46.88907" lon="5.81887">
        <ele>464.93</ele>
        <time>2012-09-16T12:16:06Z</time>
      </trkpt>
      <trkpt lat="46.88906" lon="5.81903">
        <ele>466.86</ele>
        <time>2012-09-16T12:16:21Z</time>
      </trkpt>
      <trkpt lat="46.88909" lon="5.81915">
        <ele>468.3</ele>
        <time>2012-09-16T12:16:35Z</time>
      </trkpt>
      <trkpt lat="46.88908" lon="5.81928">
        <ele>469.74</ele>
        <time>2012-09-16T12:16:48Z</time>
      </trkpt>
      <trkpt lat="46.88909" lon="5.81935">
        <ele>469.74</ele>
        <time>2012-09-16T12:16:56Z</time>
      </trkpt>
      <trkpt lat="46.8891" lon="5.81944">
        <ele>469.26</ele>
        <time>2012-09-16T12:17:07Z</time>
      </trkpt>
      <trkpt lat="46.88912" lon="5.81946">
        <ele>468.78</ele>
        <time>2012-09-16T12:17:21Z</time>
      </trkpt>
      <trkpt lat="46.88911" lon="5.81948">
        <ele>469.26</ele>
        <time>2012-09-16T12:17:41Z</time>
      </trkpt>
      <trkpt lat="46.8891" lon="5.8195">
        <ele>469.26</ele>
        <time>2012-09-16T12:18:01Z</time>
      </trkpt>
      <trkpt lat="46.88911" lon="5.8195">
        <ele>468.78</ele>
        <time>2012-09-16T12:18:18Z</time>
      </trkpt>
      <trkpt lat="46.88914" lon="5.81952">
        <ele>468.78</ele>
        <time>2012-09-16T12:18:35Z</time>
      </trkpt>
      <trkpt lat="46.88919" lon="5.81967">
        <ele>468.78</ele>
        <time>2012-09-16T12:18:47Z</time>
      </trkpt>
      <trkpt lat="46.8892" lon="5.81978">
        <ele>469.26</ele>
        <time>2012-09-16T12:18:57Z</time>
      </trkpt>
      <trkpt lat="46.88923" lon="5.81992">
        <ele>471.66</ele>
        <time>2012-09-16T12:19:09Z</time>
      </trkpt>
      <trkpt lat="46.88928" lon="5.82008">
        <ele>472.63</ele>
        <time>2012-09-16T12:19:21Z</time>
      </trkpt>
      <trkpt lat="46.8893" lon="5.82016">
        <ele>472.63</ele>
        <time>2012-09-16T12:19:31Z</time>
      </trkpt>
      <trkpt lat="46.88932" lon="5.82031">
        <ele>474.07</ele>
        <time>2012-09-16T12:19:42Z</time>
      </trkpt>
      <trkpt lat="46.88934" lon="5.82047">
        <ele>475.03</ele>
        <time>2012-09-16T12:19:55Z</time>
      </trkpt>
      <trkpt lat="46.88935" lon="5.82067">
        <ele>477.43</ele>
        <time>2012-09-16T12:20:06Z</time>
      </trkpt>
      <trkpt lat="46.88931" lon="5.82079">
        <ele>479.84</ele>
        <time>2012-09-16T12:20:19Z</time>
      </trkpt>
      <trkpt lat="46.88928" lon="5.82094">
        <ele>481.76</ele>
        <time>2012-09-16T12:20:34Z</time>
      </trkpt>
      <trkpt lat="46.88929" lon="5.82099">
        <ele>481.76</ele>
        <time>2012-09-16T12:20:38Z</time>
      </trkpt>
      <trkpt lat="46.88928" lon="5.82111">
        <ele>482.24</ele>
        <time>2012-09-16T12:20:50Z</time>
      </trkpt>
      <trkpt lat="46.88935" lon="5.82128">
        <ele>481.76</ele>
        <time>2012-09-16T12:21:05Z</time>
      </trkpt>
      <trkpt lat="46.88943" lon="5.82141">
        <ele>481.76</ele>
        <time>2012-09-16T12:21:18Z</time>
      </trkpt>
      <trkpt lat="46.88945" lon="5.82156">
        <ele>481.76</ele>
        <time>2012-09-16T12:21:32Z</time>
      </trkpt>
      <trkpt lat="46.88948" lon="5.82163">
        <ele>481.76</ele>
        <time>2012-09-16T12:21:38Z</time>
      </trkpt>
      <trkpt lat="46.88957" lon="5.82179">
        <ele>482.24</ele>
        <time>2012-09-16T12:21:51Z</time>
      </trkpt>
      <trkpt lat="46.88967" lon="5.82194">
        <ele>483.68</ele>
        <time>2012-09-16T12:22:04Z</time>
      </trkpt>
      <trkpt lat="46.88973" lon="5.82203">
        <ele>484.64</ele>
        <time>2012-09-16T12:22:17Z</time>
      </trkpt>
      <trkpt lat="46.88981" lon="5.82219">
        <ele>485.12</ele>
        <time>2012-09-16T12:22:31Z</time>
      </trkpt>
      <trkpt lat="46.88984" lon="5.82223">
        <ele>486.56</ele>
        <time>2012-09-16T12:22:45Z</time>
      </trkpt>
      <trkpt lat="46.88987" lon="5.82225">
        <ele>488.01</ele>
        <time>2012-09-16T12:22:59Z</time>
      </trkpt>
      <trkpt lat="46.88998" lon="5.8224">
        <ele>489.93</ele>
        <time>2012-09-16T12:23:13Z</time>
      </trkpt>
      <trkpt lat="46.89008" lon="5.82254">
        <ele>492.33</ele>
        <time>2012-09-16T12:23:28Z</time>
      </trkpt>
      <trkpt lat="46.89029" lon="5.82276">
        <ele>493.77</ele>
        <time>2012-09-16T12:23:41Z</time>
      </trkpt>
      <trkpt lat="46.89036" lon="5.82284">
        <ele>494.74</ele>
        <time>2012-09-16T12:23:46Z</time>
      </trkpt>
      <trkpt lat="46.89052" lon="5.823">
        <ele>496.66</ele>
        <time>2012-09-16T12:23:59Z</time>
      </trkpt>
      <trkpt lat="46.89057" lon="5.82307">
        <ele>499.06</ele>
        <time>2012-09-16T12:24:13Z</time>
      </trkpt>
      <trkpt lat="46.89065" lon="5.82316">
        <ele>500.98</ele>
        <time>2012-09-16T12:24:26Z</time>
      </trkpt>
      <trkpt lat="46.89078" lon="5.8233">
        <ele>502.91</ele>
        <time>2012-09-16T12:24:39Z</time>
      </trkpt>
      <trkpt lat="46.89091" lon="5.82351">
        <ele>504.83</ele>
        <time>2012-09-16T12:24:51Z</time>
      </trkpt>
      <trkpt lat="46.89102" lon="5.82369">
        <ele>506.75</ele>
        <time>2012-09-16T12:25:03Z</time>
      </trkpt>
      <trkpt lat="46.89105" lon="5.82378">
        <ele>508.19</ele>
        <time>2012-09-16T12:25:14Z</time>
      </trkpt>
      <trkpt lat="46.89106" lon="5.82381">
        <ele>509.64</ele>
        <time>2012-09-16T12:25:32Z</time>
      </trkpt>
      <trkpt lat="46.8911" lon="5.82395">
        <ele>511.08</ele>
        <time>2012-09-16T12:25:46Z</time>
      </trkpt>
      <trkpt lat="46.89116" lon="5.82412">
        <ele>512.04</ele>
        <time>2012-09-16T12:25:59Z</time>
      </trkpt>
      <trkpt lat="46.89115" lon="5.82423">
        <ele>513.96</ele>
        <time>2012-09-16T12:26:12Z</time>
      </trkpt>
      <trkpt lat="46.89116" lon="5.82429">
        <ele>515.4</ele>
        <time>2012-09-16T12:26:24Z</time>
      </trkpt>
      <trkpt lat="46.8912" lon="5.82437">
        <ele>516.37</ele>
        <time>2012-09-16T12:26:35Z</time>
      </trkpt>
      <trkpt lat="46.89118" lon="5.82447">
        <ele>518.29</ele>
        <time>2012-09-16T12:26:49Z</time>
      </trkpt>
      <trkpt lat="46.89118" lon="5.82458">
        <ele>519.73</ele>
        <time>2012-09-16T12:27:01Z</time>
      </trkpt>
      <trkpt lat="46.89121" lon="5.82469">
        <ele>520.69</ele>
        <time>2012-09-16T12:27:15Z</time>
      </trkpt>
      <trkpt lat="46.89122" lon="5.82479">
        <ele>522.61</ele>
        <time>2012-09-16T12:27:29Z</time>
      </trkpt>
      <trkpt lat="46.89124" lon="5.82491">
        <ele>523.58</ele>
        <time>2012-09-16T12:27:46Z</time>
      </trkpt>
      <trkpt lat="46.89123" lon="5.82491">
        <ele>525.02</ele>
        <time>2012-09-16T12:27:51Z</time>
      </trkpt>
      <trkpt lat="46.89119" lon="5.82493">
        <ele>523.58</ele>
        <time>2012-09-16T12:28:07Z</time>
      </trkpt>
      <trkpt lat="46.89119" lon="5.82492">
        <ele>523.58</ele>
        <time>2012-09-16T12:28:30Z</time>
      </trkpt>
      <trkpt lat="46.89119" lon="5.82494">
        <ele>523.09</ele>
        <time>2012-09-16T12:28:57Z</time>
      </trkpt>
      <trkpt lat="46.8912" lon="5.82496">
        <ele>522.61</ele>
        <time>2012-09-16T12:29:30Z</time>
      </trkpt>
      <trkpt lat="46.89121" lon="5.82497">
        <ele>521.65</ele>
        <time>2012-09-16T12:29:59Z</time>
      </trkpt>
      <trkpt lat="46.89122" lon="5.82498">
        <ele>520.21</ele>
        <time>2012-09-16T12:30:26Z</time>
      </trkpt>
      <trkpt lat="46.89122" lon="5.82498">
        <ele>520.21</ele>
        <time>2012-09-16T12:30:56Z</time>
      </trkpt>
      <trkpt lat="46.89122" lon="5.82498">
        <ele>519.25</ele>
        <time>2012-09-16T12:31:30Z</time>
      </trkpt>
      <trkpt lat="46.89123" lon="5.825">
        <ele>517.81</ele>
        <time>2012-09-16T12:32:06Z</time>
      </trkpt>
      <trkpt lat="46.89127" lon="5.82503">
        <ele>516.85</ele>
        <time>2012-09-16T12:32:40Z</time>
      </trkpt>
      <trkpt lat="46.89126" lon="5.82503">
        <ele>516.85</ele>
        <time>2012-09-16T12:33:09Z</time>
      </trkpt>
      <trkpt lat="46.89128" lon="5.82504">
        <ele>515.88</ele>
        <time>2012-09-16T12:33:45Z</time>
      </trkpt>
      <trkpt lat="46.8913" lon="5.82504">
        <ele>515.4</ele>
        <time>2012-09-16T12:34:20Z</time>
      </trkpt>
      <trkpt lat="46.89133" lon="5.82505">
        <ele>515.4</ele>
        <time>2012-09-16T12:34:57Z</time>
      </trkpt>
      <trkpt lat="46.89134" lon="5.82506">
        <ele>515.4</ele>
        <time>2012-09-16T12:35:26Z</time>
      </trkpt>
      <trkpt lat="46.89134" lon="5.82506">
        <ele>514.92</ele>
        <time>2012-09-16T12:35:50Z</time>
      </trkpt>
      <trkpt lat="46.89137" lon="5.82507">
        <ele>514.44</ele>
        <time>2012-09-16T12:36:17Z</time>
      </trkpt>
      <trkpt lat="46.89143" lon="5.82511">
        <ele>513.48</ele>
        <time>2012-09-16T12:36:44Z</time>
      </trkpt>
      <trkpt lat="46.89147" lon="5.82513">
        <ele>513.48</ele>
        <time>2012-09-16T12:37:08Z</time>
      </trkpt>
      <trkpt lat="46.89174" lon="5.82518">
        <ele>513.48</ele>
        <time>2012-09-16T12:37:24Z</time>
      </trkpt>
      <trkpt lat="46.89183" lon="5.82522">
        <ele>513.96</ele>
        <time>2012-09-16T12:37:36Z</time>
      </trkpt>
      <trkpt lat="46.89191" lon="5.82529">
        <ele>513.48</ele>
        <time>2012-09-16T12:37:44Z</time>
      </trkpt>
      <trkpt lat="46.89198" lon="5.82537">
        <ele>513.96</ele>
        <time>2012-09-16T12:37:56Z</time>
      </trkpt>
      <trkpt lat="46.89199" lon="5.82536">
        <ele>514.44</ele>
        <time>2012-09-16T12:38:00Z</time>
      </trkpt>
      <trkpt lat="46.89203" lon="5.82541">
        <ele>514.92</ele>
        <time>2012-09-16T12:38:04Z</time>
      </trkpt>
      <trkpt lat="46.89215" lon="5.82552">
        <ele>516.85</ele>
        <time>2012-09-16T12:38:18Z</time>
      </trkpt>
      <trkpt lat="46.89227" lon="5.82567">
        <ele>518.77</ele>
        <time>2012-09-16T12:38:31Z</time>
      </trkpt>
      <trkpt lat="46.89239" lon="5.82579">
        <ele>521.17</ele>
        <time>2012-09-16T12:38:46Z</time>
      </trkpt>
      <trkpt lat="46.89248" lon="5.82594">
        <ele>521.65</ele>
        <time>2012-09-16T12:38:58Z</time>
      </trkpt>
      <trkpt lat="46.89251" lon="5.82611">
        <ele>522.13</ele>
        <time>2012-09-16T12:39:10Z</time>
      </trkpt>
      <trkpt lat="46.89258" lon="5.82624">
        <ele>522.61</ele>
        <time>2012-09-16T12:39:22Z</time>
      </trkpt>
      <trkpt lat="46.89261" lon="5.82633">
        <ele>524.54</ele>
        <time>2012-09-16T12:39:34Z</time>
      </trkpt>
      <trkpt lat="46.89264" lon="5.82643">
        <ele>525.5</ele>
        <time>2012-09-16T12:39:45Z</time>
      </trkpt>
      <trkpt lat="46.89268" lon="5.82653">
        <ele>525.02</ele>
        <time>2012-09-16T12:39:54Z</time>
      </trkpt>
      <trkpt lat="46.8928" lon="5.82667">
        <ele>525.02</ele>
        <time>2012-09-16T12:40:06Z</time>
      </trkpt>
      <trkpt lat="46.89293" lon="5.82675">
        <ele>525.98</ele>
        <time>2012-09-16T12:40:18Z</time>
      </trkpt>
      <trkpt lat="46.89306" lon="5.82685">
        <ele>527.42</ele>
        <time>2012-09-16T12:40:31Z</time>
      </trkpt>
      <trkpt lat="46.89315" lon="5.82693">
        <ele>528.38</ele>
        <time>2012-09-16T12:40:38Z</time>
      </trkpt>
      <trkpt lat="46.89325" lon="5.82703">
        <ele>529.34</ele>
        <time>2012-09-16T12:40:51Z</time>
      </trkpt>
      <trkpt lat="46.89332" lon="5.82718">
        <ele>530.79</ele>
        <time>2012-09-16T12:41:04Z</time>
      </trkpt>
      <trkpt lat="46.89338" lon="5.82725">
        <ele>533.19</ele>
        <time>2012-09-16T12:41:17Z</time>
      </trkpt>
      <trkpt lat="46.89345" lon="5.82732">
        <ele>533.67</ele>
        <time>2012-09-16T12:41:26Z</time>
      </trkpt>
      <trkpt lat="46.89354" lon="5.82735">
        <ele>533.19</ele>
        <time>2012-09-16T12:41:38Z</time>
      </trkpt>
      <trkpt lat="46.89364" lon="5.82742">
        <ele>532.23</ele>
        <time>2012-09-16T12:41:50Z</time>
      </trkpt>
      <trkpt lat="46.89372" lon="5.8275">
        <ele>531.75</ele>
        <time>2012-09-16T12:42:02Z</time>
      </trkpt>
      <trkpt lat="46.89386" lon="5.8276">
        <ele>530.79</ele>
        <time>2012-09-16T12:42:14Z</time>
      </trkpt>
      <trkpt lat="46.89398" lon="5.82767">
        <ele>530.79</ele>
        <time>2012-09-16T12:42:26Z</time>
      </trkpt>
      <trkpt lat="46.89409" lon="5.82779">
        <ele>531.75</ele>
        <time>2012-09-16T12:42:38Z</time>
      </trkpt>
      <trkpt lat="46.89423" lon="5.82786">
        <ele>531.75</ele>
        <time>2012-09-16T12:42:50Z</time>
      </trkpt>
      <trkpt lat="46.89433" lon="5.8279">
        <ele>532.23</ele>
        <time>2012-09-16T12:43:02Z</time>
      </trkpt>
      <trkpt lat="46.89443" lon="5.82788">
        <ele>533.67</ele>
        <time>2012-09-16T12:43:16Z</time>
      </trkpt>
      <trkpt lat="46.8946" lon="5.82794">
        <ele>534.15</ele>
        <time>2012-09-16T12:43:27Z</time>
      </trkpt>
      <trkpt lat="46.89475" lon="5.82795">
        <ele>534.15</ele>
        <time>2012-09-16T12:43:41Z</time>
      </trkpt>
      <trkpt lat="46.89488" lon="5.82795">
        <ele>535.11</ele>
        <time>2012-09-16T12:43:52Z</time>
      </trkpt>
      <trkpt lat="46.89492" lon="5.82795">
        <ele>535.11</ele>
        <time>2012-09-16T12:43:55Z</time>
      </trkpt>
      <trkpt lat="46.89501" lon="5.82793">
        <ele>535.59</ele>
        <time>2012-09-16T12:44:04Z</time>
      </trkpt>
      <trkpt lat="46.89515" lon="5.82793">
        <ele>535.59</ele>
        <time>2012-09-16T12:44:17Z</time>
      </trkpt>
      <trkpt lat="46.89527" lon="5.82796">
        <ele>536.07</ele>
        <time>2012-09-16T12:44:28Z</time>
      </trkpt>
      <trkpt lat="46.89538" lon="5.82802">
        <ele>536.55</ele>
        <time>2012-09-16T12:44:41Z</time>
      </trkpt>
      <trkpt lat="46.89552" lon="5.82808">
        <ele>536.07</ele>
        <time>2012-09-16T12:44:50Z</time>
      </trkpt>
      <trkpt lat="46.89556" lon="5.82809">
        <ele>535.59</ele>
        <time>2012-09-16T12:44:53Z</time>
      </trkpt>
      <trkpt lat="46.89561" lon="5.82812">
        <ele>535.59</ele>
        <time>2012-09-16T12:44:57Z</time>
      </trkpt>
      <trkpt lat="46.89576" lon="5.82817">
        <ele>535.59</ele>
        <time>2012-09-16T12:45:11Z</time>
      </trkpt>
      <trkpt lat="46.89578" lon="5.82817">
        <ele>535.59</ele>
        <time>2012-09-16T12:45:13Z</time>
      </trkpt>
      <trkpt lat="46.89593" lon="5.82808">
        <ele>536.07</ele>
        <time>2012-09-16T12:45:27Z</time>
      </trkpt>
      <trkpt lat="46.89607" lon="5.82791">
        <ele>535.11</ele>
        <time>2012-09-16T12:45:44Z</time>
      </trkpt>
      <trkpt lat="46.89616" lon="5.82781">
        <ele>535.59</ele>
        <time>2012-09-16T12:45:54Z</time>
      </trkpt>
      <trkpt lat="46.8963" lon="5.82764">
        <ele>535.11</ele>
        <time>2012-09-16T12:46:08Z</time>
      </trkpt>
      <trkpt lat="46.89642" lon="5.82743">
        <ele>534.63</ele>
        <time>2012-09-16T12:46:24Z</time>
      </trkpt>
      <trkpt lat="46.89653" lon="5.82718">
        <ele>535.11</ele>
        <time>2012-09-16T12:46:41Z</time>
      </trkpt>
      <trkpt lat="46.89654" lon="5.82716">
        <ele>535.59</ele>
        <time>2012-09-16T12:46:42Z</time>
      </trkpt>
      <trkpt lat="46.89662" lon="5.82698">
        <ele>535.59</ele>
        <time>2012-09-16T12:46:53Z</time>
      </trkpt>
      <trkpt lat="46.89673" lon="5.82675">
        <ele>536.07</ele>
        <time>2012-09-16T12:47:10Z</time>
      </trkpt>
      <trkpt lat="46.89675" lon="5.82661">
        <ele>537.51</ele>
        <time>2012-09-16T12:47:21Z</time>
      </trkpt>
      <trkpt lat="46.89669" lon="5.82647">
        <ele>538.48</ele>
        <time>2012-09-16T12:47:35Z</time>
      </trkpt>
      <trkpt lat="46.89665" lon="5.82644">
        <ele>538.96</ele>
        <time>2012-09-16T12:47:39Z</time>
      </trkpt>
      <trkpt lat="46.89664" lon="5.82641">
        <ele>538.96</ele>
        <time>2012-09-16T12:47:41Z</time>
      </trkpt>
      <trkpt lat="46.89654" lon="5.82629">
        <ele>539.44</ele>
        <time>2012-09-16T12:47:53Z</time>
      </trkpt>
      <trkpt lat="46.89653" lon="5.82628">
        <ele>539.92</ele>
        <time>2012-09-16T12:47:54Z</time>
      </trkpt>
      <trkpt lat="46.89645" lon="5.82618">
        <ele>540.4</ele>
        <time>2012-09-16T12:48:06Z</time>
      </trkpt>
      <trkpt lat="46.89637" lon="5.82603">
        <ele>542.32</ele>
        <time>2012-09-16T12:48:20Z</time>
      </trkpt>
      <trkpt lat="46.8963" lon="5.82579">
        <ele>543.76</ele>
        <time>2012-09-16T12:48:32Z</time>
      </trkpt>
      <trkpt lat="46.89625" lon="5.82559">
        <ele>546.17</ele>
        <time>2012-09-16T12:48:45Z</time>
      </trkpt>
      <trkpt lat="46.89625" lon="5.82541">
        <ele>547.61</ele>
        <time>2012-09-16T12:48:59Z</time>
      </trkpt>
      <trkpt lat="46.89624" lon="5.82523">
        <ele>549.05</ele>
        <time>2012-09-16T12:49:13Z</time>
      </trkpt>
      <trkpt lat="46.89619" lon="5.82495">
        <ele>550.97</ele>
        <time>2012-09-16T12:49:26Z</time>
      </trkpt>
      <trkpt lat="46.8962" lon="5.82476">
        <ele>551.93</ele>
        <time>2012-09-16T12:49:38Z</time>
      </trkpt>
      <trkpt lat="46.89618" lon="5.82465">
        <ele>553.38</ele>
        <time>2012-09-16T12:49:46Z</time>
      </trkpt>
      <trkpt lat="46.89615" lon="5.8245">
        <ele>554.34</ele>
        <time>2012-09-16T12:49:56Z</time>
      </trkpt>
      <trkpt lat="46.89614" lon="5.82447">
        <ele>554.82</ele>
        <time>2012-09-16T12:49:58Z</time>
      </trkpt>
      <trkpt lat="46.89612" lon="5.82419">
        <ele>556.26</ele>
        <time>2012-09-16T12:50:14Z</time>
      </trkpt>
      <trkpt lat="46.8961" lon="5.82404">
        <ele>556.26</ele>
        <time>2012-09-16T12:50:24Z</time>
      </trkpt>
      <trkpt lat="46.8961" lon="5.82401">
        <ele>556.26</ele>
        <time>2012-09-16T12:50:26Z</time>
      </trkpt>
      <trkpt lat="46.89609" lon="5.82396">
        <ele>554.82</ele>
        <time>2012-09-16T12:50:30Z</time>
      </trkpt>
      <trkpt lat="46.89607" lon="5.82379">
        <ele>555.3</ele>
        <time>2012-09-16T12:50:40Z</time>
      </trkpt>
      <trkpt lat="46.89607" lon="5.82374">
        <ele>554.82</ele>
        <time>2012-09-16T12:50:43Z</time>
      </trkpt>
      <trkpt lat="46.89606" lon="5.82371">
        <ele>555.3</ele>
        <time>2012-09-16T12:50:45Z</time>
      </trkpt>
      <trkpt lat="46.89601" lon="5.82358">
        <ele>554.34</ele>
        <time>2012-09-16T12:50:59Z</time>
      </trkpt>
      <trkpt lat="46.89593" lon="5.82356">
        <ele>554.34</ele>
        <time>2012-09-16T12:51:12Z</time>
      </trkpt>
      <trkpt lat="46.89589" lon="5.82357">
        <ele>554.34</ele>
        <time>2012-09-16T12:51:16Z</time>
      </trkpt>
      <trkpt lat="46.89581" lon="5.82351">
        <ele>554.82</ele>
        <time>2012-09-16T12:51:28Z</time>
      </trkpt>
      <trkpt lat="46.89573" lon="5.82344">
        <ele>555.3</ele>
        <time>2012-09-16T12:51:35Z</time>
      </trkpt>
      <trkpt lat="46.89563" lon="5.82328">
        <ele>554.82</ele>
        <time>2012-09-16T12:51:47Z</time>
      </trkpt>
      <trkpt lat="46.89556" lon="5.82314">
        <ele>556.26</ele>
        <time>2012-09-16T12:52:00Z</time>
      </trkpt>
      <trkpt lat="46.89551" lon="5.82306">
        <ele>557.7</ele>
        <time>2012-09-16T12:52:11Z</time>
      </trkpt>
      <trkpt lat="46.89549" lon="5.82302">
        <ele>558.18</ele>
        <time>2012-09-16T12:52:28Z</time>
      </trkpt>
      <trkpt lat="46.89544" lon="5.82303">
        <ele>558.66</ele>
        <time>2012-09-16T12:52:43Z</time>
      </trkpt>
      <trkpt lat="46.89539" lon="5.82304">
        <ele>558.18</ele>
        <time>2012-09-16T12:52:56Z</time>
      </trkpt>
      <trkpt lat="46.89539" lon="5.82304">
        <ele>557.7</ele>
        <time>2012-09-16T12:53:13Z</time>
      </trkpt>
      <trkpt lat="46.8954" lon="5.82302">
        <ele>558.66</ele>
        <time>2012-09-16T12:53:27Z</time>
      </trkpt>
      <trkpt lat="46.89545" lon="5.82294">
        <ele>558.66</ele>
        <time>2012-09-16T12:53:40Z</time>
      </trkpt>
      <trkpt lat="46.89544" lon="5.82283">
        <ele>560.11</ele>
        <time>2012-09-16T12:53:54Z</time>
      </trkpt>
      <trkpt lat="46.89536" lon="5.82263">
        <ele>562.03</ele>
        <time>2012-09-16T12:54:07Z</time>
      </trkpt>
      <trkpt lat="46.8953" lon="5.82257">
        <ele>563.95</ele>
        <time>2012-09-16T12:54:20Z</time>
      </trkpt>
      <trkpt lat="46.89521" lon="5.8226">
        <ele>564.91</ele>
        <time>2012-09-16T12:54:31Z</time>
      </trkpt>
      <trkpt lat="46.8952" lon="5.8226">
        <ele>564.91</ele>
        <time>2012-09-16T12:54:45Z</time>
      </trkpt>
      <trkpt lat="46.8952" lon="5.8226">
        <ele>565.39</ele>
        <time>2012-09-16T12:54:59Z</time>
      </trkpt>
      <trkpt lat="46.89523" lon="5.82259">
        <ele>564.43</ele>
        <time>2012-09-16T12:55:11Z</time>
      </trkpt>
      <trkpt lat="46.89523" lon="5.82256">
        <ele>564.91</ele>
        <time>2012-09-16T12:55:25Z</time>
      </trkpt>
      <trkpt lat="46.89519" lon="5.82257">
        <ele>565.39</ele>
        <time>2012-09-16T12:55:38Z</time>
      </trkpt>
      <trkpt lat="46.89518" lon="5.82258">
        <ele>565.39</ele>
        <time>2012-09-16T12:55:52Z</time>
      </trkpt>
      <trkpt lat="46.89518" lon="5.82257">
        <ele>564.91</ele>
        <time>2012-09-16T12:56:10Z</time>
      </trkpt>
      <trkpt lat="46.89522" lon="5.82256">
        <ele>564.91</ele>
        <time>2012-09-16T12:56:28Z</time>
      </trkpt>
      <trkpt lat="46.89525" lon="5.82254">
        <ele>564.91</ele>
        <time>2012-09-16T12:56:43Z</time>
      </trkpt>
      <trkpt lat="46.89525" lon="5.82252">
        <ele>564.43</ele>
        <time>2012-09-16T12:57:08Z</time>
      </trkpt>
      <trkpt lat="46.89533" lon="5.82242">
        <ele>564.43</ele>
        <time>2012-09-16T12:57:19Z</time>
      </trkpt>
      <trkpt lat="46.89539" lon="5.82226">
        <ele>563.95</ele>
        <time>2012-09-16T12:57:33Z</time>
      </trkpt>
      <trkpt lat="46.8954" lon="5.82226">
        <ele>563.95</ele>
        <time>2012-09-16T12:57:34Z</time>
      </trkpt>
      <trkpt lat="46.89546" lon="5.82207">
        <ele>563.47</ele>
        <time>2012-09-16T12:57:47Z</time>
      </trkpt>
      <trkpt lat="46.89547" lon="5.82194">
        <ele>563.95</ele>
        <time>2012-09-16T12:57:59Z</time>
      </trkpt>
      <trkpt lat="46.8955" lon="5.82181">
        <ele>563.95</ele>
        <time>2012-09-16T12:58:09Z</time>
      </trkpt>
      <trkpt lat="46.8955" lon="5.82174">
        <ele>564.43</ele>
        <time>2012-09-16T12:58:14Z</time>
      </trkpt>
      <trkpt lat="46.89546" lon="5.82161">
        <ele>564.91</ele>
        <time>2012-09-16T12:58:23Z</time>
      </trkpt>
      <trkpt lat="46.89548" lon="5.82144">
        <ele>564.43</ele>
        <time>2012-09-16T12:58:36Z</time>
      </trkpt>
      <trkpt lat="46.89548" lon="5.82144">
        <ele>564.91</ele>
        <time>2012-09-16T12:58:55Z</time>
      </trkpt>
      <trkpt lat="46.89547" lon="5.82147">
        <ele>564.43</ele>
        <time>2012-09-16T12:59:15Z</time>
      </trkpt>
      <trkpt lat="46.89547" lon="5.82147">
        <ele>564.91</ele>
        <time>2012-09-16T12:59:35Z</time>
      </trkpt>
      <trkpt lat="46.89548" lon="5.82144">
        <ele>564.91</ele>
        <time>2012-09-16T12:59:45Z</time>
      </trkpt>
      <trkpt lat="46.89554" lon="5.82126">
        <ele>565.87</ele>
        <time>2012-09-16T12:59:58Z</time>
      </trkpt>
      <trkpt lat="46.89555" lon="5.82116">
        <ele>565.39</ele>
        <time>2012-09-16T13:00:06Z</time>
      </trkpt>
      <trkpt lat="46.89556" lon="5.82113">
        <ele>564.91</ele>
        <time>2012-09-16T13:00:08Z</time>
      </trkpt>
      <trkpt lat="46.89556" lon="5.8211">
        <ele>564.91</ele>
        <time>2012-09-16T13:00:10Z</time>
      </trkpt>
      <trkpt lat="46.89557" lon="5.82107">
        <ele>564.91</ele>
        <time>2012-09-16T13:00:12Z</time>
      </trkpt>
      <trkpt lat="46.89561" lon="5.82095">
        <ele>564.43</ele>
        <time>2012-09-16T13:00:23Z</time>
      </trkpt>
      <trkpt lat="46.89566" lon="5.82082">
        <ele>563.95</ele>
        <time>2012-09-16T13:00:33Z</time>
      </trkpt>
      <trkpt lat="46.89572" lon="5.82072">
        <ele>564.43</ele>
        <time>2012-09-16T13:00:41Z</time>
      </trkpt>
      <trkpt lat="46.89586" lon="5.82069">
        <ele>564.43</ele>
        <time>2012-09-16T13:00:56Z</time>
      </trkpt>
      <trkpt lat="46.89592" lon="5.82066">
        <ele>564.91</ele>
        <time>2012-09-16T13:01:03Z</time>
      </trkpt>
      <trkpt lat="46.89596" lon="5.82057">
        <ele>565.39</ele>
        <time>2012-09-16T13:01:10Z</time>
      </trkpt>
      <trkpt lat="46.89603" lon="5.82045">
        <ele>565.87</ele>
        <time>2012-09-16T13:01:22Z</time>
      </trkpt>
      <trkpt lat="46.89604" lon="5.82041">
        <ele>566.35</ele>
        <time>2012-09-16T13:01:24Z</time>
      </trkpt>
      <trkpt lat="46.89607" lon="5.82035">
        <ele>566.35</ele>
        <time>2012-09-16T13:01:29Z</time>
      </trkpt>
      <trkpt lat="46.89609" lon="5.82032">
        <ele>566.83</ele>
        <time>2012-09-16T13:01:31Z</time>
      </trkpt>
      <trkpt lat="46.89616" lon="5.82034">
        <ele>567.32</ele>
        <time>2012-09-16T13:01:41Z</time>
      </trkpt>
      <trkpt lat="46.89627" lon="5.82033">
        <ele>566.83</ele>
        <time>2012-09-16T13:01:50Z</time>
      </trkpt>
      <trkpt lat="46.89631" lon="5.82033">
        <ele>567.32</ele>
        <time>2012-09-16T13:01:53Z</time>
      </trkpt>
      <trkpt lat="46.89642" lon="5.82031">
        <ele>566.83</ele>
        <time>2012-09-16T13:02:02Z</time>
      </trkpt>
      <trkpt lat="46.89654" lon="5.8203">
        <ele>566.83</ele>
        <time>2012-09-16T13:02:14Z</time>
      </trkpt>
      <trkpt lat="46.89668" lon="5.82023">
        <ele>565.87</ele>
        <time>2012-09-16T13:02:28Z</time>
      </trkpt>
      <trkpt lat="46.89669" lon="5.82017">
        <ele>566.35</ele>
        <time>2012-09-16T13:02:43Z</time>
      </trkpt>
      <trkpt lat="46.89672" lon="5.82003">
        <ele>566.83</ele>
        <time>2012-09-16T13:02:55Z</time>
      </trkpt>
      <trkpt lat="46.89673" lon="5.81996">
        <ele>566.83</ele>
        <time>2012-09-16T13:02:59Z</time>
      </trkpt>
      <trkpt lat="46.89675" lon="5.81977">
        <ele>567.32</ele>
        <time>2012-09-16T13:03:12Z</time>
      </trkpt>
      <trkpt lat="46.89676" lon="5.81964">
        <ele>567.32</ele>
        <time>2012-09-16T13:03:23Z</time>
      </trkpt>
      <trkpt lat="46.89676" lon="5.81958">
        <ele>567.8</ele>
        <time>2012-09-16T13:03:26Z</time>
      </trkpt>
      <trkpt lat="46.89675" lon="5.81933">
        <ele>567.8</ele>
        <time>2012-09-16T13:03:37Z</time>
      </trkpt>
      <trkpt lat="46.89675" lon="5.81907">
        <ele>568.28</ele>
        <time>2012-09-16T13:03:54Z</time>
      </trkpt>
      <trkpt lat="46.89675" lon="5.81889">
        <ele>568.76</ele>
        <time>2012-09-16T13:04:05Z</time>
      </trkpt>
      <trkpt lat="46.89675" lon="5.81877">
        <ele>569.24</ele>
        <time>2012-09-16T13:04:13Z</time>
      </trkpt>
      <trkpt lat="46.89675" lon="5.81868">
        <ele>569.72</ele>
        <time>2012-09-16T13:04:18Z</time>
      </trkpt>
      <trkpt lat="46.89677" lon="5.81844">
        <ele>569.72</ele>
        <time>2012-09-16T13:04:32Z</time>
      </trkpt>
      <trkpt lat="46.89678" lon="5.81826">
        <ele>570.2</ele>
        <time>2012-09-16T13:04:42Z</time>
      </trkpt>
      <trkpt lat="46.8968" lon="5.81809">
        <ele>570.68</ele>
        <time>2012-09-16T13:04:55Z</time>
      </trkpt>
      <trkpt lat="46.89682" lon="5.81799">
        <ele>570.2</ele>
        <time>2012-09-16T13:05:00Z</time>
      </trkpt>
      <trkpt lat="46.89681" lon="5.81777">
        <ele>570.2</ele>
        <time>2012-09-16T13:05:14Z</time>
      </trkpt>
      <trkpt lat="46.89681" lon="5.81772">
        <ele>570.2</ele>
        <time>2012-09-16T13:05:17Z</time>
      </trkpt>
      <trkpt lat="46.8968" lon="5.81765">
        <ele>570.2</ele>
        <time>2012-09-16T13:05:21Z</time>
      </trkpt>
      <trkpt lat="46.89678" lon="5.81746">
        <ele>569.24</ele>
        <time>2012-09-16T13:05:34Z</time>
      </trkpt>
      <trkpt lat="46.89673" lon="5.81728">
        <ele>568.76</ele>
        <time>2012-09-16T13:05:46Z</time>
      </trkpt>
      <trkpt lat="46.89669" lon="5.81711">
        <ele>567.8</ele>
        <time>2012-09-16T13:05:57Z</time>
      </trkpt>
      <trkpt lat="46.89667" lon="5.81689">
        <ele>566.35</ele>
        <time>2012-09-16T13:06:11Z</time>
      </trkpt>
      <trkpt lat="46.89667" lon="5.81673">
        <ele>565.39</ele>
        <time>2012-09-16T13:06:23Z</time>
      </trkpt>
      <trkpt lat="46.89668" lon="5.81653">
        <ele>563.95</ele>
        <time>2012-09-16T13:06:37Z</time>
      </trkpt>
      <trkpt lat="46.89669" lon="5.81637">
        <ele>562.99</ele>
        <time>2012-09-16T13:06:49Z</time>
      </trkpt>
      <trkpt lat="46.89669" lon="5.81621">
        <ele>562.03</ele>
        <time>2012-09-16T13:06:59Z</time>
      </trkpt>
      <trkpt lat="46.8967" lon="5.81597">
        <ele>560.59</ele>
        <time>2012-09-16T13:07:12Z</time>
      </trkpt>
      <trkpt lat="46.89676" lon="5.81586">
        <ele>559.62</ele>
        <time>2012-09-16T13:07:22Z</time>
      </trkpt>
      <trkpt lat="46.89677" lon="5.81581">
        <ele>559.62</ele>
        <time>2012-09-16T13:07:26Z</time>
      </trkpt>
      <trkpt lat="46.89681" lon="5.81572">
        <ele>559.62</ele>
        <time>2012-09-16T13:07:33Z</time>
      </trkpt>
      <trkpt lat="46.89687" lon="5.81564">
        <ele>558.66</ele>
        <time>2012-09-16T13:07:40Z</time>
      </trkpt>
      <trkpt lat="46.89691" lon="5.81557">
        <ele>557.7</ele>
        <time>2012-09-16T13:07:45Z</time>
      </trkpt>
      <trkpt lat="46.89692" lon="5.81553">
        <ele>557.7</ele>
        <time>2012-09-16T13:07:48Z</time>
      </trkpt>
      <trkpt lat="46.89693" lon="5.8153">
        <ele>555.78</ele>
        <time>2012-09-16T13:08:00Z</time>
      </trkpt>
      <trkpt lat="46.89693" lon="5.81526">
        <ele>555.78</ele>
        <time>2012-09-16T13:08:03Z</time>
      </trkpt>
      <trkpt lat="46.89694" lon="5.81509">
        <ele>553.86</ele>
        <time>2012-09-16T13:08:15Z</time>
      </trkpt>
      <trkpt lat="46.89698" lon="5.81496">
        <ele>552.41</ele>
        <time>2012-09-16T13:08:25Z</time>
      </trkpt>
      <trkpt lat="46.89707" lon="5.81482">
        <ele>550.01</ele>
        <time>2012-09-16T13:08:39Z</time>
      </trkpt>
      <trkpt lat="46.89708" lon="5.81481">
        <ele>550.01</ele>
        <time>2012-09-16T13:08:40Z</time>
      </trkpt>
      <trkpt lat="46.89714" lon="5.81473">
        <ele>549.05</ele>
        <time>2012-09-16T13:08:50Z</time>
      </trkpt>
      <trkpt lat="46.89722" lon="5.8147">
        <ele>547.61</ele>
        <time>2012-09-16T13:08:58Z</time>
      </trkpt>
      <trkpt lat="46.89725" lon="5.81469">
        <ele>547.13</ele>
        <time>2012-09-16T13:09:01Z</time>
      </trkpt>
      <trkpt lat="46.89729" lon="5.81468">
        <ele>546.65</ele>
        <time>2012-09-16T13:09:05Z</time>
      </trkpt>
      <trkpt lat="46.89734" lon="5.81464">
        <ele>545.69</ele>
        <time>2012-09-16T13:09:11Z</time>
      </trkpt>
      <trkpt lat="46.89739" lon="5.8146">
        <ele>545.2</ele>
        <time>2012-09-16T13:09:22Z</time>
      </trkpt>
      <trkpt lat="46.89739" lon="5.81458">
        <ele>543.76</ele>
        <time>2012-09-16T13:09:24Z</time>
      </trkpt>
      <trkpt lat="46.89736" lon="5.8144">
        <ele>543.28</ele>
        <time>2012-09-16T13:09:37Z</time>
      </trkpt>
      <trkpt lat="46.89734" lon="5.81425">
        <ele>541.84</ele>
        <time>2012-09-16T13:09:47Z</time>
      </trkpt>
      <trkpt lat="46.89734" lon="5.81421">
        <ele>541.84</ele>
        <time>2012-09-16T13:09:50Z</time>
      </trkpt>
      <trkpt lat="46.89734" lon="5.81404">
        <ele>541.36</ele>
        <time>2012-09-16T13:10:01Z</time>
      </trkpt>
      <trkpt lat="46.89733" lon="5.81392">
        <ele>540.4</ele>
        <time>2012-09-16T13:10:06Z</time>
      </trkpt>
      <trkpt lat="46.89733" lon="5.81379">
        <ele>539.44</ele>
        <time>2012-09-16T13:10:13Z</time>
      </trkpt>
      <trkpt lat="46.89736" lon="5.81359">
        <ele>538.48</ele>
        <time>2012-09-16T13:10:25Z</time>
      </trkpt>
      <trkpt lat="46.89737" lon="5.81346">
        <ele>537.51</ele>
        <time>2012-09-16T13:10:35Z</time>
      </trkpt>
      <trkpt lat="46.89741" lon="5.8134">
        <ele>537.03</ele>
        <time>2012-09-16T13:10:39Z</time>
      </trkpt>
      <trkpt lat="46.8974" lon="5.81331">
        <ele>536.07</ele>
        <time>2012-09-16T13:10:46Z</time>
      </trkpt>
      <trkpt lat="46.89745" lon="5.8132">
        <ele>535.11</ele>
        <time>2012-09-16T13:10:53Z</time>
      </trkpt>
      <trkpt lat="46.89747" lon="5.81312">
        <ele>534.63</ele>
        <time>2012-09-16T13:10:58Z</time>
      </trkpt>
      <trkpt lat="46.89751" lon="5.81298">
        <ele>533.67</ele>
        <time>2012-09-16T13:11:06Z</time>
      </trkpt>
      <trkpt lat="46.89751" lon="5.81293">
        <ele>533.67</ele>
        <time>2012-09-16T13:11:09Z</time>
      </trkpt>
      <trkpt lat="46.89749" lon="5.81284">
        <ele>533.19</ele>
        <time>2012-09-16T13:11:14Z</time>
      </trkpt>
      <trkpt lat="46.89749" lon="5.81279">
        <ele>532.23</ele>
        <time>2012-09-16T13:11:18Z</time>
      </trkpt>
      <trkpt lat="46.8975" lon="5.81262">
        <ele>531.75</ele>
        <time>2012-09-16T13:11:29Z</time>
      </trkpt>
      <trkpt lat="46.8975" lon="5.81241">
        <ele>529.82</ele>
        <time>2012-09-16T13:11:42Z</time>
      </trkpt>
      <trkpt lat="46.89752" lon="5.81214">
        <ele>528.86</ele>
        <time>2012-09-16T13:11:57Z</time>
      </trkpt>
      <trkpt lat="46.89754" lon="5.8119">
        <ele>526.46</ele>
        <time>2012-09-16T13:12:11Z</time>
      </trkpt>
      <trkpt lat="46.89756" lon="5.8117">
        <ele>525.5</ele>
        <time>2012-09-16T13:12:23Z</time>
      </trkpt>
      <trkpt lat="46.89758" lon="5.81158">
        <ele>525.02</ele>
        <time>2012-09-16T13:12:30Z</time>
      </trkpt>
      <trkpt lat="46.89761" lon="5.81137">
        <ele>523.58</ele>
        <time>2012-09-16T13:12:43Z</time>
      </trkpt>
      <trkpt lat="46.89767" lon="5.81113">
        <ele>522.13</ele>
        <time>2012-09-16T13:12:58Z</time>
      </trkpt>
      <trkpt lat="46.89769" lon="5.81105">
        <ele>520.69</ele>
        <time>2012-09-16T13:13:03Z</time>
      </trkpt>
      <trkpt lat="46.89773" lon="5.81097">
        <ele>520.21</ele>
        <time>2012-09-16T13:13:09Z</time>
      </trkpt>
      <trkpt lat="46.89777" lon="5.81088">
        <ele>519.73</ele>
        <time>2012-09-16T13:13:16Z</time>
      </trkpt>
      <trkpt lat="46.89787" lon="5.8108">
        <ele>517.33</ele>
        <time>2012-09-16T13:13:29Z</time>
      </trkpt>
      <trkpt lat="46.89794" lon="5.81073">
        <ele>515.88</ele>
        <time>2012-09-16T13:13:38Z</time>
      </trkpt>
      <trkpt lat="46.89803" lon="5.81065">
        <ele>513.48</ele>
        <time>2012-09-16T13:13:50Z</time>
      </trkpt>
      <trkpt lat="46.89812" lon="5.81058">
        <ele>512.04</ele>
        <time>2012-09-16T13:14:00Z</time>
      </trkpt>
      <trkpt lat="46.89813" lon="5.81058">
        <ele>512.04</ele>
        <time>2012-09-16T13:14:01Z</time>
      </trkpt>
      <trkpt lat="46.89822" lon="5.81051">
        <ele>509.64</ele>
        <time>2012-09-16T13:14:12Z</time>
      </trkpt>
      <trkpt lat="46.89831" lon="5.81044">
        <ele>507.71</ele>
        <time>2012-09-16T13:14:24Z</time>
      </trkpt>
      <trkpt lat="46.89838" lon="5.81044">
        <ele>505.79</ele>
        <time>2012-09-16T13:14:35Z</time>
      </trkpt>
      <trkpt lat="46.8984" lon="5.81043">
        <ele>505.31</ele>
        <time>2012-09-16T13:14:37Z</time>
      </trkpt>
      <trkpt lat="46.89846" lon="5.81042">
        <ele>504.35</ele>
        <time>2012-09-16T13:14:42Z</time>
      </trkpt>
      <trkpt lat="46.89855" lon="5.81036">
        <ele>502.91</ele>
        <time>2012-09-16T13:14:50Z</time>
      </trkpt>
      <trkpt lat="46.89863" lon="5.81037">
        <ele>502.43</ele>
        <time>2012-09-16T13:14:57Z</time>
      </trkpt>
      <trkpt lat="46.89869" lon="5.81037">
        <ele>501.46</ele>
        <time>2012-09-16T13:15:02Z</time>
      </trkpt>
      <trkpt lat="46.8988" lon="5.81039">
        <ele>500.5</ele>
        <time>2012-09-16T13:15:10Z</time>
      </trkpt>
      <trkpt lat="46.89884" lon="5.81039">
        <ele>499.54</ele>
        <time>2012-09-16T13:15:13Z</time>
      </trkpt>
      <trkpt lat="46.89893" lon="5.81033">
        <ele>497.62</ele>
        <time>2012-09-16T13:15:25Z</time>
      </trkpt>
      <trkpt lat="46.89901" lon="5.81033">
        <ele>496.18</ele>
        <time>2012-09-16T13:15:33Z</time>
      </trkpt>
      <trkpt lat="46.89911" lon="5.81024">
        <ele>493.29</ele>
        <time>2012-09-16T13:15:47Z</time>
      </trkpt>
      <trkpt lat="46.89916" lon="5.81017">
        <ele>491.85</ele>
        <time>2012-09-16T13:15:55Z</time>
      </trkpt>
      <trkpt lat="46.89922" lon="5.81009">
        <ele>490.89</ele>
        <time>2012-09-16T13:16:02Z</time>
      </trkpt>
      <trkpt lat="46.89933" lon="5.81003">
        <ele>489.45</ele>
        <time>2012-09-16T13:16:15Z</time>
      </trkpt>
      <trkpt lat="46.89939" lon="5.81001">
        <ele>488.49</ele>
        <time>2012-09-16T13:16:20Z</time>
      </trkpt>
      <trkpt lat="46.8995" lon="5.80997">
        <ele>486.56</ele>
        <time>2012-09-16T13:16:31Z</time>
      </trkpt>
      <trkpt lat="46.89951" lon="5.80995">
        <ele>485.6</ele>
        <time>2012-09-16T13:16:35Z</time>
      </trkpt>
      <trkpt lat="46.89955" lon="5.80989">
        <ele>484.64</ele>
        <time>2012-09-16T13:16:42Z</time>
      </trkpt>
      <trkpt lat="46.89958" lon="5.80986">
        <ele>483.68</ele>
        <time>2012-09-16T13:16:46Z</time>
      </trkpt>
      <trkpt lat="46.89963" lon="5.80972">
        <ele>482.24</ele>
        <time>2012-09-16T13:17:00Z</time>
      </trkpt>
      <trkpt lat="46.89966" lon="5.8096">
        <ele>481.28</ele>
        <time>2012-09-16T13:17:08Z</time>
      </trkpt>
      <trkpt lat="46.89967" lon="5.80957">
        <ele>480.8</ele>
        <time>2012-09-16T13:17:10Z</time>
      </trkpt>
      <trkpt lat="46.89973" lon="5.80931">
        <ele>478.87</ele>
        <time>2012-09-16T13:17:25Z</time>
      </trkpt>
      <trkpt lat="46.89978" lon="5.80926">
        <ele>477.91</ele>
        <time>2012-09-16T13:17:32Z</time>
      </trkpt>
      <trkpt lat="46.89987" lon="5.80921">
        <ele>476.95</ele>
        <time>2012-09-16T13:17:39Z</time>
      </trkpt>
      <trkpt lat="46.89997" lon="5.8091">
        <ele>473.59</ele>
        <time>2012-09-16T13:17:51Z</time>
      </trkpt>
      <trkpt lat="46.90008" lon="5.80898">
        <ele>473.11</ele>
        <time>2012-09-16T13:18:06Z</time>
      </trkpt>
      <trkpt lat="46.90016" lon="5.80893">
        <ele>471.66</ele>
        <time>2012-09-16T13:18:16Z</time>
      </trkpt>
      <trkpt lat="46.90021" lon="5.80887">
        <ele>470.7</ele>
        <time>2012-09-16T13:18:27Z</time>
      </trkpt>
      <trkpt lat="46.90022" lon="5.80888">
        <ele>470.7</ele>
        <time>2012-09-16T13:18:47Z</time>
      </trkpt>
      <trkpt lat="46.90022" lon="5.80886">
        <ele>471.18</ele>
        <time>2012-09-16T13:19:01Z</time>
      </trkpt>
      <trkpt lat="46.90021" lon="5.80878">
        <ele>470.7</ele>
        <time>2012-09-16T13:19:06Z</time>
      </trkpt>
      <trkpt lat="46.90007" lon="5.80867">
        <ele>470.22</ele>
        <time>2012-09-16T13:19:19Z</time>
      </trkpt>
      <trkpt lat="46.9" lon="5.80857">
        <ele>468.3</ele>
        <time>2012-09-16T13:19:31Z</time>
      </trkpt>
      <trkpt lat="46.9" lon="5.80852">
        <ele>467.82</ele>
        <time>2012-09-16T13:19:46Z</time>
      </trkpt>
      <trkpt lat="46.9" lon="5.80848">
        <ele>466.86</ele>
        <time>2012-09-16T13:19:59Z</time>
      </trkpt>
      <trkpt lat="46.89999" lon="5.80842">
        <ele>465.9</ele>
        <time>2012-09-16T13:20:03Z</time>
      </trkpt>
      <trkpt lat="46.89999" lon="5.8083">
        <ele>463.97</ele>
        <time>2012-09-16T13:20:15Z</time>
      </trkpt>
      <trkpt lat="46.89998" lon="5.80826">
        <ele>463.49</ele>
        <time>2012-09-16T13:20:18Z</time>
      </trkpt>
      <trkpt lat="46.89992" lon="5.80813">
        <ele>460.61</ele>
        <time>2012-09-16T13:20:31Z</time>
      </trkpt>
      <trkpt lat="46.89985" lon="5.80802">
        <ele>458.69</ele>
        <time>2012-09-16T13:20:44Z</time>
      </trkpt>
      <trkpt lat="46.89985" lon="5.80802">
        <ele>458.69</ele>
        <time>2012-09-16T13:20:46Z</time>
      </trkpt>
      <trkpt lat="46.89979" lon="5.8079">
        <ele>456.28</ele>
        <time>2012-09-16T13:20:58Z</time>
      </trkpt>
      <trkpt lat="46.89977" lon="5.8078">
        <ele>455.32</ele>
        <time>2012-09-16T13:21:04Z</time>
      </trkpt>
      <trkpt lat="46.89982" lon="5.80767">
        <ele>452.92</ele>
        <time>2012-09-16T13:21:15Z</time>
      </trkpt>
      <trkpt lat="46.89986" lon="5.80766">
        <ele>451.48</ele>
        <time>2012-09-16T13:21:20Z</time>
      </trkpt>
      <trkpt lat="46.89992" lon="5.80761">
        <ele>450.52</ele>
        <time>2012-09-16T13:21:28Z</time>
      </trkpt>
      <trkpt lat="46.90005" lon="5.80759">
        <ele>448.59</ele>
        <time>2012-09-16T13:21:40Z</time>
      </trkpt>
      <trkpt lat="46.90013" lon="5.80757">
        <ele>446.67</ele>
        <time>2012-09-16T13:21:49Z</time>
      </trkpt>
      <trkpt lat="46.90018" lon="5.80755">
        <ele>445.23</ele>
        <time>2012-09-16T13:21:57Z</time>
      </trkpt>
      <trkpt lat="46.90027" lon="5.80751">
        <ele>443.79</ele>
        <time>2012-09-16T13:22:06Z</time>
      </trkpt>
      <trkpt lat="46.90031" lon="5.80746">
        <ele>442.34</ele>
        <time>2012-09-16T13:22:14Z</time>
      </trkpt>
      <trkpt lat="46.90045" lon="5.80742">
        <ele>440.42</ele>
        <time>2012-09-16T13:22:26Z</time>
      </trkpt>
      <trkpt lat="46.90046" lon="5.80742">
        <ele>439.94</ele>
        <time>2012-09-16T13:22:27Z</time>
      </trkpt>
      <trkpt lat="46.90051" lon="5.80742">
        <ele>439.94</ele>
        <time>2012-09-16T13:22:31Z</time>
      </trkpt>
      <trkpt lat="46.90057" lon="5.8074">
        <ele>438.5</ele>
        <time>2012-09-16T13:22:38Z</time>
      </trkpt>
      <trkpt lat="46.90062" lon="5.80739">
        <ele>438.02</ele>
        <time>2012-09-16T13:22:42Z</time>
      </trkpt>
      <trkpt lat="46.90066" lon="5.80738">
        <ele>437.06</ele>
        <time>2012-09-16T13:22:46Z</time>
      </trkpt>
      <trkpt lat="46.90077" lon="5.80737">
        <ele>435.13</ele>
        <time>2012-09-16T13:22:57Z</time>
      </trkpt>
      <trkpt lat="46.90079" lon="5.80736">
        <ele>434.65</ele>
        <time>2012-09-16T13:22:59Z</time>
      </trkpt>
      <trkpt lat="46.90081" lon="5.80736">
        <ele>434.65</ele>
        <time>2012-09-16T13:23:02Z</time>
      </trkpt>
      <trkpt lat="46.90083" lon="5.80736">
        <ele>433.21</ele>
        <time>2012-09-16T13:23:05Z</time>
      </trkpt>
      <trkpt lat="46.9009" lon="5.80735">
        <ele>431.77</ele>
        <time>2012-09-16T13:23:13Z</time>
      </trkpt>
      <trkpt lat="46.90099" lon="5.80732">
        <ele>429.85</ele>
        <time>2012-09-16T13:23:24Z</time>
      </trkpt>
      <trkpt lat="46.90099" lon="5.80732">
        <ele>428.89</ele>
        <time>2012-09-16T13:23:25Z</time>
      </trkpt>
      <trkpt lat="46.90102" lon="5.80728">
        <ele>427.44</ele>
        <time>2012-09-16T13:23:35Z</time>
      </trkpt>
      <trkpt lat="46.90103" lon="5.80728">
        <ele>426.96</ele>
        <time>2012-09-16T13:23:39Z</time>
      </trkpt>
      <trkpt lat="46.90104" lon="5.80725">
        <ele>426.96</ele>
        <time>2012-09-16T13:23:42Z</time>
      </trkpt>
      <trkpt lat="46.90111" lon="5.80723">
        <ele>425.52</ele>
        <time>2012-09-16T13:23:50Z</time>
      </trkpt>
      <trkpt lat="46.90115" lon="5.8072">
        <ele>424.56</ele>
        <time>2012-09-16T13:23:55Z</time>
      </trkpt>
      <trkpt lat="46.90117" lon="5.80718">
        <ele>424.08</ele>
        <time>2012-09-16T13:23:58Z</time>
      </trkpt>
      <trkpt lat="46.9012" lon="5.80718">
        <ele>423.12</ele>
        <time>2012-09-16T13:24:00Z</time>
      </trkpt>
      <trkpt lat="46.90122" lon="5.80717">
        <ele>423.12</ele>
        <time>2012-09-16T13:24:02Z</time>
      </trkpt>
      <trkpt lat="46.9013" lon="5.80713">
        <ele>421.19</ele>
        <time>2012-09-16T13:24:12Z</time>
      </trkpt>
      <trkpt lat="46.90139" lon="5.80714">
        <ele>419.27</ele>
        <time>2012-09-16T13:24:21Z</time>
      </trkpt>
      <trkpt lat="46.90147" lon="5.8072">
        <ele>417.35</ele>
        <time>2012-09-16T13:24:33Z</time>
      </trkpt>
      <trkpt lat="46.90156" lon="5.80735">
        <ele>414.95</ele>
        <time>2012-09-16T13:24:46Z</time>
      </trkpt>
      <trkpt lat="46.90159" lon="5.80737">
        <ele>414.47</ele>
        <time>2012-09-16T13:24:49Z</time>
      </trkpt>
      <trkpt lat="46.90163" lon="5.80746">
        <ele>412.06</ele>
        <time>2012-09-16T13:24:58Z</time>
      </trkpt>
      <trkpt lat="46.90169" lon="5.80759">
        <ele>412.06</ele>
        <time>2012-09-16T13:25:10Z</time>
      </trkpt>
      <trkpt lat="46.90168" lon="5.80761">
        <ele>412.54</ele>
        <time>2012-09-16T13:25:27Z</time>
      </trkpt>
      <trkpt lat="46.90169" lon="5.80762">
        <ele>412.54</ele>
        <time>2012-09-16T13:25:40Z</time>
      </trkpt>
      <trkpt lat="46.9017" lon="5.80763">
        <ele>411.1</ele>
        <time>2012-09-16T13:25:54Z</time>
      </trkpt>
      <trkpt lat="46.9017" lon="5.80763">
        <ele>411.1</ele>
        <time>2012-09-16T13:26:19Z</time>
      </trkpt>
      <trkpt lat="46.90171" lon="5.80763">
        <ele>411.1</ele>
        <time>2012-09-16T13:26:41Z</time>
      </trkpt>
      <trkpt lat="46.90171" lon="5.80763">
        <ele>411.1</ele>
        <time>2012-09-16T13:27:06Z</time>
      </trkpt>
      <trkpt lat="46.90172" lon="5.80763">
        <ele>411.58</ele>
        <time>2012-09-16T13:27:31Z</time>
      </trkpt>
      <trkpt lat="46.90172" lon="5.80763">
        <ele>411.58</ele>
        <time>2012-09-16T13:27:58Z</time>
      </trkpt>
      <trkpt lat="46.90171" lon="5.80763">
        <ele>411.1</ele>
        <time>2012-09-16T13:28:28Z</time>
      </trkpt>
      <trkpt lat="46.90171" lon="5.80763">
        <ele>411.58</ele>
        <time>2012-09-16T13:28:59Z</time>
      </trkpt>
      <trkpt lat="46.90171" lon="5.80763">
        <ele>411.58</ele>
        <time>2012-09-16T13:29:33Z</time>
      </trkpt>
      <trkpt lat="46.90171" lon="5.80763">
        <ele>411.1</ele>
        <time>2012-09-16T13:30:04Z</time>
      </trkpt>
      <trkpt lat="46.90171" lon="5.80763">
        <ele>411.58</ele>
        <time>2012-09-16T13:30:39Z</time>
      </trkpt>
      <trkpt lat="46.90171" lon="5.80763">
        <ele>411.1</ele>
        <time>2012-09-16T13:31:06Z</time>
      </trkpt>
      <trkpt lat="46.90172" lon="5.80763">
        <ele>411.58</ele>
        <time>2012-09-16T13:31:36Z</time>
      </trkpt>
      <trkpt lat="46.90174" lon="5.80765">
        <ele>412.06</ele>
        <time>2012-09-16T13:31:52Z</time>
      </trkpt>
      <trkpt lat="46.9017" lon="5.80767">
        <ele>413.02</ele>
        <time>2012-09-16T13:32:07Z</time>
      </trkpt>
      <trkpt lat="46.90168" lon="5.80784">
        <ele>414.47</ele>
        <time>2012-09-16T13:32:19Z</time>
      </trkpt>
      <trkpt lat="46.90168" lon="5.80787">
        <ele>414.95</ele>
        <time>2012-09-16T13:32:23Z</time>
      </trkpt>
      <trkpt lat="46.90166" lon="5.80805">
        <ele>416.87</ele>
        <time>2012-09-16T13:32:35Z</time>
      </trkpt>
      <trkpt lat="46.90165" lon="5.80819">
        <ele>418.31</ele>
        <time>2012-09-16T13:32:44Z</time>
      </trkpt>
      <trkpt lat="46.90168" lon="5.80827">
        <ele>418.79</ele>
        <time>2012-09-16T13:32:50Z</time>
      </trkpt>
      <trkpt lat="46.90172" lon="5.80839">
        <ele>420.23</ele>
        <time>2012-09-16T13:33:01Z</time>
      </trkpt>
      <trkpt lat="46.90174" lon="5.80853">
        <ele>420.71</ele>
        <time>2012-09-16T13:33:12Z</time>
      </trkpt>
      <trkpt lat="46.90176" lon="5.80868">
        <ele>422.64</ele>
        <time>2012-09-16T13:33:24Z</time>
      </trkpt>
      <trkpt lat="46.90179" lon="5.80883">
        <ele>424.08</ele>
        <time>2012-09-16T13:33:35Z</time>
      </trkpt>
      <trkpt lat="46.90182" lon="5.809">
        <ele>425.52</ele>
        <time>2012-09-16T13:33:47Z</time>
      </trkpt>
      <trkpt lat="46.90183" lon="5.80907">
        <ele>426</ele>
        <time>2012-09-16T13:33:53Z</time>
      </trkpt>
      <trkpt lat="46.90188" lon="5.8092">
        <ele>427.44</ele>
        <time>2012-09-16T13:34:03Z</time>
      </trkpt>
      <trkpt lat="46.90193" lon="5.80932">
        <ele>427.92</ele>
        <time>2012-09-16T13:34:13Z</time>
      </trkpt>
      <trkpt lat="46.90194" lon="5.80946">
        <ele>429.37</ele>
        <time>2012-09-16T13:34:24Z</time>
      </trkpt>
      <trkpt lat="46.90193" lon="5.80961">
        <ele>429.85</ele>
        <time>2012-09-16T13:34:34Z</time>
      </trkpt>
      <trkpt lat="46.90195" lon="5.80967">
        <ele>430.81</ele>
        <time>2012-09-16T13:34:37Z</time>
      </trkpt>
      <trkpt lat="46.90194" lon="5.80986">
        <ele>430.33</ele>
        <time>2012-09-16T13:34:49Z</time>
      </trkpt>
      <trkpt lat="46.90196" lon="5.81007">
        <ele>432.25</ele>
        <time>2012-09-16T13:35:03Z</time>
      </trkpt>
      <trkpt lat="46.90203" lon="5.8102">
        <ele>432.73</ele>
        <time>2012-09-16T13:35:13Z</time>
      </trkpt>
      <trkpt lat="46.90207" lon="5.81024">
        <ele>433.21</ele>
        <time>2012-09-16T13:35:17Z</time>
      </trkpt>
      <trkpt lat="46.90216" lon="5.81033">
        <ele>434.65</ele>
        <time>2012-09-16T13:35:28Z</time>
      </trkpt>
      <trkpt lat="46.90225" lon="5.81043">
        <ele>436.58</ele>
        <time>2012-09-16T13:35:41Z</time>
      </trkpt>
      <trkpt lat="46.90227" lon="5.81046">
        <ele>436.58</ele>
        <time>2012-09-16T13:35:44Z</time>
      </trkpt>
      <trkpt lat="46.90232" lon="5.81053">
        <ele>437.54</ele>
        <time>2012-09-16T13:35:51Z</time>
      </trkpt>
      <trkpt lat="46.90236" lon="5.81057">
        <ele>437.54</ele>
        <time>2012-09-16T13:35:54Z</time>
      </trkpt>
      <trkpt lat="46.90239" lon="5.81059">
        <ele>438.02</ele>
        <time>2012-09-16T13:35:57Z</time>
      </trkpt>
      <trkpt lat="46.90247" lon="5.81068">
        <ele>439.94</ele>
        <time>2012-09-16T13:36:09Z</time>
      </trkpt>
      <trkpt lat="46.9025" lon="5.81069">
        <ele>439.94</ele>
        <time>2012-09-16T13:36:13Z</time>
      </trkpt>
      <trkpt lat="46.90264" lon="5.81075">
        <ele>441.38</ele>
        <time>2012-09-16T13:36:26Z</time>
      </trkpt>
      <trkpt lat="46.90265" lon="5.81076">
        <ele>441.86</ele>
        <time>2012-09-16T13:36:27Z</time>
      </trkpt>
      <trkpt lat="46.90273" lon="5.81082">
        <ele>443.31</ele>
        <time>2012-09-16T13:36:41Z</time>
      </trkpt>
      <trkpt lat="46.90281" lon="5.81087">
        <ele>444.27</ele>
        <time>2012-09-16T13:36:51Z</time>
      </trkpt>
      <trkpt lat="46.9029" lon="5.81097">
        <ele>445.23</ele>
        <time>2012-09-16T13:37:01Z</time>
      </trkpt>
      <trkpt lat="46.90299" lon="5.81102">
        <ele>446.67</ele>
        <time>2012-09-16T13:37:13Z</time>
      </trkpt>
      <trkpt lat="46.90311" lon="5.81107">
        <ele>448.11</ele>
        <time>2012-09-16T13:37:25Z</time>
      </trkpt>
      <trkpt lat="46.90317" lon="5.81109">
        <ele>448.59</ele>
        <time>2012-09-16T13:37:32Z</time>
      </trkpt>
      <trkpt lat="46.90328" lon="5.81111">
        <ele>450.03</ele>
        <time>2012-09-16T13:37:45Z</time>
      </trkpt>
      <trkpt lat="46.90333" lon="5.81112">
        <ele>451</ele>
        <time>2012-09-16T13:37:51Z</time>
      </trkpt>
      <trkpt lat="46.90335" lon="5.81113">
        <ele>451</ele>
        <time>2012-09-16T13:37:53Z</time>
      </trkpt>
      <trkpt lat="46.9035" lon="5.81115">
        <ele>452.44</ele>
        <time>2012-09-16T13:38:09Z</time>
      </trkpt>
      <trkpt lat="46.90351" lon="5.81115">
        <ele>452.92</ele>
        <time>2012-09-16T13:38:12Z</time>
      </trkpt>
      <trkpt lat="46.90361" lon="5.81116">
        <ele>454.36</ele>
        <time>2012-09-16T13:38:24Z</time>
      </trkpt>
      <trkpt lat="46.9037" lon="5.81118">
        <ele>455.8</ele>
        <time>2012-09-16T13:38:33Z</time>
      </trkpt>
      <trkpt lat="46.9038" lon="5.81116">
        <ele>456.28</ele>
        <time>2012-09-16T13:38:45Z</time>
      </trkpt>
      <trkpt lat="46.90388" lon="5.81116">
        <ele>457.72</ele>
        <time>2012-09-16T13:38:54Z</time>
      </trkpt>
      <trkpt lat="46.90397" lon="5.81115">
        <ele>458.69</ele>
        <time>2012-09-16T13:39:02Z</time>
      </trkpt>
      <trkpt lat="46.9041" lon="5.81116">
        <ele>459.65</ele>
        <time>2012-09-16T13:39:16Z</time>
      </trkpt>
      <trkpt lat="46.90421" lon="5.81117">
        <ele>461.09</ele>
        <time>2012-09-16T13:39:29Z</time>
      </trkpt>
      <trkpt lat="46.90431" lon="5.8112">
        <ele>463.01</ele>
        <time>2012-09-16T13:39:41Z</time>
      </trkpt>
      <trkpt lat="46.90434" lon="5.81122">
        <ele>463.01</ele>
        <time>2012-09-16T13:39:44Z</time>
      </trkpt>
      <trkpt lat="46.90438" lon="5.81121">
        <ele>463.97</ele>
        <time>2012-09-16T13:39:49Z</time>
      </trkpt>
      <trkpt lat="46.90447" lon="5.81121">
        <ele>464.93</ele>
        <time>2012-09-16T13:40:01Z</time>
      </trkpt>
      <trkpt lat="46.90455" lon="5.81121">
        <ele>465.9</ele>
        <time>2012-09-16T13:40:08Z</time>
      </trkpt>
      <trkpt lat="46.90463" lon="5.81121">
        <ele>467.34</ele>
        <time>2012-09-16T13:40:20Z</time>
      </trkpt>
      <trkpt lat="46.90473" lon="5.81122">
        <ele>468.78</ele>
        <time>2012-09-16T13:40:29Z</time>
      </trkpt>
      <trkpt lat="46.90476" lon="5.81124">
        <ele>469.26</ele>
        <time>2012-09-16T13:40:36Z</time>
      </trkpt>
      <trkpt lat="46.90484" lon="5.81126">
        <ele>470.22</ele>
        <time>2012-09-16T13:40:42Z</time>
      </trkpt>
      <trkpt lat="46.90488" lon="5.81127">
        <ele>470.7</ele>
        <time>2012-09-16T13:40:46Z</time>
      </trkpt>
      <trkpt lat="46.90494" lon="5.81129">
        <ele>471.66</ele>
        <time>2012-09-16T13:40:55Z</time>
      </trkpt>
      <trkpt lat="46.90505" lon="5.8113">
        <ele>471.66</ele>
        <time>2012-09-16T13:41:05Z</time>
      </trkpt>
      <trkpt lat="46.9051" lon="5.81131">
        <ele>471.66</ele>
        <time>2012-09-16T13:41:09Z</time>
      </trkpt>
      <trkpt lat="46.90524" lon="5.81132">
        <ele>471.66</ele>
        <time>2012-09-16T13:41:22Z</time>
      </trkpt>
      <trkpt lat="46.90537" lon="5.81131">
        <ele>472.14</ele>
        <time>2012-09-16T13:41:34Z</time>
      </trkpt>
      <trkpt lat="46.90548" lon="5.81133">
        <ele>472.14</ele>
        <time>2012-09-16T13:41:45Z</time>
      </trkpt>
      <trkpt lat="46.90554" lon="5.81135">
        <ele>472.14</ele>
        <time>2012-09-16T13:41:54Z</time>
      </trkpt>
      <trkpt lat="46.90563" lon="5.81136">
        <ele>471.66</ele>
        <time>2012-09-16T13:42:02Z</time>
      </trkpt>
      <trkpt lat="46.90568" lon="5.81135">
        <ele>471.66</ele>
        <time>2012-09-16T13:42:07Z</time>
      </trkpt>
      <trkpt lat="46.90572" lon="5.81137">
        <ele>471.18</ele>
        <time>2012-09-16T13:42:23Z</time>
      </trkpt>
      <trkpt lat="46.90572" lon="5.81138">
        <ele>471.66</ele>
        <time>2012-09-16T13:42:47Z</time>
      </trkpt>
      <trkpt lat="46.90572" lon="5.81139">
        <ele>471.18</ele>
        <time>2012-09-16T13:43:11Z</time>
      </trkpt>
      <trkpt lat="46.90572" lon="5.81139">
        <ele>471.66</ele>
        <time>2012-09-16T13:43:37Z</time>
      </trkpt>
      <trkpt lat="46.90573" lon="5.81139">
        <ele>471.66</ele>
        <time>2012-09-16T13:43:56Z</time>
      </trkpt>
      <trkpt lat="46.90573" lon="5.81139">
        <ele>471.66</ele>
        <time>2012-09-16T13:44:17Z</time>
      </trkpt>
      <trkpt lat="46.90573" lon="5.81139">
        <ele>471.66</ele>
        <time>2012-09-16T13:44:38Z</time>
      </trkpt>
      <trkpt lat="46.90573" lon="5.81139">
        <ele>471.66</ele>
        <time>2012-09-16T13:45:00Z</time>
      </trkpt>
      <trkpt lat="46.90573" lon="5.81139">
        <ele>472.14</ele>
        <time>2012-09-16T13:45:24Z</time>
      </trkpt>
      <trkpt lat="46.90573" lon="5.81139">
        <ele>471.66</ele>
        <time>2012-09-16T13:45:42Z</time>
      </trkpt>
      <trkpt lat="46.90573" lon="5.8114">
        <ele>472.14</ele>
        <time>2012-09-16T13:46:04Z</time>
      </trkpt>
      <trkpt lat="46.90573" lon="5.8114">
        <ele>472.14</ele>
        <time>2012-09-16T13:46:22Z</time>
      </trkpt>
      <trkpt lat="46.90573" lon="5.81139">
        <ele>472.14</ele>
        <time>2012-09-16T13:46:47Z</time>
      </trkpt>
      <trkpt lat="46.90574" lon="5.8114">
        <ele>471.66</ele>
        <time>2012-09-16T13:47:15Z</time>
      </trkpt>
      <trkpt lat="46.90574" lon="5.81138">
        <ele>472.14</ele>
        <time>2012-09-16T13:47:17Z</time>
      </trkpt>
      <trkpt lat="46.90575" lon="5.81124">
        <ele>470.22</ele>
        <time>2012-09-16T13:47:29Z</time>
      </trkpt>
      <trkpt lat="46.90576" lon="5.81113">
        <ele>468.78</ele>
        <time>2012-09-16T13:47:41Z</time>
      </trkpt>
      <trkpt lat="46.90576" lon="5.811">
        <ele>466.38</ele>
        <time>2012-09-16T13:47:54Z</time>
      </trkpt>
      <trkpt lat="46.90575" lon="5.81093">
        <ele>465.42</ele>
        <time>2012-09-16T13:48:01Z</time>
      </trkpt>
      <trkpt lat="46.90567" lon="5.81084">
        <ele>463.01</ele>
        <time>2012-09-16T13:48:13Z</time>
      </trkpt>
      <trkpt lat="46.90554" lon="5.81075">
        <ele>460.61</ele>
        <time>2012-09-16T13:48:28Z</time>
      </trkpt>
      <trkpt lat="46.90544" lon="5.81067">
        <ele>458.69</ele>
        <time>2012-09-16T13:48:39Z</time>
      </trkpt>
      <trkpt lat="46.9053" lon="5.81057">
        <ele>455.8</ele>
        <time>2012-09-16T13:48:54Z</time>
      </trkpt>
      <trkpt lat="46.90522" lon="5.81049">
        <ele>453.4</ele>
        <time>2012-09-16T13:49:06Z</time>
      </trkpt>
      <trkpt lat="46.90513" lon="5.81043">
        <ele>451.96</ele>
        <time>2012-09-16T13:49:15Z</time>
      </trkpt>
      <trkpt lat="46.905" lon="5.81034">
        <ele>449.55</ele>
        <time>2012-09-16T13:49:29Z</time>
      </trkpt>
      <trkpt lat="46.90496" lon="5.81033">
        <ele>448.11</ele>
        <time>2012-09-16T13:49:33Z</time>
      </trkpt>
      <trkpt lat="46.90483" lon="5.81025">
        <ele>446.19</ele>
        <time>2012-09-16T13:49:46Z</time>
      </trkpt>
      <trkpt lat="46.90479" lon="5.81025">
        <ele>445.23</ele>
        <time>2012-09-16T13:49:51Z</time>
      </trkpt>
      <trkpt lat="46.90467" lon="5.81023">
        <ele>443.79</ele>
        <time>2012-09-16T13:50:03Z</time>
      </trkpt>
      <trkpt lat="46.90463" lon="5.81019">
        <ele>442.34</ele>
        <time>2012-09-16T13:50:08Z</time>
      </trkpt>
      <trkpt lat="46.90453" lon="5.81009">
        <ele>439.94</ele>
        <time>2012-09-16T13:50:22Z</time>
      </trkpt>
      <trkpt lat="46.90452" lon="5.81009">
        <ele>440.42</ele>
        <time>2012-09-16T13:50:23Z</time>
      </trkpt>
      <trkpt lat="46.90447" lon="5.8101">
        <ele>439.46</ele>
        <time>2012-09-16T13:50:27Z</time>
      </trkpt>
      <trkpt lat="46.9044" lon="5.81005">
        <ele>438.5</ele>
        <time>2012-09-16T13:50:34Z</time>
      </trkpt>
      <trkpt lat="46.90429" lon="5.80999">
        <ele>435.61</ele>
        <time>2012-09-16T13:50:48Z</time>
      </trkpt>
      <trkpt lat="46.90425" lon="5.80996">
        <ele>434.65</ele>
        <time>2012-09-16T13:50:54Z</time>
      </trkpt>
      <trkpt lat="46.9041" lon="5.80994">
        <ele>432.73</ele>
        <time>2012-09-16T13:51:07Z</time>
      </trkpt>
      <trkpt lat="46.90404" lon="5.80993">
        <ele>432.25</ele>
        <time>2012-09-16T13:51:12Z</time>
      </trkpt>
      <trkpt lat="46.90401" lon="5.80993">
        <ele>431.77</ele>
        <time>2012-09-16T13:51:15Z</time>
      </trkpt>
      <trkpt lat="46.90399" lon="5.80992">
        <ele>430.81</ele>
        <time>2012-09-16T13:51:19Z</time>
      </trkpt>
      <trkpt lat="46.90385" lon="5.80991">
        <ele>428.4</ele>
        <time>2012-09-16T13:51:32Z</time>
      </trkpt>
      <trkpt lat="46.90373" lon="5.80992">
        <ele>426.48</ele>
        <time>2012-09-16T13:51:44Z</time>
      </trkpt>
      <trkpt lat="46.90356" lon="5.80988">
        <ele>424.08</ele>
        <time>2012-09-16T13:52:00Z</time>
      </trkpt>
      <trkpt lat="46.90345" lon="5.80985">
        <ele>421.68</ele>
        <time>2012-09-16T13:52:10Z</time>
      </trkpt>
      <trkpt lat="46.90335" lon="5.80979">
        <ele>419.27</ele>
        <time>2012-09-16T13:52:24Z</time>
      </trkpt>
      <trkpt lat="46.90334" lon="5.80979">
        <ele>419.27</ele>
        <time>2012-09-16T13:52:25Z</time>
      </trkpt>
      <trkpt lat="46.90324" lon="5.80971">
        <ele>417.83</ele>
        <time>2012-09-16T13:52:36Z</time>
      </trkpt>
      <trkpt lat="46.90321" lon="5.80966">
        <ele>417.35</ele>
        <time>2012-09-16T13:52:40Z</time>
      </trkpt>
      <trkpt lat="46.9032" lon="5.80965">
        <ele>416.87</ele>
        <time>2012-09-16T13:52:42Z</time>
      </trkpt>
      <trkpt lat="46.90318" lon="5.80963">
        <ele>416.87</ele>
        <time>2012-09-16T13:52:44Z</time>
      </trkpt>
      <trkpt lat="46.90306" lon="5.80951">
        <ele>414.95</ele>
        <time>2012-09-16T13:52:57Z</time>
      </trkpt>
      <trkpt lat="46.90295" lon="5.80934">
        <ele>413.02</ele>
        <time>2012-09-16T13:53:11Z</time>
      </trkpt>
      <trkpt lat="46.90288" lon="5.80927">
        <ele>411.58</ele>
        <time>2012-09-16T13:53:19Z</time>
      </trkpt>
      <trkpt lat="46.90282" lon="5.8092">
        <ele>410.14</ele>
        <time>2012-09-16T13:53:26Z</time>
      </trkpt>
      <trkpt lat="46.90274" lon="5.80899">
        <ele>407.74</ele>
        <time>2012-09-16T13:53:42Z</time>
      </trkpt>
      <trkpt lat="46.90269" lon="5.80888">
        <ele>406.29</ele>
        <time>2012-09-16T13:53:51Z</time>
      </trkpt>
      <trkpt lat="46.90264" lon="5.80867">
        <ele>403.41</ele>
        <time>2012-09-16T13:54:05Z</time>
      </trkpt>
      <trkpt lat="46.9026" lon="5.80845">
        <ele>400.53</ele>
        <time>2012-09-16T13:54:18Z</time>
      </trkpt>
      <trkpt lat="46.9026" lon="5.80836">
        <ele>399.57</ele>
        <time>2012-09-16T13:54:23Z</time>
      </trkpt>
      <trkpt lat="46.9026" lon="5.80831">
        <ele>399.08</ele>
        <time>2012-09-16T13:54:26Z</time>
      </trkpt>
      <trkpt lat="46.9026" lon="5.80828">
        <ele>398.6</ele>
        <time>2012-09-16T13:54:28Z</time>
      </trkpt>
      <trkpt lat="46.9026" lon="5.80816">
        <ele>397.16</ele>
        <time>2012-09-16T13:54:34Z</time>
      </trkpt>
      <trkpt lat="46.90261" lon="5.80811">
        <ele>396.2</ele>
        <time>2012-09-16T13:54:37Z</time>
      </trkpt>
      <trkpt lat="46.90263" lon="5.8079">
        <ele>393.32</ele>
        <time>2012-09-16T13:54:51Z</time>
      </trkpt>
      <trkpt lat="46.90263" lon="5.80783">
        <ele>392.84</ele>
        <time>2012-09-16T13:54:56Z</time>
      </trkpt>
      <trkpt lat="46.90263" lon="5.80767">
        <ele>391.39</ele>
        <time>2012-09-16T13:55:06Z</time>
      </trkpt>
      <trkpt lat="46.90263" lon="5.80764">
        <ele>390.91</ele>
        <time>2012-09-16T13:55:08Z</time>
      </trkpt>
      <trkpt lat="46.90264" lon="5.80761">
        <ele>390.43</ele>
        <time>2012-09-16T13:55:10Z</time>
      </trkpt>
      <trkpt lat="46.90263" lon="5.80753">
        <ele>389.95</ele>
        <time>2012-09-16T13:55:15Z</time>
      </trkpt>
      <trkpt lat="46.90263" lon="5.8075">
        <ele>389.47</ele>
        <time>2012-09-16T13:55:17Z</time>
      </trkpt>
      <trkpt lat="46.90263" lon="5.80725">
        <ele>387.07</ele>
        <time>2012-09-16T13:55:33Z</time>
      </trkpt>
      <trkpt lat="46.90264" lon="5.8072">
        <ele>387.07</ele>
        <time>2012-09-16T13:55:36Z</time>
      </trkpt>
      <trkpt lat="46.90264" lon="5.80699">
        <ele>385.63</ele>
        <time>2012-09-16T13:55:48Z</time>
      </trkpt>
      <trkpt lat="46.90266" lon="5.80677">
        <ele>383.7</ele>
        <time>2012-09-16T13:56:02Z</time>
      </trkpt>
      <trkpt lat="46.90266" lon="5.80663">
        <ele>382.26</ele>
        <time>2012-09-16T13:56:10Z</time>
      </trkpt>
      <trkpt lat="46.90267" lon="5.80652">
        <ele>381.3</ele>
        <time>2012-09-16T13:56:17Z</time>
      </trkpt>
      <trkpt lat="46.90269" lon="5.80637">
        <ele>380.34</ele>
        <time>2012-09-16T13:56:26Z</time>
      </trkpt>
      <trkpt lat="46.90265" lon="5.80614">
        <ele>377.94</ele>
        <time>2012-09-16T13:56:41Z</time>
      </trkpt>
      <trkpt lat="46.90264" lon="5.80585">
        <ele>376.49</ele>
        <time>2012-09-16T13:56:59Z</time>
      </trkpt>
      <trkpt lat="46.90264" lon="5.80583">
        <ele>376.01</ele>
        <time>2012-09-16T13:57:04Z</time>
      </trkpt>
      <trkpt lat="46.90264" lon="5.8058">
        <ele>376.01</ele>
        <time>2012-09-16T13:57:06Z</time>
      </trkpt>
      <trkpt lat="46.90262" lon="5.8056">
        <ele>374.09</ele>
        <time>2012-09-16T13:57:19Z</time>
      </trkpt>
      <trkpt lat="46.90262" lon="5.80535">
        <ele>372.17</ele>
        <time>2012-09-16T13:57:36Z</time>
      </trkpt>
      <trkpt lat="46.90262" lon="5.80533">
        <ele>372.17</ele>
        <time>2012-09-16T13:57:38Z</time>
      </trkpt>
      <trkpt lat="46.90262" lon="5.8051">
        <ele>370.73</ele>
        <time>2012-09-16T13:57:54Z</time>
      </trkpt>
      <trkpt lat="46.90262" lon="5.80502">
        <ele>369.28</ele>
        <time>2012-09-16T13:57:59Z</time>
      </trkpt>
      <trkpt lat="46.90259" lon="5.80485">
        <ele>368.32</ele>
        <time>2012-09-16T13:58:15Z</time>
      </trkpt>
      <trkpt lat="46.90255" lon="5.8047">
        <ele>367.84</ele>
        <time>2012-09-16T13:58:25Z</time>
      </trkpt>
      <trkpt lat="46.90248" lon="5.80446">
        <ele>364.96</ele>
        <time>2012-09-16T13:58:42Z</time>
      </trkpt>
      <trkpt lat="46.90242" lon="5.80424">
        <ele>364</ele>
        <time>2012-09-16T13:58:56Z</time>
      </trkpt>
      <trkpt lat="46.90234" lon="5.80398">
        <ele>363.52</ele>
        <time>2012-09-16T13:59:12Z</time>
      </trkpt>
      <trkpt lat="46.9023" lon="5.80377">
        <ele>362.07</ele>
        <time>2012-09-16T13:59:26Z</time>
      </trkpt>
      <trkpt lat="46.90222" lon="5.80351">
        <ele>360.63</ele>
        <time>2012-09-16T13:59:43Z</time>
      </trkpt>
      <trkpt lat="46.90214" lon="5.80324">
        <ele>359.67</ele>
        <time>2012-09-16T14:00:00Z</time>
      </trkpt>
      <trkpt lat="46.90209" lon="5.80297">
        <ele>359.19</ele>
        <time>2012-09-16T14:00:16Z</time>
      </trkpt>
      <trkpt lat="46.90209" lon="5.80281">
        <ele>358.71</ele>
        <time>2012-09-16T14:00:26Z</time>
      </trkpt>
      <trkpt lat="46.90212" lon="5.80271">
        <ele>359.19</ele>
        <time>2012-09-16T14:00:35Z</time>
      </trkpt>
      <trkpt lat="46.90214" lon="5.80265">
        <ele>358.71</ele>
        <time>2012-09-16T14:00:39Z</time>
      </trkpt>
      <trkpt lat="46.9022" lon="5.80258">
        <ele>358.71</ele>
        <time>2012-09-16T14:00:46Z</time>
      </trkpt>
      <trkpt lat="46.9023" lon="5.80237">
        <ele>356.31</ele>
        <time>2012-09-16T14:01:01Z</time>
      </trkpt>
      <trkpt lat="46.90231" lon="5.80235">
        <ele>356.31</ele>
        <time>2012-09-16T14:01:03Z</time>
      </trkpt>
      <trkpt lat="46.90232" lon="5.80226">
        <ele>355.34</ele>
        <time>2012-09-16T14:01:09Z</time>
      </trkpt>
      <trkpt lat="46.90233" lon="5.80213">
        <ele>355.34</ele>
        <time>2012-09-16T14:01:16Z</time>
      </trkpt>
      <trkpt lat="46.90233" lon="5.80205">
        <ele>354.38</ele>
        <time>2012-09-16T14:01:21Z</time>
      </trkpt>
      <trkpt lat="46.90229" lon="5.80174">
        <ele>352.94</ele>
        <time>2012-09-16T14:01:40Z</time>
      </trkpt>
      <trkpt lat="46.90224" lon="5.80147">
        <ele>350.54</ele>
        <time>2012-09-16T14:01:56Z</time>
      </trkpt>
      <trkpt lat="46.90223" lon="5.80144">
        <ele>350.06</ele>
        <time>2012-09-16T14:01:58Z</time>
      </trkpt>
      <trkpt lat="46.90221" lon="5.8013">
        <ele>349.1</ele>
        <time>2012-09-16T14:02:06Z</time>
      </trkpt>
      <trkpt lat="46.90218" lon="5.80104">
        <ele>347.65</ele>
        <time>2012-09-16T14:02:22Z</time>
      </trkpt>
      <trkpt lat="46.90216" lon="5.80097">
        <ele>347.65</ele>
        <time>2012-09-16T14:02:26Z</time>
      </trkpt>
      <trkpt lat="46.90212" lon="5.80065">
        <ele>345.73</ele>
        <time>2012-09-16T14:02:44Z</time>
      </trkpt>
      <trkpt lat="46.90206" lon="5.80031">
        <ele>344.29</ele>
        <time>2012-09-16T14:03:04Z</time>
      </trkpt>
      <trkpt lat="46.90202" lon="5.80003">
        <ele>343.81</ele>
        <time>2012-09-16T14:03:20Z</time>
      </trkpt>
      <trkpt lat="46.90197" lon="5.79975">
        <ele>341.89</ele>
        <time>2012-09-16T14:03:37Z</time>
      </trkpt>
      <trkpt lat="46.90195" lon="5.79966">
        <ele>341.89</ele>
        <time>2012-09-16T14:03:42Z</time>
      </trkpt>
      <trkpt lat="46.90192" lon="5.79949">
        <ele>341.41</ele>
        <time>2012-09-16T14:03:52Z</time>
      </trkpt>
      <trkpt lat="46.90189" lon="5.79925">
        <ele>340.92</ele>
        <time>2012-09-16T14:04:06Z</time>
      </trkpt>
      <trkpt lat="46.90185" lon="5.799">
        <ele>339.48</ele>
        <time>2012-09-16T14:04:21Z</time>
      </trkpt>
      <trkpt lat="46.90181" lon="5.79875">
        <ele>339</ele>
        <time>2012-09-16T14:04:36Z</time>
      </trkpt>
      <trkpt lat="46.90178" lon="5.79858">
        <ele>338.04</ele>
        <time>2012-09-16T14:04:47Z</time>
      </trkpt>
      <trkpt lat="46.90176" lon="5.79846">
        <ele>338.04</ele>
        <time>2012-09-16T14:04:54Z</time>
      </trkpt>
      <trkpt lat="46.90175" lon="5.79843">
        <ele>337.56</ele>
        <time>2012-09-16T14:04:56Z</time>
      </trkpt>
      <trkpt lat="46.90175" lon="5.79833">
        <ele>337.56</ele>
        <time>2012-09-16T14:05:02Z</time>
      </trkpt>
      <trkpt lat="46.90175" lon="5.79805">
        <ele>336.6</ele>
        <time>2012-09-16T14:05:18Z</time>
      </trkpt>
      <trkpt lat="46.90177" lon="5.79779">
        <ele>336.12</ele>
        <time>2012-09-16T14:05:33Z</time>
      </trkpt>
      <trkpt lat="46.90179" lon="5.79768">
        <ele>335.64</ele>
        <time>2012-09-16T14:05:39Z</time>
      </trkpt>
      <trkpt lat="46.90183" lon="5.79743">
        <ele>335.64</ele>
        <time>2012-09-16T14:05:54Z</time>
      </trkpt>
      <trkpt lat="46.90185" lon="5.79713">
        <ele>334.68</ele>
        <time>2012-09-16T14:06:11Z</time>
      </trkpt>
      <trkpt lat="46.90187" lon="5.79686">
        <ele>334.2</ele>
        <time>2012-09-16T14:06:27Z</time>
      </trkpt>
      <trkpt lat="46.9019" lon="5.79659">
        <ele>334.2</ele>
        <time>2012-09-16T14:06:43Z</time>
      </trkpt>
      <trkpt lat="46.9019" lon="5.79652">
        <ele>333.71</ele>
        <time>2012-09-16T14:06:48Z</time>
      </trkpt>
      <trkpt lat="46.90192" lon="5.79632">
        <ele>333.71</ele>
        <time>2012-09-16T14:07:01Z</time>
      </trkpt>
      <trkpt lat="46.90192" lon="5.7963">
        <ele>334.2</ele>
        <time>2012-09-16T14:07:02Z</time>
      </trkpt>
      <trkpt lat="46.90192" lon="5.79628">
        <ele>333.71</ele>
        <time>2012-09-16T14:07:16Z</time>
      </trkpt>
      <trkpt lat="46.90192" lon="5.79628">
        <ele>333.71</ele>
        <time>2012-09-16T14:07:39Z</time>
      </trkpt>
      <trkpt lat="46.90193" lon="5.7963">
        <ele>333.71</ele>
        <time>2012-09-16T14:07:59Z</time>
      </trkpt>
      <trkpt lat="46.90193" lon="5.79632">
        <ele>333.71</ele>
        <time>2012-09-16T14:08:14Z</time>
      </trkpt>
      <trkpt lat="46.90193" lon="5.79631">
        <ele>333.23</ele>
        <time>2012-09-16T14:08:39Z</time>
      </trkpt>
      <trkpt lat="46.90194" lon="5.79625">
        <ele>333.71</ele>
        <time>2012-09-16T14:08:45Z</time>
      </trkpt>
      <trkpt lat="46.90193" lon="5.79616">
        <ele>333.71</ele>
        <time>2012-09-16T14:08:50Z</time>
      </trkpt>
      <trkpt lat="46.90189" lon="5.79587">
        <ele>333.71</ele>
        <time>2012-09-16T14:09:06Z</time>
      </trkpt>
      <trkpt lat="46.90186" lon="5.79561">
        <ele>333.71</ele>
        <time>2012-09-16T14:09:21Z</time>
      </trkpt>
      <trkpt lat="46.90186" lon="5.79559">
        <ele>333.23</ele>
        <time>2012-09-16T14:09:22Z</time>
      </trkpt>
      <trkpt lat="46.90185" lon="5.79553">
        <ele>333.23</ele>
        <time>2012-09-16T14:09:26Z</time>
      </trkpt>
      <trkpt lat="46.90176" lon="5.79532">
        <ele>332.27</ele>
        <time>2012-09-16T14:09:41Z</time>
      </trkpt>
      <trkpt lat="46.90169" lon="5.79514">
        <ele>332.75</ele>
        <time>2012-09-16T14:09:54Z</time>
      </trkpt>
      <trkpt lat="46.90161" lon="5.79495">
        <ele>331.79</ele>
        <time>2012-09-16T14:10:06Z</time>
      </trkpt>
      <trkpt lat="46.90157" lon="5.7948">
        <ele>331.79</ele>
        <time>2012-09-16T14:10:17Z</time>
      </trkpt>
      <trkpt lat="46.9015" lon="5.79453">
        <ele>331.31</ele>
        <time>2012-09-16T14:10:33Z</time>
      </trkpt>
      <trkpt lat="46.90151" lon="5.7945">
        <ele>331.31</ele>
        <time>2012-09-16T14:10:35Z</time>
      </trkpt>
      <trkpt lat="46.90147" lon="5.7943">
        <ele>330.35</ele>
        <time>2012-09-16T14:10:47Z</time>
      </trkpt>
      <trkpt lat="46.90146" lon="5.79399">
        <ele>329.39</ele>
        <time>2012-09-16T14:11:05Z</time>
      </trkpt>
      <trkpt lat="46.90146" lon="5.79389">
        <ele>328.91</ele>
        <time>2012-09-16T14:11:11Z</time>
      </trkpt>
      <trkpt lat="46.9015" lon="5.79363">
        <ele>327.95</ele>
        <time>2012-09-16T14:11:27Z</time>
      </trkpt>
      <trkpt lat="46.90154" lon="5.79351">
        <ele>327.95</ele>
        <time>2012-09-16T14:11:34Z</time>
      </trkpt>
      <trkpt lat="46.90153" lon="5.79345">
        <ele>325.54</ele>
        <time>2012-09-16T14:11:47Z</time>
      </trkpt>
      <trkpt lat="46.90151" lon="5.79345">
        <ele>325.06</ele>
        <time>2012-09-16T14:11:50Z</time>
      </trkpt>
      <trkpt lat="46.90144" lon="5.79352">
        <ele>324.1</ele>
        <time>2012-09-16T14:12:06Z</time>
      </trkpt>
      <trkpt lat="46.90144" lon="5.79352">
        <ele>324.1</ele>
        <time>2012-09-16T14:12:27Z</time>
      </trkpt>
      <trkpt lat="46.90145" lon="5.79352">
        <ele>324.58</ele>
        <time>2012-09-16T14:12:49Z</time>
      </trkpt>
      <trkpt lat="46.90143" lon="5.79355">
        <ele>323.62</ele>
        <time>2012-09-16T14:13:06Z</time>
      </trkpt>
      <trkpt lat="46.90133" lon="5.79373">
        <ele>323.62</ele>
        <time>2012-09-16T14:13:20Z</time>
      </trkpt>
      <trkpt lat="46.90122" lon="5.79392">
        <ele>322.18</ele>
        <time>2012-09-16T14:13:35Z</time>
      </trkpt>
      <trkpt lat="46.90111" lon="5.79412">
        <ele>320.74</ele>
        <time>2012-09-16T14:13:49Z</time>
      </trkpt>
      <trkpt lat="46.90101" lon="5.79426">
        <ele>320.26</ele>
        <time>2012-09-16T14:14:02Z</time>
      </trkpt>
      <trkpt lat="46.90091" lon="5.79443">
        <ele>319.3</ele>
        <time>2012-09-16T14:14:15Z</time>
      </trkpt>
      <trkpt lat="46.90088" lon="5.79448">
        <ele>319.3</ele>
        <time>2012-09-16T14:14:19Z</time>
      </trkpt>
      <trkpt lat="46.90082" lon="5.79456">
        <ele>318.33</ele>
        <time>2012-09-16T14:14:26Z</time>
      </trkpt>
      <trkpt lat="46.90069" lon="5.79477">
        <ele>317.85</ele>
        <time>2012-09-16T14:14:42Z</time>
      </trkpt>
      <trkpt lat="46.90058" lon="5.79496">
        <ele>317.85</ele>
        <time>2012-09-16T14:14:56Z</time>
      </trkpt>
      <trkpt lat="46.90053" lon="5.79507">
        <ele>317.37</ele>
        <time>2012-09-16T14:15:04Z</time>
      </trkpt>
      <trkpt lat="46.90047" lon="5.79522">
        <ele>317.37</ele>
        <time>2012-09-16T14:15:14Z</time>
      </trkpt>
      <trkpt lat="46.90039" lon="5.79538">
        <ele>317.37</ele>
        <time>2012-09-16T14:15:25Z</time>
      </trkpt>
      <trkpt lat="46.90035" lon="5.79546">
        <ele>316.89</ele>
        <time>2012-09-16T14:15:31Z</time>
      </trkpt>
      <trkpt lat="46.90028" lon="5.79565">
        <ele>317.37</ele>
        <time>2012-09-16T14:15:45Z</time>
      </trkpt>
      <trkpt lat="46.90026" lon="5.79571">
        <ele>317.37</ele>
        <time>2012-09-16T14:15:49Z</time>
      </trkpt>
      <trkpt lat="46.90023" lon="5.79578">
        <ele>316.41</ele>
        <time>2012-09-16T14:15:54Z</time>
      </trkpt>
      <trkpt lat="46.9002" lon="5.79592">
        <ele>316.89</ele>
        <time>2012-09-16T14:16:03Z</time>
      </trkpt>
      <trkpt lat="46.90018" lon="5.79603">
        <ele>316.89</ele>
        <time>2012-09-16T14:16:10Z</time>
      </trkpt>
      <trkpt lat="46.90016" lon="5.79607">
        <ele>316.41</ele>
        <time>2012-09-16T14:16:13Z</time>
      </trkpt>
      <trkpt lat="46.90008" lon="5.79614">
        <ele>316.41</ele>
        <time>2012-09-16T14:16:19Z</time>
      </trkpt>
      <trkpt lat="46.90002" lon="5.79613">
        <ele>315.93</ele>
        <time>2012-09-16T14:16:24Z</time>
      </trkpt>
      <trkpt lat="46.89986" lon="5.79592">
        <ele>315.93</ele>
        <time>2012-09-16T14:16:41Z</time>
      </trkpt>
      <trkpt lat="46.89975" lon="5.79574">
        <ele>315.45</ele>
        <time>2012-09-16T14:16:55Z</time>
      </trkpt>
      <trkpt lat="46.89966" lon="5.7955">
        <ele>315.93</ele>
        <time>2012-09-16T14:17:11Z</time>
      </trkpt>
      <trkpt lat="46.8996" lon="5.7953">
        <ele>316.41</ele>
        <time>2012-09-16T14:17:24Z</time>
      </trkpt>
      <trkpt lat="46.89951" lon="5.79504">
        <ele>315.45</ele>
        <time>2012-09-16T14:17:41Z</time>
      </trkpt>
      <trkpt lat="46.89942" lon="5.79475">
        <ele>314.97</ele>
        <time>2012-09-16T14:17:59Z</time>
      </trkpt>
      <trkpt lat="46.89935" lon="5.79451">
        <ele>314.49</ele>
        <time>2012-09-16T14:18:14Z</time>
      </trkpt>
      <trkpt lat="46.89927" lon="5.79426">
        <ele>314.01</ele>
        <time>2012-09-16T14:18:30Z</time>
      </trkpt>
      <trkpt lat="46.89923" lon="5.79407">
        <ele>313.53</ele>
        <time>2012-09-16T14:18:44Z</time>
      </trkpt>
      <trkpt lat="46.89923" lon="5.79408">
        <ele>314.01</ele>
        <time>2012-09-16T14:18:58Z</time>
      </trkpt>
      <trkpt lat="46.89923" lon="5.79408">
        <ele>314.01</ele>
        <time>2012-09-16T14:19:16Z</time>
      </trkpt>
      <trkpt lat="46.89923" lon="5.79407">
        <ele>313.53</ele>
        <time>2012-09-16T14:19:30Z</time>
      </trkpt>
      <trkpt lat="46.89923" lon="5.79407">
        <ele>314.01</ele>
        <time>2012-09-16T14:19:49Z</time>
      </trkpt>
      <trkpt lat="46.89923" lon="5.79406">
        <ele>313.53</ele>
        <time>2012-09-16T14:20:17Z</time>
      </trkpt>
      <trkpt lat="46.89923" lon="5.79406">
        <ele>314.01</ele>
        <time>2012-09-16T14:20:37Z</time>
      </trkpt>
      <trkpt lat="46.89924" lon="5.79406">
        <ele>314.01</ele>
        <time>2012-09-16T14:21:02Z</time>
      </trkpt>
      <trkpt lat="46.89924" lon="5.79406">
        <ele>314.01</ele>
        <time>2012-09-16T14:21:21Z</time>
      </trkpt>
      <trkpt lat="46.89924" lon="5.79406">
        <ele>314.01</ele>
        <time>2012-09-16T14:21:47Z</time>
      </trkpt>
      <trkpt lat="46.89924" lon="5.79406">
        <ele>314.01</ele>
        <time>2012-09-16T14:22:09Z</time>
      </trkpt>
      <trkpt lat="46.89923" lon="5.79403">
        <ele>314.01</ele>
        <time>2012-09-16T14:22:32Z</time>
      </trkpt>
      <trkpt lat="46.89922" lon="5.794">
        <ele>314.01</ele>
        <time>2012-09-16T14:22:36Z</time>
      </trkpt>
      <trkpt lat="46.89913" lon="5.79391">
        <ele>313.53</ele>
        <time>2012-09-16T14:22:45Z</time>
      </trkpt>
      <trkpt lat="46.89905" lon="5.79396">
        <ele>313.53</ele>
        <time>2012-09-16T14:22:57Z</time>
      </trkpt>
      <trkpt lat="46.89904" lon="5.79397">
        <ele>312.57</ele>
        <time>2012-09-16T14:23:08Z</time>
      </trkpt>
      <trkpt lat="46.89904" lon="5.79397">
        <ele>312.57</ele>
        <time>2012-09-16T14:23:37Z</time>
      </trkpt>
      <trkpt lat="46.89904" lon="5.79397">
        <ele>312.09</ele>
        <time>2012-09-16T14:24:00Z</time>
      </trkpt>
      <trkpt lat="46.89904" lon="5.79398">
        <ele>312.09</ele>
        <time>2012-09-16T14:24:24Z</time>
      </trkpt>
      <trkpt lat="46.89904" lon="5.79398">
        <ele>312.09</ele>
        <time>2012-09-16T14:24:57Z</time>
      </trkpt>
      <trkpt lat="46.89904" lon="5.79398">
        <ele>312.09</ele>
        <time>2012-09-16T14:25:34Z</time>
      </trkpt>
      <trkpt lat="46.89904" lon="5.79397">
        <ele>312.09</ele>
        <time>2012-09-16T14:26:07Z</time>
      </trkpt>
      <trkpt lat="46.89903" lon="5.79398">
        <ele>311.6</ele>
        <time>2012-09-16T14:26:38Z</time>
      </trkpt>
      <trkpt lat="46.89903" lon="5.79398">
        <ele>311.6</ele>
        <time>2012-09-16T14:27:08Z</time>
      </trkpt>
      <trkpt lat="46.89903" lon="5.79399">
        <ele>313.05</ele>
        <time>2012-09-16T14:27:29Z</time>
      </trkpt>
      <trkpt lat="46.89903" lon="5.79399">
        <ele>298.15</ele>
        <time>2012-09-16T14:27:40Z</time>
      </trkpt>
      <trkpt lat="46.89903" lon="5.79399">
        <ele>313.53</ele>
        <time>2012-09-16T14:27:41Z</time>
      </trkpt>
    </trkseg>
  </trk>
</gpx>